<?xml version="1.0" encoding="UTF-8" standalone="no" ?>
<gpx xmlns="http://www.topografix.com/GPX/1/1" xmlns:xsi="http://www.w3.org/2001/XMLSchema-instance" xsi:schemaLocation="http://www.topografix.com/GPX/1/1 http://www.topografix.com/GPX/1/1/gpx.xsd" version="1.1" creator="VisuGPX - https://www.visugpx.com">
  <metadata>
    <name>Trois chateaux depuis Wintzenheim</name>
    <desc><![CDATA[Des passages trialisants, pas de plat ! :o)
]]></desc>
  </metadata>
  <trk>
    <name><![CDATA[trois chateau 10-5-13]]></name>
    <trkseg>
      <trkpt lat="48.07023" lon="7.29924">
        <ele>221</ele>
        <time>2013-05-10T12:38:28Z</time>
      </trkpt>
      <trkpt lat="48.07017" lon="7.29911">
        <ele>222</ele>
        <time>2013-05-10T12:38:31Z</time>
      </trkpt>
      <trkpt lat="48.07017" lon="7.29893">
        <ele>222</ele>
        <time>2013-05-10T12:38:36Z</time>
      </trkpt>
      <trkpt lat="48.07014" lon="7.29886">
        <ele>222</ele>
        <time>2013-05-10T12:38:38Z</time>
      </trkpt>
      <trkpt lat="48.07011" lon="7.29879">
        <ele>222</ele>
        <time>2013-05-10T12:38:40Z</time>
      </trkpt>
      <trkpt lat="48.07016" lon="7.29863">
        <ele>222</ele>
        <time>2013-05-10T12:38:45Z</time>
      </trkpt>
      <trkpt lat="48.07035" lon="7.29823">
        <ele>223</ele>
        <time>2013-05-10T12:38:55Z</time>
      </trkpt>
      <trkpt lat="48.07048" lon="7.29797">
        <ele>223</ele>
        <time>2013-05-10T12:39:02Z</time>
      </trkpt>
      <trkpt lat="48.07059" lon="7.29772">
        <ele>223</ele>
        <time>2013-05-10T12:39:09Z</time>
      </trkpt>
      <trkpt lat="48.07072" lon="7.29739">
        <ele>223</ele>
        <time>2013-05-10T12:39:17Z</time>
      </trkpt>
      <trkpt lat="48.07083" lon="7.29711">
        <ele>223</ele>
        <time>2013-05-10T12:39:23Z</time>
      </trkpt>
      <trkpt lat="48.07093" lon="7.29687">
        <ele>223</ele>
        <time>2013-05-10T12:39:29Z</time>
      </trkpt>
      <trkpt lat="48.07085" lon="7.29677">
        <ele>224</ele>
        <time>2013-05-10T12:39:33Z</time>
      </trkpt>
      <trkpt lat="48.07073" lon="7.29676">
        <ele>224</ele>
        <time>2013-05-10T12:39:36Z</time>
      </trkpt>
      <trkpt lat="48.07023" lon="7.29649">
        <ele>224</ele>
        <time>2013-05-10T12:39:49Z</time>
      </trkpt>
      <trkpt lat="48.07004" lon="7.29638">
        <ele>224</ele>
        <time>2013-05-10T12:39:54Z</time>
      </trkpt>
      <trkpt lat="48.06983" lon="7.2964">
        <ele>223</ele>
        <time>2013-05-10T12:39:59Z</time>
      </trkpt>
      <trkpt lat="48.06977" lon="7.2965">
        <ele>222</ele>
        <time>2013-05-10T12:40:01Z</time>
      </trkpt>
      <trkpt lat="48.06969" lon="7.29676">
        <ele>222</ele>
        <time>2013-05-10T12:40:05Z</time>
      </trkpt>
      <trkpt lat="48.06959" lon="7.29695">
        <ele>222</ele>
        <time>2013-05-10T12:40:09Z</time>
      </trkpt>
      <trkpt lat="48.06951" lon="7.29691">
        <ele>222</ele>
        <time>2013-05-10T12:40:11Z</time>
      </trkpt>
      <trkpt lat="48.06906" lon="7.29655">
        <ele>221</ele>
        <time>2013-05-10T12:40:22Z</time>
      </trkpt>
      <trkpt lat="48.06879" lon="7.29634">
        <ele>222</ele>
        <time>2013-05-10T12:40:29Z</time>
      </trkpt>
      <trkpt lat="48.06864" lon="7.29633">
        <ele>222</ele>
        <time>2013-05-10T12:40:33Z</time>
      </trkpt>
      <trkpt lat="48.0686" lon="7.29643">
        <ele>222</ele>
        <time>2013-05-10T12:40:35Z</time>
      </trkpt>
      <trkpt lat="48.06844" lon="7.29692">
        <ele>222</ele>
        <time>2013-05-10T12:40:44Z</time>
      </trkpt>
      <trkpt lat="48.06832" lon="7.297">
        <ele>222</ele>
        <time>2013-05-10T12:40:48Z</time>
      </trkpt>
      <trkpt lat="48.06821" lon="7.29693">
        <ele>222</ele>
        <time>2013-05-10T12:40:51Z</time>
      </trkpt>
      <trkpt lat="48.06784" lon="7.29656">
        <ele>225</ele>
        <time>2013-05-10T12:41:02Z</time>
      </trkpt>
      <trkpt lat="48.06762" lon="7.29643">
        <ele>226</ele>
        <time>2013-05-10T12:41:09Z</time>
      </trkpt>
      <trkpt lat="48.06747" lon="7.29634">
        <ele>231</ele>
        <time>2013-05-10T12:41:16Z</time>
      </trkpt>
      <trkpt lat="48.06729" lon="7.29627">
        <ele>233</ele>
        <time>2013-05-10T12:41:26Z</time>
      </trkpt>
      <trkpt lat="48.06715" lon="7.29629">
        <ele>233</ele>
        <time>2013-05-10T12:41:34Z</time>
      </trkpt>
      <trkpt lat="48.06702" lon="7.29635">
        <ele>234</ele>
        <time>2013-05-10T12:41:42Z</time>
      </trkpt>
      <trkpt lat="48.06689" lon="7.29642">
        <ele>234</ele>
        <time>2013-05-10T12:41:50Z</time>
      </trkpt>
      <trkpt lat="48.06675" lon="7.29651">
        <ele>233</ele>
        <time>2013-05-10T12:42:00Z</time>
      </trkpt>
      <trkpt lat="48.06658" lon="7.29662">
        <ele>233</ele>
        <time>2013-05-10T12:42:11Z</time>
      </trkpt>
      <trkpt lat="48.06647" lon="7.29663">
        <ele>234</ele>
        <time>2013-05-10T12:42:18Z</time>
      </trkpt>
      <trkpt lat="48.0664" lon="7.29652">
        <ele>235</ele>
        <time>2013-05-10T12:42:25Z</time>
      </trkpt>
      <trkpt lat="48.06635" lon="7.29629">
        <ele>237</ele>
        <time>2013-05-10T12:42:36Z</time>
      </trkpt>
      <trkpt lat="48.06633" lon="7.29606">
        <ele>239</ele>
        <time>2013-05-10T12:42:47Z</time>
      </trkpt>
      <trkpt lat="48.0663" lon="7.29584">
        <ele>239</ele>
        <time>2013-05-10T12:42:58Z</time>
      </trkpt>
      <trkpt lat="48.06628" lon="7.2956">
        <ele>247</ele>
        <time>2013-05-10T12:43:09Z</time>
      </trkpt>
      <trkpt lat="48.0663" lon="7.29541">
        <ele>248</ele>
        <time>2013-05-10T12:43:17Z</time>
      </trkpt>
      <trkpt lat="48.06631" lon="7.29523">
        <ele>250</ele>
        <time>2013-05-10T12:43:26Z</time>
      </trkpt>
      <trkpt lat="48.06633" lon="7.29502">
        <ele>251</ele>
        <time>2013-05-10T12:43:36Z</time>
      </trkpt>
      <trkpt lat="48.06629" lon="7.29476">
        <ele>257</ele>
        <time>2013-05-10T12:43:48Z</time>
      </trkpt>
      <trkpt lat="48.06626" lon="7.29458">
        <ele>258</ele>
        <time>2013-05-10T12:43:57Z</time>
      </trkpt>
      <trkpt lat="48.06619" lon="7.2944">
        <ele>258</ele>
        <time>2013-05-10T12:44:07Z</time>
      </trkpt>
      <trkpt lat="48.06613" lon="7.29419">
        <ele>258</ele>
        <time>2013-05-10T12:44:17Z</time>
      </trkpt>
      <trkpt lat="48.06606" lon="7.29393">
        <ele>264</ele>
        <time>2013-05-10T12:44:29Z</time>
      </trkpt>
      <trkpt lat="48.066" lon="7.29372">
        <ele>266</ele>
        <time>2013-05-10T12:44:38Z</time>
      </trkpt>
      <trkpt lat="48.06593" lon="7.29345">
        <ele>267</ele>
        <time>2013-05-10T12:44:50Z</time>
      </trkpt>
      <trkpt lat="48.06586" lon="7.2932">
        <ele>272</ele>
        <time>2013-05-10T12:45:01Z</time>
      </trkpt>
      <trkpt lat="48.06578" lon="7.29295">
        <ele>268</ele>
        <time>2013-05-10T12:45:12Z</time>
      </trkpt>
      <trkpt lat="48.06568" lon="7.29272">
        <ele>271</ele>
        <time>2013-05-10T12:45:23Z</time>
      </trkpt>
      <trkpt lat="48.06556" lon="7.29247">
        <ele>278</ele>
        <time>2013-05-10T12:45:34Z</time>
      </trkpt>
      <trkpt lat="48.06546" lon="7.29221">
        <ele>278</ele>
        <time>2013-05-10T12:45:46Z</time>
      </trkpt>
      <trkpt lat="48.06539" lon="7.29197">
        <ele>279</ele>
        <time>2013-05-10T12:45:57Z</time>
      </trkpt>
      <trkpt lat="48.06533" lon="7.29173">
        <ele>280</ele>
        <time>2013-05-10T12:46:08Z</time>
      </trkpt>
      <trkpt lat="48.06532" lon="7.29167">
        <ele>286</ele>
        <time>2013-05-10T12:46:11Z</time>
      </trkpt>
      <trkpt lat="48.06537" lon="7.2916">
        <ele>287</ele>
        <time>2013-05-10T12:46:15Z</time>
      </trkpt>
      <trkpt lat="48.06547" lon="7.29162">
        <ele>288</ele>
        <time>2013-05-10T12:46:21Z</time>
      </trkpt>
      <trkpt lat="48.06561" lon="7.29177">
        <ele>283</ele>
        <time>2013-05-10T12:46:31Z</time>
      </trkpt>
      <trkpt lat="48.06574" lon="7.29191">
        <ele>283</ele>
        <time>2013-05-10T12:46:39Z</time>
      </trkpt>
      <trkpt lat="48.06594" lon="7.29217">
        <ele>288</ele>
        <time>2013-05-10T12:46:50Z</time>
      </trkpt>
      <trkpt lat="48.06614" lon="7.29244">
        <ele>287</ele>
        <time>2013-05-10T12:46:59Z</time>
      </trkpt>
      <trkpt lat="48.06632" lon="7.29269">
        <ele>281</ele>
        <time>2013-05-10T12:47:07Z</time>
      </trkpt>
      <trkpt lat="48.06652" lon="7.29288">
        <ele>281</ele>
        <time>2013-05-10T12:47:15Z</time>
      </trkpt>
      <trkpt lat="48.06668" lon="7.29297">
        <ele>283</ele>
        <time>2013-05-10T12:47:22Z</time>
      </trkpt>
      <trkpt lat="48.06678" lon="7.2929">
        <ele>283</ele>
        <time>2013-05-10T12:47:28Z</time>
      </trkpt>
      <trkpt lat="48.06681" lon="7.29277">
        <ele>284</ele>
        <time>2013-05-10T12:47:34Z</time>
      </trkpt>
      <trkpt lat="48.0668" lon="7.29255">
        <ele>287</ele>
        <time>2013-05-10T12:47:44Z</time>
      </trkpt>
      <trkpt lat="48.06679" lon="7.29233">
        <ele>291</ele>
        <time>2013-05-10T12:47:54Z</time>
      </trkpt>
      <trkpt lat="48.06679" lon="7.2921">
        <ele>292</ele>
        <time>2013-05-10T12:48:05Z</time>
      </trkpt>
      <trkpt lat="48.06676" lon="7.29187">
        <ele>294</ele>
        <time>2013-05-10T12:48:15Z</time>
      </trkpt>
      <trkpt lat="48.06673" lon="7.29168">
        <ele>298</ele>
        <time>2013-05-10T12:48:24Z</time>
      </trkpt>
      <trkpt lat="48.06668" lon="7.2915">
        <ele>299</ele>
        <time>2013-05-10T12:48:33Z</time>
      </trkpt>
      <trkpt lat="48.06658" lon="7.29126">
        <ele>302</ele>
        <time>2013-05-10T12:48:46Z</time>
      </trkpt>
      <trkpt lat="48.0665" lon="7.2911">
        <ele>303</ele>
        <time>2013-05-10T12:48:55Z</time>
      </trkpt>
      <trkpt lat="48.06641" lon="7.29091">
        <ele>304</ele>
        <time>2013-05-10T12:49:05Z</time>
      </trkpt>
      <trkpt lat="48.06627" lon="7.29063">
        <ele>309</ele>
        <time>2013-05-10T12:49:20Z</time>
      </trkpt>
      <trkpt lat="48.06619" lon="7.29041">
        <ele>310</ele>
        <time>2013-05-10T12:49:31Z</time>
      </trkpt>
      <trkpt lat="48.06611" lon="7.29016">
        <ele>311</ele>
        <time>2013-05-10T12:49:43Z</time>
      </trkpt>
      <trkpt lat="48.06603" lon="7.2899">
        <ele>316</ele>
        <time>2013-05-10T12:49:56Z</time>
      </trkpt>
      <trkpt lat="48.06596" lon="7.28967">
        <ele>318</ele>
        <time>2013-05-10T12:50:08Z</time>
      </trkpt>
      <trkpt lat="48.06589" lon="7.2894">
        <ele>321</ele>
        <time>2013-05-10T12:50:22Z</time>
      </trkpt>
      <trkpt lat="48.06583" lon="7.28918">
        <ele>324</ele>
        <time>2013-05-10T12:50:33Z</time>
      </trkpt>
      <trkpt lat="48.0658" lon="7.289">
        <ele>326</ele>
        <time>2013-05-10T12:50:42Z</time>
      </trkpt>
      <trkpt lat="48.06574" lon="7.28876">
        <ele>328</ele>
        <time>2013-05-10T12:50:55Z</time>
      </trkpt>
      <trkpt lat="48.06566" lon="7.28857">
        <ele>329</ele>
        <time>2013-05-10T12:51:06Z</time>
      </trkpt>
      <trkpt lat="48.06553" lon="7.28836">
        <ele>330</ele>
        <time>2013-05-10T12:51:18Z</time>
      </trkpt>
      <trkpt lat="48.06537" lon="7.28816">
        <ele>337</ele>
        <time>2013-05-10T12:51:31Z</time>
      </trkpt>
      <trkpt lat="48.06523" lon="7.28799">
        <ele>338</ele>
        <time>2013-05-10T12:51:42Z</time>
      </trkpt>
      <trkpt lat="48.06511" lon="7.28783">
        <ele>339</ele>
        <time>2013-05-10T12:51:52Z</time>
      </trkpt>
      <trkpt lat="48.065" lon="7.28764">
        <ele>337</ele>
        <time>2013-05-10T12:52:03Z</time>
      </trkpt>
      <trkpt lat="48.06493" lon="7.28749">
        <ele>343</ele>
        <time>2013-05-10T12:52:12Z</time>
      </trkpt>
      <trkpt lat="48.0649" lon="7.28731">
        <ele>344</ele>
        <time>2013-05-10T12:52:23Z</time>
      </trkpt>
      <trkpt lat="48.06491" lon="7.28716">
        <ele>345</ele>
        <time>2013-05-10T12:52:32Z</time>
      </trkpt>
      <trkpt lat="48.06492" lon="7.28705">
        <ele>347</ele>
        <time>2013-05-10T12:52:38Z</time>
      </trkpt>
      <trkpt lat="48.06493" lon="7.28692">
        <ele>349</ele>
        <time>2013-05-10T12:52:46Z</time>
      </trkpt>
      <trkpt lat="48.06495" lon="7.28679">
        <ele>351</ele>
        <time>2013-05-10T12:52:54Z</time>
      </trkpt>
      <trkpt lat="48.06494" lon="7.28667">
        <ele>353</ele>
        <time>2013-05-10T12:53:02Z</time>
      </trkpt>
      <trkpt lat="48.06486" lon="7.28651">
        <ele>356</ele>
        <time>2013-05-10T12:53:12Z</time>
      </trkpt>
      <trkpt lat="48.06478" lon="7.28638">
        <ele>357</ele>
        <time>2013-05-10T12:53:21Z</time>
      </trkpt>
      <trkpt lat="48.06466" lon="7.2862">
        <ele>357</ele>
        <time>2013-05-10T12:53:30Z</time>
      </trkpt>
      <trkpt lat="48.06447" lon="7.28599">
        <ele>357</ele>
        <time>2013-05-10T12:53:40Z</time>
      </trkpt>
      <trkpt lat="48.06431" lon="7.28581">
        <ele>361</ele>
        <time>2013-05-10T12:53:47Z</time>
      </trkpt>
      <trkpt lat="48.06408" lon="7.28543">
        <ele>362</ele>
        <time>2013-05-10T12:53:58Z</time>
      </trkpt>
      <trkpt lat="48.06393" lon="7.28518">
        <ele>363</ele>
        <time>2013-05-10T12:54:06Z</time>
      </trkpt>
      <trkpt lat="48.06371" lon="7.28498">
        <ele>366</ele>
        <time>2013-05-10T12:54:16Z</time>
      </trkpt>
      <trkpt lat="48.06357" lon="7.28487">
        <ele>366</ele>
        <time>2013-05-10T12:54:24Z</time>
      </trkpt>
      <trkpt lat="48.06344" lon="7.28474">
        <ele>366</ele>
        <time>2013-05-10T12:54:34Z</time>
      </trkpt>
      <trkpt lat="48.06333" lon="7.28459">
        <ele>369</ele>
        <time>2013-05-10T12:54:44Z</time>
      </trkpt>
      <trkpt lat="48.06324" lon="7.28446">
        <ele>369</ele>
        <time>2013-05-10T12:54:52Z</time>
      </trkpt>
      <trkpt lat="48.06321" lon="7.28425">
        <ele>369</ele>
        <time>2013-05-10T12:55:01Z</time>
      </trkpt>
      <trkpt lat="48.06322" lon="7.28423">
        <ele>369</ele>
        <time>2013-05-10T12:55:02Z</time>
      </trkpt>
      <trkpt lat="48.06318" lon="7.28398">
        <ele>373</ele>
        <time>2013-05-10T12:55:12Z</time>
      </trkpt>
      <trkpt lat="48.06309" lon="7.28373">
        <ele>375</ele>
        <time>2013-05-10T12:55:23Z</time>
      </trkpt>
      <trkpt lat="48.063" lon="7.28354">
        <ele>376</ele>
        <time>2013-05-10T12:55:32Z</time>
      </trkpt>
      <trkpt lat="48.06293" lon="7.28342">
        <ele>377</ele>
        <time>2013-05-10T12:55:39Z</time>
      </trkpt>
      <trkpt lat="48.06286" lon="7.28335">
        <ele>377</ele>
        <time>2013-05-10T12:55:45Z</time>
      </trkpt>
      <trkpt lat="48.06283" lon="7.28325">
        <ele>382</ele>
        <time>2013-05-10T12:55:52Z</time>
      </trkpt>
      <trkpt lat="48.06279" lon="7.28313">
        <ele>382</ele>
        <time>2013-05-10T12:55:59Z</time>
      </trkpt>
      <trkpt lat="48.06276" lon="7.28302">
        <ele>383</ele>
        <time>2013-05-10T12:56:06Z</time>
      </trkpt>
      <trkpt lat="48.06274" lon="7.28293">
        <ele>383</ele>
        <time>2013-05-10T12:56:13Z</time>
      </trkpt>
      <trkpt lat="48.0627" lon="7.2828">
        <ele>384</ele>
        <time>2013-05-10T12:56:21Z</time>
      </trkpt>
      <trkpt lat="48.06267" lon="7.28266">
        <ele>386</ele>
        <time>2013-05-10T12:56:29Z</time>
      </trkpt>
      <trkpt lat="48.06266" lon="7.28256">
        <ele>387</ele>
        <time>2013-05-10T12:56:35Z</time>
      </trkpt>
      <trkpt lat="48.06262" lon="7.28241">
        <ele>389</ele>
        <time>2013-05-10T12:56:42Z</time>
      </trkpt>
      <trkpt lat="48.06259" lon="7.28228">
        <ele>389</ele>
        <time>2013-05-10T12:56:49Z</time>
      </trkpt>
      <trkpt lat="48.06256" lon="7.28212">
        <ele>389</ele>
        <time>2013-05-10T12:56:56Z</time>
      </trkpt>
      <trkpt lat="48.06254" lon="7.28198">
        <ele>390</ele>
        <time>2013-05-10T12:57:03Z</time>
      </trkpt>
      <trkpt lat="48.06254" lon="7.28189">
        <ele>391</ele>
        <time>2013-05-10T12:57:07Z</time>
      </trkpt>
      <trkpt lat="48.06253" lon="7.28185">
        <ele>392</ele>
        <time>2013-05-10T12:57:09Z</time>
      </trkpt>
      <trkpt lat="48.06251" lon="7.28165">
        <ele>396</ele>
        <time>2013-05-10T12:57:18Z</time>
      </trkpt>
      <trkpt lat="48.0625" lon="7.28151">
        <ele>393</ele>
        <time>2013-05-10T12:57:25Z</time>
      </trkpt>
      <trkpt lat="48.06247" lon="7.28142">
        <ele>399</ele>
        <time>2013-05-10T12:57:32Z</time>
      </trkpt>
      <trkpt lat="48.06237" lon="7.28134">
        <ele>399</ele>
        <time>2013-05-10T12:57:56Z</time>
      </trkpt>
      <trkpt lat="48.0624" lon="7.28139">
        <ele>399</ele>
        <time>2013-05-10T12:58:07Z</time>
      </trkpt>
      <trkpt lat="48.0624" lon="7.28138">
        <ele>399</ele>
        <time>2013-05-10T12:58:13Z</time>
      </trkpt>
      <trkpt lat="48.06243" lon="7.28135">
        <ele>399</ele>
        <time>2013-05-10T12:58:22Z</time>
      </trkpt>
      <trkpt lat="48.06243" lon="7.28131">
        <ele>399</ele>
        <time>2013-05-10T12:58:27Z</time>
      </trkpt>
      <trkpt lat="48.06244" lon="7.28119">
        <ele>400</ele>
        <time>2013-05-10T12:58:34Z</time>
      </trkpt>
      <trkpt lat="48.06245" lon="7.28112">
        <ele>401</ele>
        <time>2013-05-10T12:58:40Z</time>
      </trkpt>
      <trkpt lat="48.06243" lon="7.28103">
        <ele>401</ele>
        <time>2013-05-10T12:58:46Z</time>
      </trkpt>
      <trkpt lat="48.06243" lon="7.281">
        <ele>401</ele>
        <time>2013-05-10T12:58:50Z</time>
      </trkpt>
      <trkpt lat="48.06242" lon="7.28091">
        <ele>402</ele>
        <time>2013-05-10T12:58:57Z</time>
      </trkpt>
      <trkpt lat="48.06241" lon="7.28086">
        <ele>402</ele>
        <time>2013-05-10T12:59:04Z</time>
      </trkpt>
      <trkpt lat="48.06237" lon="7.28078">
        <ele>405</ele>
        <time>2013-05-10T12:59:13Z</time>
      </trkpt>
      <trkpt lat="48.06235" lon="7.28074">
        <ele>406</ele>
        <time>2013-05-10T12:59:19Z</time>
      </trkpt>
      <trkpt lat="48.06234" lon="7.28071">
        <ele>406</ele>
        <time>2013-05-10T12:59:25Z</time>
      </trkpt>
      <trkpt lat="48.06226" lon="7.28059">
        <ele>408</ele>
        <time>2013-05-10T12:59:35Z</time>
      </trkpt>
      <trkpt lat="48.06225" lon="7.2805">
        <ele>408</ele>
        <time>2013-05-10T12:59:41Z</time>
      </trkpt>
      <trkpt lat="48.06222" lon="7.28037">
        <ele>409</ele>
        <time>2013-05-10T12:59:48Z</time>
      </trkpt>
      <trkpt lat="48.06218" lon="7.28026">
        <ele>409</ele>
        <time>2013-05-10T12:59:54Z</time>
      </trkpt>
      <trkpt lat="48.06213" lon="7.28015">
        <ele>410</ele>
        <time>2013-05-10T13:00:02Z</time>
      </trkpt>
      <trkpt lat="48.0621" lon="7.28006">
        <ele>411</ele>
        <time>2013-05-10T13:00:09Z</time>
      </trkpt>
      <trkpt lat="48.06207" lon="7.27996">
        <ele>414</ele>
        <time>2013-05-10T13:00:15Z</time>
      </trkpt>
      <trkpt lat="48.06206" lon="7.27991">
        <ele>414</ele>
        <time>2013-05-10T13:00:19Z</time>
      </trkpt>
      <trkpt lat="48.06201" lon="7.27978">
        <ele>415</ele>
        <time>2013-05-10T13:00:27Z</time>
      </trkpt>
      <trkpt lat="48.06195" lon="7.27961">
        <ele>416</ele>
        <time>2013-05-10T13:00:37Z</time>
      </trkpt>
      <trkpt lat="48.06192" lon="7.27952">
        <ele>417</ele>
        <time>2013-05-10T13:00:44Z</time>
      </trkpt>
      <trkpt lat="48.06185" lon="7.27942">
        <ele>419</ele>
        <time>2013-05-10T13:00:52Z</time>
      </trkpt>
      <trkpt lat="48.06179" lon="7.27929">
        <ele>422</ele>
        <time>2013-05-10T13:01:00Z</time>
      </trkpt>
      <trkpt lat="48.06174" lon="7.27919">
        <ele>426</ele>
        <time>2013-05-10T13:01:08Z</time>
      </trkpt>
      <trkpt lat="48.06169" lon="7.2791">
        <ele>426</ele>
        <time>2013-05-10T13:01:15Z</time>
      </trkpt>
      <trkpt lat="48.06167" lon="7.279">
        <ele>429</ele>
        <time>2013-05-10T13:01:23Z</time>
      </trkpt>
      <trkpt lat="48.0616" lon="7.27884">
        <ele>427</ele>
        <time>2013-05-10T13:01:33Z</time>
      </trkpt>
      <trkpt lat="48.06157" lon="7.27874">
        <ele>427</ele>
        <time>2013-05-10T13:01:40Z</time>
      </trkpt>
      <trkpt lat="48.06154" lon="7.27866">
        <ele>427</ele>
        <time>2013-05-10T13:01:46Z</time>
      </trkpt>
      <trkpt lat="48.06149" lon="7.27856">
        <ele>427</ele>
        <time>2013-05-10T13:01:53Z</time>
      </trkpt>
      <trkpt lat="48.06144" lon="7.27844">
        <ele>427</ele>
        <time>2013-05-10T13:02:00Z</time>
      </trkpt>
      <trkpt lat="48.06138" lon="7.27832">
        <ele>432</ele>
        <time>2013-05-10T13:02:08Z</time>
      </trkpt>
      <trkpt lat="48.06134" lon="7.27821">
        <ele>433</ele>
        <time>2013-05-10T13:02:15Z</time>
      </trkpt>
      <trkpt lat="48.06128" lon="7.2781">
        <ele>433</ele>
        <time>2013-05-10T13:02:22Z</time>
      </trkpt>
      <trkpt lat="48.06125" lon="7.27808">
        <ele>434</ele>
        <time>2013-05-10T13:02:25Z</time>
      </trkpt>
      <trkpt lat="48.06118" lon="7.27799">
        <ele>435</ele>
        <time>2013-05-10T13:02:33Z</time>
      </trkpt>
      <trkpt lat="48.06118" lon="7.27797">
        <ele>435</ele>
        <time>2013-05-10T13:02:34Z</time>
      </trkpt>
      <trkpt lat="48.0612" lon="7.27784">
        <ele>436</ele>
        <time>2013-05-10T13:02:42Z</time>
      </trkpt>
      <trkpt lat="48.0612" lon="7.27781">
        <ele>436</ele>
        <time>2013-05-10T13:02:44Z</time>
      </trkpt>
      <trkpt lat="48.06114" lon="7.2777">
        <ele>438</ele>
        <time>2013-05-10T13:02:51Z</time>
      </trkpt>
      <trkpt lat="48.06102" lon="7.27759">
        <ele>441</ele>
        <time>2013-05-10T13:03:01Z</time>
      </trkpt>
      <trkpt lat="48.06094" lon="7.27753">
        <ele>443</ele>
        <time>2013-05-10T13:03:08Z</time>
      </trkpt>
      <trkpt lat="48.06084" lon="7.27744">
        <ele>449</ele>
        <time>2013-05-10T13:03:17Z</time>
      </trkpt>
      <trkpt lat="48.06074" lon="7.27736">
        <ele>452</ele>
        <time>2013-05-10T13:03:26Z</time>
      </trkpt>
      <trkpt lat="48.06063" lon="7.2773">
        <ele>453</ele>
        <time>2013-05-10T13:03:34Z</time>
      </trkpt>
      <trkpt lat="48.06051" lon="7.27721">
        <ele>454</ele>
        <time>2013-05-10T13:03:44Z</time>
      </trkpt>
      <trkpt lat="48.06039" lon="7.27714">
        <ele>454</ele>
        <time>2013-05-10T13:03:53Z</time>
      </trkpt>
      <trkpt lat="48.06028" lon="7.27705">
        <ele>455</ele>
        <time>2013-05-10T13:04:02Z</time>
      </trkpt>
      <trkpt lat="48.06017" lon="7.27693">
        <ele>457</ele>
        <time>2013-05-10T13:04:11Z</time>
      </trkpt>
      <trkpt lat="48.0601" lon="7.27685">
        <ele>458</ele>
        <time>2013-05-10T13:04:18Z</time>
      </trkpt>
      <trkpt lat="48.06004" lon="7.27678">
        <ele>460</ele>
        <time>2013-05-10T13:04:24Z</time>
      </trkpt>
      <trkpt lat="48.05997" lon="7.2767">
        <ele>460</ele>
        <time>2013-05-10T13:04:32Z</time>
      </trkpt>
      <trkpt lat="48.05991" lon="7.2766">
        <ele>463</ele>
        <time>2013-05-10T13:04:39Z</time>
      </trkpt>
      <trkpt lat="48.05984" lon="7.27649">
        <ele>464</ele>
        <time>2013-05-10T13:04:46Z</time>
      </trkpt>
      <trkpt lat="48.0598" lon="7.2764">
        <ele>464</ele>
        <time>2013-05-10T13:04:52Z</time>
      </trkpt>
      <trkpt lat="48.05975" lon="7.27631">
        <ele>465</ele>
        <time>2013-05-10T13:04:57Z</time>
      </trkpt>
      <trkpt lat="48.0597" lon="7.27619">
        <ele>466</ele>
        <time>2013-05-10T13:05:03Z</time>
      </trkpt>
      <trkpt lat="48.05967" lon="7.27609">
        <ele>467</ele>
        <time>2013-05-10T13:05:09Z</time>
      </trkpt>
      <trkpt lat="48.05962" lon="7.276">
        <ele>467</ele>
        <time>2013-05-10T13:05:15Z</time>
      </trkpt>
      <trkpt lat="48.05955" lon="7.27588">
        <ele>467</ele>
        <time>2013-05-10T13:05:23Z</time>
      </trkpt>
      <trkpt lat="48.0595" lon="7.27579">
        <ele>479</ele>
        <time>2013-05-10T13:05:30Z</time>
      </trkpt>
      <trkpt lat="48.05945" lon="7.2757">
        <ele>478</ele>
        <time>2013-05-10T13:05:36Z</time>
      </trkpt>
      <trkpt lat="48.05937" lon="7.27559">
        <ele>479</ele>
        <time>2013-05-10T13:05:43Z</time>
      </trkpt>
      <trkpt lat="48.05931" lon="7.27548">
        <ele>480</ele>
        <time>2013-05-10T13:05:50Z</time>
      </trkpt>
      <trkpt lat="48.05926" lon="7.27537">
        <ele>482</ele>
        <time>2013-05-10T13:05:57Z</time>
      </trkpt>
      <trkpt lat="48.05922" lon="7.27528">
        <ele>483</ele>
        <time>2013-05-10T13:06:03Z</time>
      </trkpt>
      <trkpt lat="48.05915" lon="7.27515">
        <ele>478</ele>
        <time>2013-05-10T13:06:11Z</time>
      </trkpt>
      <trkpt lat="48.05909" lon="7.27507">
        <ele>480</ele>
        <time>2013-05-10T13:06:17Z</time>
      </trkpt>
      <trkpt lat="48.05904" lon="7.27494">
        <ele>488</ele>
        <time>2013-05-10T13:06:26Z</time>
      </trkpt>
      <trkpt lat="48.05899" lon="7.27487">
        <ele>488</ele>
        <time>2013-05-10T13:06:33Z</time>
      </trkpt>
      <trkpt lat="48.05894" lon="7.27482">
        <ele>489</ele>
        <time>2013-05-10T13:06:40Z</time>
      </trkpt>
      <trkpt lat="48.05889" lon="7.27473">
        <ele>489</ele>
        <time>2013-05-10T13:06:46Z</time>
      </trkpt>
      <trkpt lat="48.05884" lon="7.27469">
        <ele>490</ele>
        <time>2013-05-10T13:06:51Z</time>
      </trkpt>
      <trkpt lat="48.05876" lon="7.27465">
        <ele>489</ele>
        <time>2013-05-10T13:06:58Z</time>
      </trkpt>
      <trkpt lat="48.05867" lon="7.27462">
        <ele>489</ele>
        <time>2013-05-10T13:07:05Z</time>
      </trkpt>
      <trkpt lat="48.05859" lon="7.27458">
        <ele>489</ele>
        <time>2013-05-10T13:07:13Z</time>
      </trkpt>
      <trkpt lat="48.0585" lon="7.27454">
        <ele>489</ele>
        <time>2013-05-10T13:07:19Z</time>
      </trkpt>
      <trkpt lat="48.0584" lon="7.27447">
        <ele>490</ele>
        <time>2013-05-10T13:07:28Z</time>
      </trkpt>
      <trkpt lat="48.05834" lon="7.27444">
        <ele>490</ele>
        <time>2013-05-10T13:07:33Z</time>
      </trkpt>
      <trkpt lat="48.05823" lon="7.27438">
        <ele>489</ele>
        <time>2013-05-10T13:07:41Z</time>
      </trkpt>
      <trkpt lat="48.05815" lon="7.27436">
        <ele>489</ele>
        <time>2013-05-10T13:07:47Z</time>
      </trkpt>
      <trkpt lat="48.05808" lon="7.27431">
        <ele>490</ele>
        <time>2013-05-10T13:07:54Z</time>
      </trkpt>
      <trkpt lat="48.058" lon="7.27423">
        <ele>490</ele>
        <time>2013-05-10T13:08:00Z</time>
      </trkpt>
      <trkpt lat="48.05793" lon="7.27415">
        <ele>503</ele>
        <time>2013-05-10T13:08:07Z</time>
      </trkpt>
      <trkpt lat="48.05792" lon="7.27414">
        <ele>503</ele>
        <time>2013-05-10T13:08:08Z</time>
      </trkpt>
      <trkpt lat="48.05791" lon="7.2741">
        <ele>504</ele>
        <time>2013-05-10T13:08:10Z</time>
      </trkpt>
      <trkpt lat="48.05796" lon="7.27403">
        <ele>504</ele>
        <time>2013-05-10T13:08:16Z</time>
      </trkpt>
      <trkpt lat="48.05799" lon="7.27401">
        <ele>504</ele>
        <time>2013-05-10T13:08:19Z</time>
      </trkpt>
      <trkpt lat="48.05804" lon="7.27402">
        <ele>504</ele>
        <time>2013-05-10T13:08:27Z</time>
      </trkpt>
      <trkpt lat="48.0581" lon="7.27399">
        <ele>503</ele>
        <time>2013-05-10T13:08:34Z</time>
      </trkpt>
      <trkpt lat="48.05821" lon="7.27397">
        <ele>503</ele>
        <time>2013-05-10T13:08:44Z</time>
      </trkpt>
      <trkpt lat="48.05822" lon="7.27397">
        <ele>503</ele>
        <time>2013-05-10T13:08:45Z</time>
      </trkpt>
      <trkpt lat="48.05834" lon="7.27393">
        <ele>506</ele>
        <time>2013-05-10T13:08:53Z</time>
      </trkpt>
      <trkpt lat="48.05843" lon="7.27389">
        <ele>508</ele>
        <time>2013-05-10T13:09:00Z</time>
      </trkpt>
      <trkpt lat="48.05847" lon="7.27388">
        <ele>509</ele>
        <time>2013-05-10T13:09:05Z</time>
      </trkpt>
      <trkpt lat="48.05852" lon="7.27388">
        <ele>509</ele>
        <time>2013-05-10T13:09:10Z</time>
      </trkpt>
      <trkpt lat="48.05859" lon="7.27385">
        <ele>510</ele>
        <time>2013-05-10T13:09:16Z</time>
      </trkpt>
      <trkpt lat="48.05868" lon="7.27382">
        <ele>512</ele>
        <time>2013-05-10T13:09:24Z</time>
      </trkpt>
      <trkpt lat="48.05877" lon="7.27381">
        <ele>513</ele>
        <time>2013-05-10T13:09:29Z</time>
      </trkpt>
      <trkpt lat="48.05878" lon="7.27381">
        <ele>513</ele>
        <time>2013-05-10T13:09:31Z</time>
      </trkpt>
      <trkpt lat="48.05887" lon="7.27382">
        <ele>513</ele>
        <time>2013-05-10T13:09:38Z</time>
      </trkpt>
      <trkpt lat="48.05893" lon="7.27379">
        <ele>514</ele>
        <time>2013-05-10T13:09:42Z</time>
      </trkpt>
      <trkpt lat="48.05896" lon="7.27377">
        <ele>515</ele>
        <time>2013-05-10T13:09:46Z</time>
      </trkpt>
      <trkpt lat="48.05897" lon="7.27373">
        <ele>516</ele>
        <time>2013-05-10T13:09:50Z</time>
      </trkpt>
      <trkpt lat="48.0589" lon="7.27367">
        <ele>516</ele>
        <time>2013-05-10T13:09:58Z</time>
      </trkpt>
      <trkpt lat="48.05884" lon="7.27365">
        <ele>516</ele>
        <time>2013-05-10T13:10:04Z</time>
      </trkpt>
      <trkpt lat="48.05879" lon="7.27359">
        <ele>516</ele>
        <time>2013-05-10T13:10:11Z</time>
      </trkpt>
      <trkpt lat="48.05877" lon="7.27356">
        <ele>516</ele>
        <time>2013-05-10T13:10:14Z</time>
      </trkpt>
      <trkpt lat="48.05873" lon="7.27351">
        <ele>516</ele>
        <time>2013-05-10T13:10:19Z</time>
      </trkpt>
      <trkpt lat="48.05866" lon="7.27344">
        <ele>516</ele>
        <time>2013-05-10T13:10:27Z</time>
      </trkpt>
      <trkpt lat="48.05858" lon="7.27334">
        <ele>516</ele>
        <time>2013-05-10T13:10:36Z</time>
      </trkpt>
      <trkpt lat="48.05852" lon="7.27324">
        <ele>528</ele>
        <time>2013-05-10T13:10:43Z</time>
      </trkpt>
      <trkpt lat="48.05846" lon="7.2732">
        <ele>527</ele>
        <time>2013-05-10T13:10:48Z</time>
      </trkpt>
      <trkpt lat="48.05838" lon="7.27311">
        <ele>528</ele>
        <time>2013-05-10T13:10:56Z</time>
      </trkpt>
      <trkpt lat="48.05833" lon="7.27304">
        <ele>525</ele>
        <time>2013-05-10T13:11:02Z</time>
      </trkpt>
      <trkpt lat="48.05832" lon="7.27303">
        <ele>525</ele>
        <time>2013-05-10T13:11:03Z</time>
      </trkpt>
      <trkpt lat="48.05824" lon="7.27294">
        <ele>527</ele>
        <time>2013-05-10T13:11:12Z</time>
      </trkpt>
      <trkpt lat="48.05812" lon="7.27284">
        <ele>529</ele>
        <time>2013-05-10T13:11:23Z</time>
      </trkpt>
      <trkpt lat="48.05802" lon="7.27276">
        <ele>529</ele>
        <time>2013-05-10T13:11:33Z</time>
      </trkpt>
      <trkpt lat="48.05795" lon="7.27272">
        <ele>529</ele>
        <time>2013-05-10T13:11:39Z</time>
      </trkpt>
      <trkpt lat="48.05787" lon="7.27268">
        <ele>530</ele>
        <time>2013-05-10T13:11:47Z</time>
      </trkpt>
      <trkpt lat="48.05776" lon="7.27262">
        <ele>530</ele>
        <time>2013-05-10T13:11:56Z</time>
      </trkpt>
      <trkpt lat="48.05772" lon="7.27258">
        <ele>531</ele>
        <time>2013-05-10T13:12:00Z</time>
      </trkpt>
      <trkpt lat="48.05764" lon="7.27251">
        <ele>532</ele>
        <time>2013-05-10T13:12:09Z</time>
      </trkpt>
      <trkpt lat="48.05753" lon="7.27243">
        <ele>538</ele>
        <time>2013-05-10T13:12:20Z</time>
      </trkpt>
      <trkpt lat="48.05745" lon="7.27235">
        <ele>542</ele>
        <time>2013-05-10T13:12:29Z</time>
      </trkpt>
      <trkpt lat="48.0574" lon="7.27228">
        <ele>544</ele>
        <time>2013-05-10T13:12:36Z</time>
      </trkpt>
      <trkpt lat="48.05733" lon="7.27221">
        <ele>546</ele>
        <time>2013-05-10T13:12:43Z</time>
      </trkpt>
      <trkpt lat="48.05726" lon="7.27214">
        <ele>547</ele>
        <time>2013-05-10T13:12:52Z</time>
      </trkpt>
      <trkpt lat="48.05726" lon="7.27214">
        <ele>548</ele>
        <time>2013-05-10T13:12:53Z</time>
      </trkpt>
      <trkpt lat="48.0572" lon="7.27215">
        <ele>548</ele>
        <time>2013-05-10T13:13:00Z</time>
      </trkpt>
      <trkpt lat="48.05717" lon="7.27217">
        <ele>548</ele>
        <time>2013-05-10T13:13:06Z</time>
      </trkpt>
      <trkpt lat="48.05715" lon="7.27218">
        <ele>548</ele>
        <time>2013-05-10T13:13:11Z</time>
      </trkpt>
      <trkpt lat="48.0571" lon="7.27219">
        <ele>548</ele>
        <time>2013-05-10T13:13:17Z</time>
      </trkpt>
      <trkpt lat="48.057" lon="7.27223">
        <ele>549</ele>
        <time>2013-05-10T13:13:26Z</time>
      </trkpt>
      <trkpt lat="48.05692" lon="7.27226">
        <ele>549</ele>
        <time>2013-05-10T13:13:34Z</time>
      </trkpt>
      <trkpt lat="48.05683" lon="7.27229">
        <ele>550</ele>
        <time>2013-05-10T13:13:41Z</time>
      </trkpt>
      <trkpt lat="48.05672" lon="7.27233">
        <ele>550</ele>
        <time>2013-05-10T13:13:49Z</time>
      </trkpt>
      <trkpt lat="48.05666" lon="7.27236">
        <ele>555</ele>
        <time>2013-05-10T13:13:55Z</time>
      </trkpt>
      <trkpt lat="48.05655" lon="7.2724">
        <ele>556</ele>
        <time>2013-05-10T13:14:03Z</time>
      </trkpt>
      <trkpt lat="48.05648" lon="7.27245">
        <ele>557</ele>
        <time>2013-05-10T13:14:10Z</time>
      </trkpt>
      <trkpt lat="48.05638" lon="7.27247">
        <ele>559</ele>
        <time>2013-05-10T13:14:19Z</time>
      </trkpt>
      <trkpt lat="48.05627" lon="7.27245">
        <ele>560</ele>
        <time>2013-05-10T13:14:27Z</time>
      </trkpt>
      <trkpt lat="48.0562" lon="7.27241">
        <ele>561</ele>
        <time>2013-05-10T13:14:34Z</time>
      </trkpt>
      <trkpt lat="48.05613" lon="7.27233">
        <ele>562</ele>
        <time>2013-05-10T13:14:43Z</time>
      </trkpt>
      <trkpt lat="48.05609" lon="7.27229">
        <ele>563</ele>
        <time>2013-05-10T13:14:49Z</time>
      </trkpt>
      <trkpt lat="48.05603" lon="7.27222">
        <ele>563</ele>
        <time>2013-05-10T13:14:57Z</time>
      </trkpt>
      <trkpt lat="48.05598" lon="7.2722">
        <ele>564</ele>
        <time>2013-05-10T13:15:03Z</time>
      </trkpt>
      <trkpt lat="48.05596" lon="7.2722">
        <ele>564</ele>
        <time>2013-05-10T13:15:07Z</time>
      </trkpt>
      <trkpt lat="48.05585" lon="7.27222">
        <ele>564</ele>
        <time>2013-05-10T13:15:15Z</time>
      </trkpt>
      <trkpt lat="48.05576" lon="7.27226">
        <ele>568</ele>
        <time>2013-05-10T13:15:22Z</time>
      </trkpt>
      <trkpt lat="48.05567" lon="7.27229">
        <ele>567</ele>
        <time>2013-05-10T13:15:29Z</time>
      </trkpt>
      <trkpt lat="48.05554" lon="7.27229">
        <ele>568</ele>
        <time>2013-05-10T13:15:37Z</time>
      </trkpt>
      <trkpt lat="48.05542" lon="7.27228">
        <ele>568</ele>
        <time>2013-05-10T13:15:44Z</time>
      </trkpt>
      <trkpt lat="48.05528" lon="7.27223">
        <ele>568</ele>
        <time>2013-05-10T13:15:52Z</time>
      </trkpt>
      <trkpt lat="48.05515" lon="7.27212">
        <ele>568</ele>
        <time>2013-05-10T13:16:00Z</time>
      </trkpt>
      <trkpt lat="48.05507" lon="7.27204">
        <ele>569</ele>
        <time>2013-05-10T13:16:08Z</time>
      </trkpt>
      <trkpt lat="48.05505" lon="7.272">
        <ele>570</ele>
        <time>2013-05-10T13:16:13Z</time>
      </trkpt>
      <trkpt lat="48.055" lon="7.27194">
        <ele>570</ele>
        <time>2013-05-10T13:16:21Z</time>
      </trkpt>
      <trkpt lat="48.05493" lon="7.27186">
        <ele>565</ele>
        <time>2013-05-10T13:16:29Z</time>
      </trkpt>
      <trkpt lat="48.05489" lon="7.27179">
        <ele>566</ele>
        <time>2013-05-10T13:16:36Z</time>
      </trkpt>
      <trkpt lat="48.05483" lon="7.27173">
        <ele>566</ele>
        <time>2013-05-10T13:16:43Z</time>
      </trkpt>
      <trkpt lat="48.05475" lon="7.27161">
        <ele>573</ele>
        <time>2013-05-10T13:16:52Z</time>
      </trkpt>
      <trkpt lat="48.05471" lon="7.27151">
        <ele>573</ele>
        <time>2013-05-10T13:17:00Z</time>
      </trkpt>
      <trkpt lat="48.05469" lon="7.27138">
        <ele>573</ele>
        <time>2013-05-10T13:17:10Z</time>
      </trkpt>
      <trkpt lat="48.05469" lon="7.27127">
        <ele>574</ele>
        <time>2013-05-10T13:17:17Z</time>
      </trkpt>
      <trkpt lat="48.05467" lon="7.27111">
        <ele>576</ele>
        <time>2013-05-10T13:17:26Z</time>
      </trkpt>
      <trkpt lat="48.05468" lon="7.27106">
        <ele>576</ele>
        <time>2013-05-10T13:17:29Z</time>
      </trkpt>
      <trkpt lat="48.05468" lon="7.27088">
        <ele>578</ele>
        <time>2013-05-10T13:17:37Z</time>
      </trkpt>
      <trkpt lat="48.05468" lon="7.27072">
        <ele>586</ele>
        <time>2013-05-10T13:17:45Z</time>
      </trkpt>
      <trkpt lat="48.05469" lon="7.27058">
        <ele>586</ele>
        <time>2013-05-10T13:17:52Z</time>
      </trkpt>
      <trkpt lat="48.0547" lon="7.2704">
        <ele>587</ele>
        <time>2013-05-10T13:18:00Z</time>
      </trkpt>
      <trkpt lat="48.05471" lon="7.27026">
        <ele>588</ele>
        <time>2013-05-10T13:18:08Z</time>
      </trkpt>
      <trkpt lat="48.05469" lon="7.27016">
        <ele>588</ele>
        <time>2013-05-10T13:18:14Z</time>
      </trkpt>
      <trkpt lat="48.05466" lon="7.27007">
        <ele>589</ele>
        <time>2013-05-10T13:18:21Z</time>
      </trkpt>
      <trkpt lat="48.05463" lon="7.26999">
        <ele>594</ele>
        <time>2013-05-10T13:18:26Z</time>
      </trkpt>
      <trkpt lat="48.05462" lon="7.26983">
        <ele>594</ele>
        <time>2013-05-10T13:18:35Z</time>
      </trkpt>
      <trkpt lat="48.0546" lon="7.26973">
        <ele>594</ele>
        <time>2013-05-10T13:18:41Z</time>
      </trkpt>
      <trkpt lat="48.05458" lon="7.26961">
        <ele>595</ele>
        <time>2013-05-10T13:18:47Z</time>
      </trkpt>
      <trkpt lat="48.05453" lon="7.26943">
        <ele>595</ele>
        <time>2013-05-10T13:18:55Z</time>
      </trkpt>
      <trkpt lat="48.0545" lon="7.26932">
        <ele>595</ele>
        <time>2013-05-10T13:19:01Z</time>
      </trkpt>
      <trkpt lat="48.05447" lon="7.2692">
        <ele>595</ele>
        <time>2013-05-10T13:19:08Z</time>
      </trkpt>
      <trkpt lat="48.05444" lon="7.2691">
        <ele>599</ele>
        <time>2013-05-10T13:19:14Z</time>
      </trkpt>
      <trkpt lat="48.05444" lon="7.269">
        <ele>600</ele>
        <time>2013-05-10T13:19:20Z</time>
      </trkpt>
      <trkpt lat="48.05441" lon="7.26889">
        <ele>600</ele>
        <time>2013-05-10T13:19:27Z</time>
      </trkpt>
      <trkpt lat="48.0544" lon="7.26884">
        <ele>601</ele>
        <time>2013-05-10T13:19:30Z</time>
      </trkpt>
      <trkpt lat="48.05431" lon="7.26866">
        <ele>601</ele>
        <time>2013-05-10T13:19:38Z</time>
      </trkpt>
      <trkpt lat="48.05423" lon="7.26848">
        <ele>602</ele>
        <time>2013-05-10T13:19:45Z</time>
      </trkpt>
      <trkpt lat="48.05421" lon="7.26837">
        <ele>602</ele>
        <time>2013-05-10T13:19:50Z</time>
      </trkpt>
      <trkpt lat="48.05418" lon="7.26826">
        <ele>603</ele>
        <time>2013-05-10T13:19:55Z</time>
      </trkpt>
      <trkpt lat="48.05418" lon="7.26807">
        <ele>604</ele>
        <time>2013-05-10T13:20:02Z</time>
      </trkpt>
      <trkpt lat="48.05418" lon="7.26802">
        <ele>605</ele>
        <time>2013-05-10T13:20:04Z</time>
      </trkpt>
      <trkpt lat="48.05416" lon="7.26788">
        <ele>604</ele>
        <time>2013-05-10T13:20:10Z</time>
      </trkpt>
      <trkpt lat="48.0541" lon="7.26763">
        <ele>605</ele>
        <time>2013-05-10T13:20:19Z</time>
      </trkpt>
      <trkpt lat="48.05403" lon="7.26743">
        <ele>606</ele>
        <time>2013-05-10T13:20:25Z</time>
      </trkpt>
      <trkpt lat="48.05399" lon="7.26726">
        <ele>607</ele>
        <time>2013-05-10T13:20:30Z</time>
      </trkpt>
      <trkpt lat="48.05394" lon="7.2671">
        <ele>608</ele>
        <time>2013-05-10T13:20:35Z</time>
      </trkpt>
      <trkpt lat="48.0538" lon="7.26683">
        <ele>608</ele>
        <time>2013-05-10T13:20:41Z</time>
      </trkpt>
      <trkpt lat="48.05368" lon="7.26663">
        <ele>608</ele>
        <time>2013-05-10T13:20:48Z</time>
      </trkpt>
      <trkpt lat="48.05356" lon="7.26648">
        <ele>608</ele>
        <time>2013-05-10T13:20:54Z</time>
      </trkpt>
      <trkpt lat="48.0534" lon="7.26622">
        <ele>608</ele>
        <time>2013-05-10T13:21:01Z</time>
      </trkpt>
      <trkpt lat="48.0533" lon="7.26604">
        <ele>608</ele>
        <time>2013-05-10T13:21:06Z</time>
      </trkpt>
      <trkpt lat="48.05321" lon="7.26584">
        <ele>608</ele>
        <time>2013-05-10T13:21:11Z</time>
      </trkpt>
      <trkpt lat="48.05309" lon="7.26568">
        <ele>606</ele>
        <time>2013-05-10T13:21:16Z</time>
      </trkpt>
      <trkpt lat="48.0529" lon="7.26552">
        <ele>605</ele>
        <time>2013-05-10T13:21:21Z</time>
      </trkpt>
      <trkpt lat="48.05264" lon="7.26538">
        <ele>605</ele>
        <time>2013-05-10T13:21:27Z</time>
      </trkpt>
      <trkpt lat="48.05245" lon="7.2653">
        <ele>606</ele>
        <time>2013-05-10T13:21:32Z</time>
      </trkpt>
      <trkpt lat="48.05222" lon="7.2652">
        <ele>606</ele>
        <time>2013-05-10T13:21:39Z</time>
      </trkpt>
      <trkpt lat="48.05205" lon="7.26511">
        <ele>607</ele>
        <time>2013-05-10T13:21:45Z</time>
      </trkpt>
      <trkpt lat="48.05186" lon="7.26499">
        <ele>606</ele>
        <time>2013-05-10T13:21:53Z</time>
      </trkpt>
      <trkpt lat="48.05171" lon="7.2649">
        <ele>607</ele>
        <time>2013-05-10T13:21:59Z</time>
      </trkpt>
      <trkpt lat="48.05156" lon="7.26483">
        <ele>609</ele>
        <time>2013-05-10T13:22:05Z</time>
      </trkpt>
      <trkpt lat="48.05139" lon="7.26477">
        <ele>610</ele>
        <time>2013-05-10T13:22:12Z</time>
      </trkpt>
      <trkpt lat="48.05126" lon="7.26476">
        <ele>611</ele>
        <time>2013-05-10T13:22:18Z</time>
      </trkpt>
      <trkpt lat="48.0512" lon="7.26477">
        <ele>611</ele>
        <time>2013-05-10T13:22:23Z</time>
      </trkpt>
      <trkpt lat="48.05119" lon="7.26482">
        <ele>611</ele>
        <time>2013-05-10T13:22:55Z</time>
      </trkpt>
      <trkpt lat="48.05116" lon="7.26487">
        <ele>611</ele>
        <time>2013-05-10T13:22:59Z</time>
      </trkpt>
      <trkpt lat="48.05114" lon="7.26492">
        <ele>611</ele>
        <time>2013-05-10T13:23:04Z</time>
      </trkpt>
      <trkpt lat="48.05118" lon="7.26493">
        <ele>611</ele>
        <time>2013-05-10T13:23:12Z</time>
      </trkpt>
      <trkpt lat="48.05125" lon="7.26491">
        <ele>611</ele>
        <time>2013-05-10T13:23:42Z</time>
      </trkpt>
      <trkpt lat="48.05138" lon="7.26493">
        <ele>610</ele>
        <time>2013-05-10T13:24:11Z</time>
      </trkpt>
      <trkpt lat="48.05138" lon="7.26493">
        <ele>610</ele>
        <time>2013-05-10T13:24:12Z</time>
      </trkpt>
      <trkpt lat="48.05134" lon="7.26485">
        <ele>610</ele>
        <time>2013-05-10T13:24:17Z</time>
      </trkpt>
      <trkpt lat="48.05128" lon="7.26482">
        <ele>611</ele>
        <time>2013-05-10T13:24:19Z</time>
      </trkpt>
      <trkpt lat="48.05109" lon="7.26483">
        <ele>611</ele>
        <time>2013-05-10T13:24:27Z</time>
      </trkpt>
      <trkpt lat="48.05098" lon="7.26489">
        <ele>612</ele>
        <time>2013-05-10T13:24:33Z</time>
      </trkpt>
      <trkpt lat="48.05088" lon="7.26496">
        <ele>612</ele>
        <time>2013-05-10T13:24:39Z</time>
      </trkpt>
      <trkpt lat="48.05074" lon="7.26499">
        <ele>611</ele>
        <time>2013-05-10T13:24:45Z</time>
      </trkpt>
      <trkpt lat="48.05064" lon="7.26489">
        <ele>610</ele>
        <time>2013-05-10T13:24:51Z</time>
      </trkpt>
      <trkpt lat="48.05057" lon="7.26478">
        <ele>610</ele>
        <time>2013-05-10T13:24:57Z</time>
      </trkpt>
      <trkpt lat="48.05053" lon="7.26464">
        <ele>610</ele>
        <time>2013-05-10T13:25:03Z</time>
      </trkpt>
      <trkpt lat="48.05049" lon="7.26454">
        <ele>610</ele>
        <time>2013-05-10T13:25:07Z</time>
      </trkpt>
      <trkpt lat="48.05045" lon="7.26447">
        <ele>610</ele>
        <time>2013-05-10T13:25:09Z</time>
      </trkpt>
      <trkpt lat="48.05043" lon="7.26428">
        <ele>610</ele>
        <time>2013-05-10T13:25:14Z</time>
      </trkpt>
      <trkpt lat="48.0504" lon="7.26414">
        <ele>614</ele>
        <time>2013-05-10T13:25:18Z</time>
      </trkpt>
      <trkpt lat="48.05034" lon="7.26391">
        <ele>615</ele>
        <time>2013-05-10T13:25:25Z</time>
      </trkpt>
      <trkpt lat="48.05032" lon="7.26373">
        <ele>616</ele>
        <time>2013-05-10T13:25:31Z</time>
      </trkpt>
      <trkpt lat="48.0503" lon="7.2636">
        <ele>616</ele>
        <time>2013-05-10T13:25:36Z</time>
      </trkpt>
      <trkpt lat="48.05026" lon="7.26345">
        <ele>616</ele>
        <time>2013-05-10T13:25:41Z</time>
      </trkpt>
      <trkpt lat="48.05013" lon="7.26329">
        <ele>620</ele>
        <time>2013-05-10T13:25:48Z</time>
      </trkpt>
      <trkpt lat="48.04992" lon="7.26321">
        <ele>618</ele>
        <time>2013-05-10T13:25:57Z</time>
      </trkpt>
      <trkpt lat="48.04986" lon="7.26316">
        <ele>619</ele>
        <time>2013-05-10T13:26:00Z</time>
      </trkpt>
      <trkpt lat="48.04985" lon="7.26297">
        <ele>621</ele>
        <time>2013-05-10T13:26:06Z</time>
      </trkpt>
      <trkpt lat="48.04986" lon="7.26286">
        <ele>622</ele>
        <time>2013-05-10T13:26:12Z</time>
      </trkpt>
      <trkpt lat="48.04987" lon="7.26277">
        <ele>623</ele>
        <time>2013-05-10T13:26:17Z</time>
      </trkpt>
      <trkpt lat="48.04986" lon="7.26271">
        <ele>624</ele>
        <time>2013-05-10T13:26:20Z</time>
      </trkpt>
      <trkpt lat="48.04983" lon="7.26261">
        <ele>625</ele>
        <time>2013-05-10T13:26:26Z</time>
      </trkpt>
      <trkpt lat="48.04982" lon="7.26251">
        <ele>625</ele>
        <time>2013-05-10T13:26:32Z</time>
      </trkpt>
      <trkpt lat="48.04981" lon="7.2624">
        <ele>630</ele>
        <time>2013-05-10T13:26:38Z</time>
      </trkpt>
      <trkpt lat="48.0498" lon="7.26228">
        <ele>630</ele>
        <time>2013-05-10T13:26:43Z</time>
      </trkpt>
      <trkpt lat="48.04981" lon="7.26214">
        <ele>630</ele>
        <time>2013-05-10T13:26:49Z</time>
      </trkpt>
      <trkpt lat="48.04976" lon="7.26189">
        <ele>631</ele>
        <time>2013-05-10T13:26:56Z</time>
      </trkpt>
      <trkpt lat="48.04973" lon="7.26178">
        <ele>631</ele>
        <time>2013-05-10T13:26:59Z</time>
      </trkpt>
      <trkpt lat="48.04967" lon="7.26154">
        <ele>632</ele>
        <time>2013-05-10T13:27:05Z</time>
      </trkpt>
      <trkpt lat="48.04962" lon="7.26138">
        <ele>632</ele>
        <time>2013-05-10T13:27:10Z</time>
      </trkpt>
      <trkpt lat="48.04953" lon="7.26124">
        <ele>633</ele>
        <time>2013-05-10T13:27:15Z</time>
      </trkpt>
      <trkpt lat="48.04947" lon="7.26114">
        <ele>633</ele>
        <time>2013-05-10T13:27:20Z</time>
      </trkpt>
      <trkpt lat="48.04938" lon="7.26103">
        <ele>634</ele>
        <time>2013-05-10T13:27:25Z</time>
      </trkpt>
      <trkpt lat="48.04934" lon="7.26093">
        <ele>635</ele>
        <time>2013-05-10T13:27:30Z</time>
      </trkpt>
      <trkpt lat="48.0493" lon="7.2608">
        <ele>637</ele>
        <time>2013-05-10T13:27:36Z</time>
      </trkpt>
      <trkpt lat="48.04929" lon="7.2606">
        <ele>637</ele>
        <time>2013-05-10T13:27:44Z</time>
      </trkpt>
      <trkpt lat="48.04929" lon="7.26051">
        <ele>638</ele>
        <time>2013-05-10T13:27:49Z</time>
      </trkpt>
      <trkpt lat="48.04931" lon="7.2604">
        <ele>638</ele>
        <time>2013-05-10T13:27:56Z</time>
      </trkpt>
      <trkpt lat="48.04931" lon="7.26026">
        <ele>640</ele>
        <time>2013-05-10T13:28:04Z</time>
      </trkpt>
      <trkpt lat="48.04933" lon="7.26014">
        <ele>641</ele>
        <time>2013-05-10T13:28:11Z</time>
      </trkpt>
      <trkpt lat="48.04933" lon="7.26007">
        <ele>642</ele>
        <time>2013-05-10T13:28:19Z</time>
      </trkpt>
      <trkpt lat="48.04932" lon="7.26002">
        <ele>642</ele>
        <time>2013-05-10T13:28:35Z</time>
      </trkpt>
      <trkpt lat="48.04935" lon="7.25995">
        <ele>645</ele>
        <time>2013-05-10T13:28:44Z</time>
      </trkpt>
      <trkpt lat="48.04935" lon="7.25994">
        <ele>645</ele>
        <time>2013-05-10T13:28:45Z</time>
      </trkpt>
      <trkpt lat="48.04939" lon="7.25974">
        <ele>644</ele>
        <time>2013-05-10T13:28:54Z</time>
      </trkpt>
      <trkpt lat="48.04942" lon="7.25962">
        <ele>644</ele>
        <time>2013-05-10T13:29:02Z</time>
      </trkpt>
      <trkpt lat="48.04947" lon="7.25952">
        <ele>644</ele>
        <time>2013-05-10T13:29:10Z</time>
      </trkpt>
      <trkpt lat="48.04953" lon="7.25943">
        <ele>644</ele>
        <time>2013-05-10T13:29:17Z</time>
      </trkpt>
      <trkpt lat="48.04961" lon="7.25933">
        <ele>643</ele>
        <time>2013-05-10T13:29:24Z</time>
      </trkpt>
      <trkpt lat="48.04966" lon="7.25924">
        <ele>642</ele>
        <time>2013-05-10T13:29:31Z</time>
      </trkpt>
      <trkpt lat="48.04969" lon="7.25918">
        <ele>641</ele>
        <time>2013-05-10T13:29:37Z</time>
      </trkpt>
      <trkpt lat="48.04973" lon="7.25911">
        <ele>646</ele>
        <time>2013-05-10T13:29:42Z</time>
      </trkpt>
      <trkpt lat="48.04975" lon="7.259">
        <ele>646</ele>
        <time>2013-05-10T13:29:49Z</time>
      </trkpt>
      <trkpt lat="48.04977" lon="7.25892">
        <ele>647</ele>
        <time>2013-05-10T13:29:55Z</time>
      </trkpt>
      <trkpt lat="48.04978" lon="7.25883">
        <ele>648</ele>
        <time>2013-05-10T13:30:01Z</time>
      </trkpt>
      <trkpt lat="48.04983" lon="7.2587">
        <ele>648</ele>
        <time>2013-05-10T13:30:08Z</time>
      </trkpt>
      <trkpt lat="48.04987" lon="7.25856">
        <ele>648</ele>
        <time>2013-05-10T13:30:15Z</time>
      </trkpt>
      <trkpt lat="48.04987" lon="7.25838">
        <ele>648</ele>
        <time>2013-05-10T13:30:22Z</time>
      </trkpt>
      <trkpt lat="48.04989" lon="7.25822">
        <ele>652</ele>
        <time>2013-05-10T13:30:29Z</time>
      </trkpt>
      <trkpt lat="48.04991" lon="7.25811">
        <ele>654</ele>
        <time>2013-05-10T13:30:36Z</time>
      </trkpt>
      <trkpt lat="48.04993" lon="7.25796">
        <ele>656</ele>
        <time>2013-05-10T13:30:43Z</time>
      </trkpt>
      <trkpt lat="48.04992" lon="7.25782">
        <ele>657</ele>
        <time>2013-05-10T13:30:50Z</time>
      </trkpt>
      <trkpt lat="48.04991" lon="7.2578">
        <ele>658</ele>
        <time>2013-05-10T13:30:51Z</time>
      </trkpt>
      <trkpt lat="48.0499" lon="7.25766">
        <ele>658</ele>
        <time>2013-05-10T13:30:58Z</time>
      </trkpt>
      <trkpt lat="48.0499" lon="7.25759">
        <ele>657</ele>
        <time>2013-05-10T13:31:01Z</time>
      </trkpt>
      <trkpt lat="48.04987" lon="7.25741">
        <ele>656</ele>
        <time>2013-05-10T13:31:07Z</time>
      </trkpt>
      <trkpt lat="48.04984" lon="7.25722">
        <ele>656</ele>
        <time>2013-05-10T13:31:13Z</time>
      </trkpt>
      <trkpt lat="48.04987" lon="7.25714">
        <ele>656</ele>
        <time>2013-05-10T13:31:25Z</time>
      </trkpt>
      <trkpt lat="48.04986" lon="7.25712">
        <ele>655</ele>
        <time>2013-05-10T13:31:39Z</time>
      </trkpt>
      <trkpt lat="48.04993" lon="7.25715">
        <ele>656</ele>
        <time>2013-05-10T13:31:59Z</time>
      </trkpt>
      <trkpt lat="48.04993" lon="7.25708">
        <ele>655</ele>
        <time>2013-05-10T13:32:34Z</time>
      </trkpt>
      <trkpt lat="48.04986" lon="7.25695">
        <ele>654</ele>
        <time>2013-05-10T13:32:38Z</time>
      </trkpt>
      <trkpt lat="48.04983" lon="7.25691">
        <ele>654</ele>
        <time>2013-05-10T13:32:39Z</time>
      </trkpt>
      <trkpt lat="48.04965" lon="7.25666">
        <ele>644</ele>
        <time>2013-05-10T13:32:45Z</time>
      </trkpt>
      <trkpt lat="48.04962" lon="7.25662">
        <ele>643</ele>
        <time>2013-05-10T13:32:46Z</time>
      </trkpt>
      <trkpt lat="48.04945" lon="7.25651">
        <ele>643</ele>
        <time>2013-05-10T13:32:51Z</time>
      </trkpt>
      <trkpt lat="48.04934" lon="7.25647">
        <ele>643</ele>
        <time>2013-05-10T13:32:53Z</time>
      </trkpt>
      <trkpt lat="48.04916" lon="7.25644">
        <ele>643</ele>
        <time>2013-05-10T13:32:56Z</time>
      </trkpt>
      <trkpt lat="48.04885" lon="7.25642">
        <ele>642</ele>
        <time>2013-05-10T13:33:02Z</time>
      </trkpt>
      <trkpt lat="48.04862" lon="7.25635">
        <ele>641</ele>
        <time>2013-05-10T13:33:07Z</time>
      </trkpt>
      <trkpt lat="48.04838" lon="7.25633">
        <ele>642</ele>
        <time>2013-05-10T13:33:14Z</time>
      </trkpt>
      <trkpt lat="48.04825" lon="7.2563">
        <ele>644</ele>
        <time>2013-05-10T13:33:19Z</time>
      </trkpt>
      <trkpt lat="48.04817" lon="7.25628">
        <ele>644</ele>
        <time>2013-05-10T13:33:24Z</time>
      </trkpt>
      <trkpt lat="48.04808" lon="7.25627">
        <ele>644</ele>
        <time>2013-05-10T13:33:29Z</time>
      </trkpt>
      <trkpt lat="48.04794" lon="7.25625">
        <ele>644</ele>
        <time>2013-05-10T13:33:33Z</time>
      </trkpt>
      <trkpt lat="48.04789" lon="7.25624">
        <ele>644</ele>
        <time>2013-05-10T13:33:37Z</time>
      </trkpt>
      <trkpt lat="48.04778" lon="7.2562">
        <ele>644</ele>
        <time>2013-05-10T13:33:43Z</time>
      </trkpt>
      <trkpt lat="48.04764" lon="7.25614">
        <ele>644</ele>
        <time>2013-05-10T13:33:47Z</time>
      </trkpt>
      <trkpt lat="48.04749" lon="7.25611">
        <ele>648</ele>
        <time>2013-05-10T13:33:51Z</time>
      </trkpt>
      <trkpt lat="48.04746" lon="7.25611">
        <ele>648</ele>
        <time>2013-05-10T13:33:53Z</time>
      </trkpt>
      <trkpt lat="48.04733" lon="7.25607">
        <ele>648</ele>
        <time>2013-05-10T13:33:58Z</time>
      </trkpt>
      <trkpt lat="48.04715" lon="7.25602">
        <ele>650</ele>
        <time>2013-05-10T13:34:04Z</time>
      </trkpt>
      <trkpt lat="48.04705" lon="7.25603">
        <ele>651</ele>
        <time>2013-05-10T13:34:07Z</time>
      </trkpt>
      <trkpt lat="48.04688" lon="7.25592">
        <ele>652</ele>
        <time>2013-05-10T13:34:13Z</time>
      </trkpt>
      <trkpt lat="48.04675" lon="7.25581">
        <ele>648</ele>
        <time>2013-05-10T13:34:18Z</time>
      </trkpt>
      <trkpt lat="48.04665" lon="7.25568">
        <ele>651</ele>
        <time>2013-05-10T13:34:21Z</time>
      </trkpt>
      <trkpt lat="48.04647" lon="7.25548">
        <ele>648</ele>
        <time>2013-05-10T13:34:25Z</time>
      </trkpt>
      <trkpt lat="48.04619" lon="7.25531">
        <ele>648</ele>
        <time>2013-05-10T13:34:30Z</time>
      </trkpt>
      <trkpt lat="48.046" lon="7.25514">
        <ele>647</ele>
        <time>2013-05-10T13:34:35Z</time>
      </trkpt>
      <trkpt lat="48.04584" lon="7.25499">
        <ele>644</ele>
        <time>2013-05-10T13:34:41Z</time>
      </trkpt>
      <trkpt lat="48.04565" lon="7.25488">
        <ele>642</ele>
        <time>2013-05-10T13:34:48Z</time>
      </trkpt>
      <trkpt lat="48.04553" lon="7.25483">
        <ele>641</ele>
        <time>2013-05-10T13:34:53Z</time>
      </trkpt>
      <trkpt lat="48.0453" lon="7.25471">
        <ele>641</ele>
        <time>2013-05-10T13:35:00Z</time>
      </trkpt>
      <trkpt lat="48.04518" lon="7.25461">
        <ele>641</ele>
        <time>2013-05-10T13:35:03Z</time>
      </trkpt>
      <trkpt lat="48.04498" lon="7.25451">
        <ele>647</ele>
        <time>2013-05-10T13:35:08Z</time>
      </trkpt>
      <trkpt lat="48.04486" lon="7.25452">
        <ele>648</ele>
        <time>2013-05-10T13:35:13Z</time>
      </trkpt>
      <trkpt lat="48.04479" lon="7.25456">
        <ele>649</ele>
        <time>2013-05-10T13:35:18Z</time>
      </trkpt>
      <trkpt lat="48.04471" lon="7.25465">
        <ele>650</ele>
        <time>2013-05-10T13:35:26Z</time>
      </trkpt>
      <trkpt lat="48.04463" lon="7.25472">
        <ele>651</ele>
        <time>2013-05-10T13:35:33Z</time>
      </trkpt>
      <trkpt lat="48.04453" lon="7.25479">
        <ele>652</ele>
        <time>2013-05-10T13:35:41Z</time>
      </trkpt>
      <trkpt lat="48.0445" lon="7.25476">
        <ele>652</ele>
        <time>2013-05-10T13:35:45Z</time>
      </trkpt>
      <trkpt lat="48.0445" lon="7.25472">
        <ele>652</ele>
        <time>2013-05-10T13:35:47Z</time>
      </trkpt>
      <trkpt lat="48.0445" lon="7.25464">
        <ele>651</ele>
        <time>2013-05-10T13:35:52Z</time>
      </trkpt>
      <trkpt lat="48.04445" lon="7.25452">
        <ele>651</ele>
        <time>2013-05-10T13:35:57Z</time>
      </trkpt>
      <trkpt lat="48.04439" lon="7.2544">
        <ele>652</ele>
        <time>2013-05-10T13:36:04Z</time>
      </trkpt>
      <trkpt lat="48.04433" lon="7.2543">
        <ele>652</ele>
        <time>2013-05-10T13:36:11Z</time>
      </trkpt>
      <trkpt lat="48.04424" lon="7.25422">
        <ele>654</ele>
        <time>2013-05-10T13:36:19Z</time>
      </trkpt>
      <trkpt lat="48.04416" lon="7.25417">
        <ele>655</ele>
        <time>2013-05-10T13:36:25Z</time>
      </trkpt>
      <trkpt lat="48.04407" lon="7.25413">
        <ele>656</ele>
        <time>2013-05-10T13:36:32Z</time>
      </trkpt>
      <trkpt lat="48.04398" lon="7.25411">
        <ele>656</ele>
        <time>2013-05-10T13:36:40Z</time>
      </trkpt>
      <trkpt lat="48.04387" lon="7.25408">
        <ele>658</ele>
        <time>2013-05-10T13:36:47Z</time>
      </trkpt>
      <trkpt lat="48.04374" lon="7.25405">
        <ele>659</ele>
        <time>2013-05-10T13:36:55Z</time>
      </trkpt>
      <trkpt lat="48.04367" lon="7.25402">
        <ele>660</ele>
        <time>2013-05-10T13:37:11Z</time>
      </trkpt>
      <trkpt lat="48.04362" lon="7.25398">
        <ele>661</ele>
        <time>2013-05-10T13:37:15Z</time>
      </trkpt>
      <trkpt lat="48.04354" lon="7.25386">
        <ele>661</ele>
        <time>2013-05-10T13:37:22Z</time>
      </trkpt>
      <trkpt lat="48.04352" lon="7.25378">
        <ele>660</ele>
        <time>2013-05-10T13:37:27Z</time>
      </trkpt>
      <trkpt lat="48.04349" lon="7.2537">
        <ele>660</ele>
        <time>2013-05-10T13:37:31Z</time>
      </trkpt>
      <trkpt lat="48.04337" lon="7.25351">
        <ele>661</ele>
        <time>2013-05-10T13:37:39Z</time>
      </trkpt>
      <trkpt lat="48.04327" lon="7.25339">
        <ele>668</ele>
        <time>2013-05-10T13:37:45Z</time>
      </trkpt>
      <trkpt lat="48.04317" lon="7.25327">
        <ele>666</ele>
        <time>2013-05-10T13:37:50Z</time>
      </trkpt>
      <trkpt lat="48.04308" lon="7.25313">
        <ele>666</ele>
        <time>2013-05-10T13:37:55Z</time>
      </trkpt>
      <trkpt lat="48.04299" lon="7.25292">
        <ele>665</ele>
        <time>2013-05-10T13:38:01Z</time>
      </trkpt>
      <trkpt lat="48.0429" lon="7.25275">
        <ele>665</ele>
        <time>2013-05-10T13:38:06Z</time>
      </trkpt>
      <trkpt lat="48.04277" lon="7.25252">
        <ele>666</ele>
        <time>2013-05-10T13:38:13Z</time>
      </trkpt>
      <trkpt lat="48.04263" lon="7.25237">
        <ele>664</ele>
        <time>2013-05-10T13:38:20Z</time>
      </trkpt>
      <trkpt lat="48.04247" lon="7.25233">
        <ele>673</ele>
        <time>2013-05-10T13:38:27Z</time>
      </trkpt>
      <trkpt lat="48.04238" lon="7.25233">
        <ele>673</ele>
        <time>2013-05-10T13:38:32Z</time>
      </trkpt>
      <trkpt lat="48.04227" lon="7.25238">
        <ele>674</ele>
        <time>2013-05-10T13:38:37Z</time>
      </trkpt>
      <trkpt lat="48.04216" lon="7.25249">
        <ele>674</ele>
        <time>2013-05-10T13:38:43Z</time>
      </trkpt>
      <trkpt lat="48.04208" lon="7.25262">
        <ele>676</ele>
        <time>2013-05-10T13:38:48Z</time>
      </trkpt>
      <trkpt lat="48.04202" lon="7.25281">
        <ele>676</ele>
        <time>2013-05-10T13:38:54Z</time>
      </trkpt>
      <trkpt lat="48.04195" lon="7.25303">
        <ele>676</ele>
        <time>2013-05-10T13:39:00Z</time>
      </trkpt>
      <trkpt lat="48.04186" lon="7.25321">
        <ele>676</ele>
        <time>2013-05-10T13:39:05Z</time>
      </trkpt>
      <trkpt lat="48.04175" lon="7.25354">
        <ele>677</ele>
        <time>2013-05-10T13:39:13Z</time>
      </trkpt>
      <trkpt lat="48.04168" lon="7.25373">
        <ele>678</ele>
        <time>2013-05-10T13:39:18Z</time>
      </trkpt>
      <trkpt lat="48.04153" lon="7.254">
        <ele>680</ele>
        <time>2013-05-10T13:39:26Z</time>
      </trkpt>
      <trkpt lat="48.04144" lon="7.25409">
        <ele>681</ele>
        <time>2013-05-10T13:39:30Z</time>
      </trkpt>
      <trkpt lat="48.0414" lon="7.25411">
        <ele>681</ele>
        <time>2013-05-10T13:39:32Z</time>
      </trkpt>
      <trkpt lat="48.04137" lon="7.25427">
        <ele>681</ele>
        <time>2013-05-10T13:39:37Z</time>
      </trkpt>
      <trkpt lat="48.04137" lon="7.25442">
        <ele>681</ele>
        <time>2013-05-10T13:39:41Z</time>
      </trkpt>
      <trkpt lat="48.04135" lon="7.25456">
        <ele>681</ele>
        <time>2013-05-10T13:39:46Z</time>
      </trkpt>
      <trkpt lat="48.04135" lon="7.25475">
        <ele>680</ele>
        <time>2013-05-10T13:39:53Z</time>
      </trkpt>
      <trkpt lat="48.04133" lon="7.2549">
        <ele>680</ele>
        <time>2013-05-10T13:39:58Z</time>
      </trkpt>
      <trkpt lat="48.0413" lon="7.2551">
        <ele>675</ele>
        <time>2013-05-10T13:40:04Z</time>
      </trkpt>
      <trkpt lat="48.04125" lon="7.25523">
        <ele>675</ele>
        <time>2013-05-10T13:40:09Z</time>
      </trkpt>
      <trkpt lat="48.04115" lon="7.25529">
        <ele>676</ele>
        <time>2013-05-10T13:40:16Z</time>
      </trkpt>
      <trkpt lat="48.04106" lon="7.25531">
        <ele>676</ele>
        <time>2013-05-10T13:40:22Z</time>
      </trkpt>
      <trkpt lat="48.04096" lon="7.25535">
        <ele>676</ele>
        <time>2013-05-10T13:40:28Z</time>
      </trkpt>
      <trkpt lat="48.04085" lon="7.25538">
        <ele>676</ele>
        <time>2013-05-10T13:40:36Z</time>
      </trkpt>
      <trkpt lat="48.04072" lon="7.25537">
        <ele>685</ele>
        <time>2013-05-10T13:40:44Z</time>
      </trkpt>
      <trkpt lat="48.04055" lon="7.25533">
        <ele>687</ele>
        <time>2013-05-10T13:40:54Z</time>
      </trkpt>
      <trkpt lat="48.04039" lon="7.25529">
        <ele>688</ele>
        <time>2013-05-10T13:41:03Z</time>
      </trkpt>
      <trkpt lat="48.04028" lon="7.25527">
        <ele>690</ele>
        <time>2013-05-10T13:41:09Z</time>
      </trkpt>
      <trkpt lat="48.04018" lon="7.25528">
        <ele>691</ele>
        <time>2013-05-10T13:41:15Z</time>
      </trkpt>
      <trkpt lat="48.04011" lon="7.25534">
        <ele>691</ele>
        <time>2013-05-10T13:41:21Z</time>
      </trkpt>
      <trkpt lat="48.04005" lon="7.2555">
        <ele>690</ele>
        <time>2013-05-10T13:41:28Z</time>
      </trkpt>
      <trkpt lat="48.04004" lon="7.25569">
        <ele>690</ele>
        <time>2013-05-10T13:41:35Z</time>
      </trkpt>
      <trkpt lat="48.04006" lon="7.25591">
        <ele>688</ele>
        <time>2013-05-10T13:41:43Z</time>
      </trkpt>
      <trkpt lat="48.04005" lon="7.25599">
        <ele>686</ele>
        <time>2013-05-10T13:41:46Z</time>
      </trkpt>
      <trkpt lat="48.04001" lon="7.25611">
        <ele>685</ele>
        <time>2013-05-10T13:41:53Z</time>
      </trkpt>
      <trkpt lat="48.03998" lon="7.25623">
        <ele>694</ele>
        <time>2013-05-10T13:41:58Z</time>
      </trkpt>
      <trkpt lat="48.03995" lon="7.25641">
        <ele>693</ele>
        <time>2013-05-10T13:42:05Z</time>
      </trkpt>
      <trkpt lat="48.03992" lon="7.25665">
        <ele>691</ele>
        <time>2013-05-10T13:42:13Z</time>
      </trkpt>
      <trkpt lat="48.03993" lon="7.25687">
        <ele>690</ele>
        <time>2013-05-10T13:42:21Z</time>
      </trkpt>
      <trkpt lat="48.03989" lon="7.257">
        <ele>690</ele>
        <time>2013-05-10T13:42:27Z</time>
      </trkpt>
      <trkpt lat="48.03979" lon="7.2571">
        <ele>690</ele>
        <time>2013-05-10T13:42:35Z</time>
      </trkpt>
      <trkpt lat="48.03971" lon="7.25708">
        <ele>690</ele>
        <time>2013-05-10T13:42:41Z</time>
      </trkpt>
      <trkpt lat="48.03968" lon="7.25704">
        <ele>690</ele>
        <time>2013-05-10T13:42:46Z</time>
      </trkpt>
      <trkpt lat="48.03967" lon="7.25701">
        <ele>690</ele>
        <time>2013-05-10T13:42:57Z</time>
      </trkpt>
      <trkpt lat="48.03965" lon="7.257">
        <ele>691</ele>
        <time>2013-05-10T13:43:11Z</time>
      </trkpt>
      <trkpt lat="48.03966" lon="7.25702">
        <ele>690</ele>
        <time>2013-05-10T13:43:30Z</time>
      </trkpt>
      <trkpt lat="48.03962" lon="7.25697">
        <ele>691</ele>
        <time>2013-05-10T13:43:42Z</time>
      </trkpt>
      <trkpt lat="48.03954" lon="7.2568">
        <ele>692</ele>
        <time>2013-05-10T13:43:48Z</time>
      </trkpt>
      <trkpt lat="48.03945" lon="7.25662">
        <ele>696</ele>
        <time>2013-05-10T13:43:54Z</time>
      </trkpt>
      <trkpt lat="48.03934" lon="7.25653">
        <ele>697</ele>
        <time>2013-05-10T13:44:00Z</time>
      </trkpt>
      <trkpt lat="48.03924" lon="7.25651">
        <ele>697</ele>
        <time>2013-05-10T13:44:06Z</time>
      </trkpt>
      <trkpt lat="48.03922" lon="7.25651">
        <ele>697</ele>
        <time>2013-05-10T13:44:07Z</time>
      </trkpt>
      <trkpt lat="48.03913" lon="7.25645">
        <ele>699</ele>
        <time>2013-05-10T13:44:12Z</time>
      </trkpt>
      <trkpt lat="48.0391" lon="7.25644">
        <ele>699</ele>
        <time>2013-05-10T13:44:16Z</time>
      </trkpt>
      <trkpt lat="48.03911" lon="7.25643">
        <ele>699</ele>
        <time>2013-05-10T13:44:24Z</time>
      </trkpt>
      <trkpt lat="48.03913" lon="7.25645">
        <ele>699</ele>
        <time>2013-05-10T13:44:49Z</time>
      </trkpt>
      <trkpt lat="48.03916" lon="7.25657">
        <ele>698</ele>
        <time>2013-05-10T13:44:56Z</time>
      </trkpt>
      <trkpt lat="48.03922" lon="7.25673">
        <ele>696</ele>
        <time>2013-05-10T13:45:00Z</time>
      </trkpt>
      <trkpt lat="48.03936" lon="7.25693">
        <ele>692</ele>
        <time>2013-05-10T13:45:05Z</time>
      </trkpt>
      <trkpt lat="48.03941" lon="7.25711">
        <ele>691</ele>
        <time>2013-05-10T13:45:08Z</time>
      </trkpt>
      <trkpt lat="48.03941" lon="7.25732">
        <ele>690</ele>
        <time>2013-05-10T13:45:10Z</time>
      </trkpt>
      <trkpt lat="48.03942" lon="7.25757">
        <ele>683</ele>
        <time>2013-05-10T13:45:13Z</time>
      </trkpt>
      <trkpt lat="48.03948" lon="7.25807">
        <ele>678</ele>
        <time>2013-05-10T13:45:19Z</time>
      </trkpt>
      <trkpt lat="48.03953" lon="7.25853">
        <ele>667</ele>
        <time>2013-05-10T13:45:24Z</time>
      </trkpt>
      <trkpt lat="48.03951" lon="7.25881">
        <ele>666</ele>
        <time>2013-05-10T13:45:28Z</time>
      </trkpt>
      <trkpt lat="48.0393" lon="7.25908">
        <ele>663</ele>
        <time>2013-05-10T13:45:33Z</time>
      </trkpt>
      <trkpt lat="48.03923" lon="7.25915">
        <ele>661</ele>
        <time>2013-05-10T13:45:37Z</time>
      </trkpt>
      <trkpt lat="48.03917" lon="7.25922">
        <ele>660</ele>
        <time>2013-05-10T13:45:42Z</time>
      </trkpt>
      <trkpt lat="48.03916" lon="7.25926">
        <ele>658</ele>
        <time>2013-05-10T13:45:43Z</time>
      </trkpt>
      <trkpt lat="48.03916" lon="7.25952">
        <ele>656</ele>
        <time>2013-05-10T13:45:48Z</time>
      </trkpt>
      <trkpt lat="48.03917" lon="7.25956">
        <ele>658</ele>
        <time>2013-05-10T13:45:49Z</time>
      </trkpt>
      <trkpt lat="48.03928" lon="7.25998">
        <ele>656</ele>
        <time>2013-05-10T13:45:56Z</time>
      </trkpt>
      <trkpt lat="48.03931" lon="7.26004">
        <ele>652</ele>
        <time>2013-05-10T13:45:57Z</time>
      </trkpt>
      <trkpt lat="48.03939" lon="7.26033">
        <ele>649</ele>
        <time>2013-05-10T13:46:01Z</time>
      </trkpt>
      <trkpt lat="48.03949" lon="7.26063">
        <ele>646</ele>
        <time>2013-05-10T13:46:05Z</time>
      </trkpt>
      <trkpt lat="48.0395" lon="7.261">
        <ele>637</ele>
        <time>2013-05-10T13:46:09Z</time>
      </trkpt>
      <trkpt lat="48.03949" lon="7.26145">
        <ele>633</ele>
        <time>2013-05-10T13:46:14Z</time>
      </trkpt>
      <trkpt lat="48.03951" lon="7.26175">
        <ele>625</ele>
        <time>2013-05-10T13:46:18Z</time>
      </trkpt>
      <trkpt lat="48.0395" lon="7.26182">
        <ele>625</ele>
        <time>2013-05-10T13:46:22Z</time>
      </trkpt>
      <trkpt lat="48.03943" lon="7.2619">
        <ele>624</ele>
        <time>2013-05-10T13:46:40Z</time>
      </trkpt>
      <trkpt lat="48.03944" lon="7.26194">
        <ele>624</ele>
        <time>2013-05-10T13:47:07Z</time>
      </trkpt>
      <trkpt lat="48.03948" lon="7.26201">
        <ele>624</ele>
        <time>2013-05-10T13:47:34Z</time>
      </trkpt>
      <trkpt lat="48.03958" lon="7.26214">
        <ele>623</ele>
        <time>2013-05-10T13:47:39Z</time>
      </trkpt>
      <trkpt lat="48.0396" lon="7.26216">
        <ele>623</ele>
        <time>2013-05-10T13:47:40Z</time>
      </trkpt>
      <trkpt lat="48.03971" lon="7.26232">
        <ele>623</ele>
        <time>2013-05-10T13:47:45Z</time>
      </trkpt>
      <trkpt lat="48.03977" lon="7.26238">
        <ele>623</ele>
        <time>2013-05-10T13:47:52Z</time>
      </trkpt>
      <trkpt lat="48.03987" lon="7.26256">
        <ele>620</ele>
        <time>2013-05-10T13:47:56Z</time>
      </trkpt>
      <trkpt lat="48.04001" lon="7.26282">
        <ele>619</ele>
        <time>2013-05-10T13:48:01Z</time>
      </trkpt>
      <trkpt lat="48.04009" lon="7.26303">
        <ele>617</ele>
        <time>2013-05-10T13:48:06Z</time>
      </trkpt>
      <trkpt lat="48.04015" lon="7.26327">
        <ele>616</ele>
        <time>2013-05-10T13:48:11Z</time>
      </trkpt>
      <trkpt lat="48.04012" lon="7.26352">
        <ele>612</ele>
        <time>2013-05-10T13:48:15Z</time>
      </trkpt>
      <trkpt lat="48.04009" lon="7.26367">
        <ele>611</ele>
        <time>2013-05-10T13:48:17Z</time>
      </trkpt>
      <trkpt lat="48.04007" lon="7.26413">
        <ele>608</ele>
        <time>2013-05-10T13:48:23Z</time>
      </trkpt>
      <trkpt lat="48.04002" lon="7.26441">
        <ele>605</ele>
        <time>2013-05-10T13:48:27Z</time>
      </trkpt>
      <trkpt lat="48.04005" lon="7.26474">
        <ele>603</ele>
        <time>2013-05-10T13:48:31Z</time>
      </trkpt>
      <trkpt lat="48.0401" lon="7.26506">
        <ele>600</ele>
        <time>2013-05-10T13:48:35Z</time>
      </trkpt>
      <trkpt lat="48.0402" lon="7.2654">
        <ele>597</ele>
        <time>2013-05-10T13:48:40Z</time>
      </trkpt>
      <trkpt lat="48.04024" lon="7.26555">
        <ele>596</ele>
        <time>2013-05-10T13:48:44Z</time>
      </trkpt>
      <trkpt lat="48.04026" lon="7.26568">
        <ele>596</ele>
        <time>2013-05-10T13:48:53Z</time>
      </trkpt>
      <trkpt lat="48.0403" lon="7.26582">
        <ele>596</ele>
        <time>2013-05-10T13:48:56Z</time>
      </trkpt>
      <trkpt lat="48.04054" lon="7.26611">
        <ele>591</ele>
        <time>2013-05-10T13:49:01Z</time>
      </trkpt>
      <trkpt lat="48.04066" lon="7.26651">
        <ele>589</ele>
        <time>2013-05-10T13:49:05Z</time>
      </trkpt>
      <trkpt lat="48.04066" lon="7.26683">
        <ele>586</ele>
        <time>2013-05-10T13:49:09Z</time>
      </trkpt>
      <trkpt lat="48.04067" lon="7.26708">
        <ele>586</ele>
        <time>2013-05-10T13:49:12Z</time>
      </trkpt>
      <trkpt lat="48.04067" lon="7.26724">
        <ele>585</ele>
        <time>2013-05-10T13:49:14Z</time>
      </trkpt>
      <trkpt lat="48.04064" lon="7.26762">
        <ele>581</ele>
        <time>2013-05-10T13:49:19Z</time>
      </trkpt>
      <trkpt lat="48.04062" lon="7.26794">
        <ele>579</ele>
        <time>2013-05-10T13:49:23Z</time>
      </trkpt>
      <trkpt lat="48.04056" lon="7.26831">
        <ele>576</ele>
        <time>2013-05-10T13:49:28Z</time>
      </trkpt>
      <trkpt lat="48.04058" lon="7.26872">
        <ele>568</ele>
        <time>2013-05-10T13:49:33Z</time>
      </trkpt>
      <trkpt lat="48.04044" lon="7.26895">
        <ele>567</ele>
        <time>2013-05-10T13:49:38Z</time>
      </trkpt>
      <trkpt lat="48.04028" lon="7.26904">
        <ele>566</ele>
        <time>2013-05-10T13:49:41Z</time>
      </trkpt>
      <trkpt lat="48.04" lon="7.26917">
        <ele>563</ele>
        <time>2013-05-10T13:49:46Z</time>
      </trkpt>
      <trkpt lat="48.03984" lon="7.26922">
        <ele>559</ele>
        <time>2013-05-10T13:49:51Z</time>
      </trkpt>
      <trkpt lat="48.03969" lon="7.26924">
        <ele>557</ele>
        <time>2013-05-10T13:49:56Z</time>
      </trkpt>
      <trkpt lat="48.03968" lon="7.26924">
        <ele>557</ele>
        <time>2013-05-10T13:49:58Z</time>
      </trkpt>
      <trkpt lat="48.03984" lon="7.26929">
        <ele>559</ele>
        <time>2013-05-10T13:50:04Z</time>
      </trkpt>
      <trkpt lat="48.03987" lon="7.26931">
        <ele>559</ele>
        <time>2013-05-10T13:50:05Z</time>
      </trkpt>
      <trkpt lat="48.04005" lon="7.26945">
        <ele>559</ele>
        <time>2013-05-10T13:50:11Z</time>
      </trkpt>
      <trkpt lat="48.04016" lon="7.26967">
        <ele>557</ele>
        <time>2013-05-10T13:50:16Z</time>
      </trkpt>
      <trkpt lat="48.04017" lon="7.26974">
        <ele>557</ele>
        <time>2013-05-10T13:50:17Z</time>
      </trkpt>
      <trkpt lat="48.04019" lon="7.26989">
        <ele>556</ele>
        <time>2013-05-10T13:50:19Z</time>
      </trkpt>
      <trkpt lat="48.04009" lon="7.27039">
        <ele>552</ele>
        <time>2013-05-10T13:50:23Z</time>
      </trkpt>
      <trkpt lat="48.04003" lon="7.2704">
        <ele>552</ele>
        <time>2013-05-10T13:50:24Z</time>
      </trkpt>
      <trkpt lat="48.03979" lon="7.27053">
        <ele>553</ele>
        <time>2013-05-10T13:50:30Z</time>
      </trkpt>
      <trkpt lat="48.03971" lon="7.27062">
        <ele>553</ele>
        <time>2013-05-10T13:50:33Z</time>
      </trkpt>
      <trkpt lat="48.03967" lon="7.27071">
        <ele>553</ele>
        <time>2013-05-10T13:50:36Z</time>
      </trkpt>
      <trkpt lat="48.03965" lon="7.27078">
        <ele>553</ele>
        <time>2013-05-10T13:50:41Z</time>
      </trkpt>
      <trkpt lat="48.03959" lon="7.27088">
        <ele>556</ele>
        <time>2013-05-10T13:50:47Z</time>
      </trkpt>
      <trkpt lat="48.03959" lon="7.27091">
        <ele>556</ele>
        <time>2013-05-10T13:50:52Z</time>
      </trkpt>
      <trkpt lat="48.03956" lon="7.27098">
        <ele>556</ele>
        <time>2013-05-10T13:51:23Z</time>
      </trkpt>
      <trkpt lat="48.0395" lon="7.27115">
        <ele>557</ele>
        <time>2013-05-10T13:51:31Z</time>
      </trkpt>
      <trkpt lat="48.03943" lon="7.27125">
        <ele>558</ele>
        <time>2013-05-10T13:51:38Z</time>
      </trkpt>
      <trkpt lat="48.03939" lon="7.27137">
        <ele>559</ele>
        <time>2013-05-10T13:51:44Z</time>
      </trkpt>
      <trkpt lat="48.03935" lon="7.27145">
        <ele>560</ele>
        <time>2013-05-10T13:51:49Z</time>
      </trkpt>
      <trkpt lat="48.03928" lon="7.27153">
        <ele>561</ele>
        <time>2013-05-10T13:51:56Z</time>
      </trkpt>
      <trkpt lat="48.03926" lon="7.27154">
        <ele>562</ele>
        <time>2013-05-10T13:51:58Z</time>
      </trkpt>
      <trkpt lat="48.03924" lon="7.27157">
        <ele>563</ele>
        <time>2013-05-10T13:52:00Z</time>
      </trkpt>
      <trkpt lat="48.03914" lon="7.27166">
        <ele>564</ele>
        <time>2013-05-10T13:52:08Z</time>
      </trkpt>
      <trkpt lat="48.03907" lon="7.27175">
        <ele>565</ele>
        <time>2013-05-10T13:52:14Z</time>
      </trkpt>
      <trkpt lat="48.03898" lon="7.27186">
        <ele>564</ele>
        <time>2013-05-10T13:52:22Z</time>
      </trkpt>
      <trkpt lat="48.03891" lon="7.27195">
        <ele>564</ele>
        <time>2013-05-10T13:52:28Z</time>
      </trkpt>
      <trkpt lat="48.03883" lon="7.27204">
        <ele>564</ele>
        <time>2013-05-10T13:52:33Z</time>
      </trkpt>
      <trkpt lat="48.03871" lon="7.27219">
        <ele>564</ele>
        <time>2013-05-10T13:52:41Z</time>
      </trkpt>
      <trkpt lat="48.03864" lon="7.27232">
        <ele>564</ele>
        <time>2013-05-10T13:52:47Z</time>
      </trkpt>
      <trkpt lat="48.03859" lon="7.27243">
        <ele>563</ele>
        <time>2013-05-10T13:52:53Z</time>
      </trkpt>
      <trkpt lat="48.03854" lon="7.27255">
        <ele>568</ele>
        <time>2013-05-10T13:52:59Z</time>
      </trkpt>
      <trkpt lat="48.03852" lon="7.27268">
        <ele>569</ele>
        <time>2013-05-10T13:53:06Z</time>
      </trkpt>
      <trkpt lat="48.0385" lon="7.27279">
        <ele>570</ele>
        <time>2013-05-10T13:53:12Z</time>
      </trkpt>
      <trkpt lat="48.03848" lon="7.27288">
        <ele>571</ele>
        <time>2013-05-10T13:53:16Z</time>
      </trkpt>
      <trkpt lat="48.03846" lon="7.27306">
        <ele>572</ele>
        <time>2013-05-10T13:53:23Z</time>
      </trkpt>
      <trkpt lat="48.03844" lon="7.27309">
        <ele>572</ele>
        <time>2013-05-10T13:53:29Z</time>
      </trkpt>
      <trkpt lat="48.03848" lon="7.27319">
        <ele>572</ele>
        <time>2013-05-10T13:54:00Z</time>
      </trkpt>
      <trkpt lat="48.03851" lon="7.27319">
        <ele>572</ele>
        <time>2013-05-10T13:54:14Z</time>
      </trkpt>
      <trkpt lat="48.03851" lon="7.27318">
        <ele>572</ele>
        <time>2013-05-10T13:54:15Z</time>
      </trkpt>
      <trkpt lat="48.03856" lon="7.27296">
        <ele>572</ele>
        <time>2013-05-10T13:54:21Z</time>
      </trkpt>
      <trkpt lat="48.03859" lon="7.27273">
        <ele>571</ele>
        <time>2013-05-10T13:54:24Z</time>
      </trkpt>
      <trkpt lat="48.03865" lon="7.27243">
        <ele>564</ele>
        <time>2013-05-10T13:54:29Z</time>
      </trkpt>
      <trkpt lat="48.03865" lon="7.27242">
        <ele>564</ele>
        <time>2013-05-10T13:54:30Z</time>
      </trkpt>
      <trkpt lat="48.03852" lon="7.2726">
        <ele>568</ele>
        <time>2013-05-10T13:54:36Z</time>
      </trkpt>
      <trkpt lat="48.03837" lon="7.27288">
        <ele>570</ele>
        <time>2013-05-10T13:54:42Z</time>
      </trkpt>
      <trkpt lat="48.0383" lon="7.27298">
        <ele>555</ele>
        <time>2013-05-10T13:54:45Z</time>
      </trkpt>
      <trkpt lat="48.03821" lon="7.27322">
        <ele>560</ele>
        <time>2013-05-10T13:54:50Z</time>
      </trkpt>
      <trkpt lat="48.03811" lon="7.27345">
        <ele>558</ele>
        <time>2013-05-10T13:54:53Z</time>
      </trkpt>
      <trkpt lat="48.03801" lon="7.2737">
        <ele>554</ele>
        <time>2013-05-10T13:54:56Z</time>
      </trkpt>
      <trkpt lat="48.03794" lon="7.27387">
        <ele>553</ele>
        <time>2013-05-10T13:54:58Z</time>
      </trkpt>
      <trkpt lat="48.03783" lon="7.2742">
        <ele>544</ele>
        <time>2013-05-10T13:55:03Z</time>
      </trkpt>
      <trkpt lat="48.03783" lon="7.27425">
        <ele>543</ele>
        <time>2013-05-10T13:55:07Z</time>
      </trkpt>
      <trkpt lat="48.0378" lon="7.27427">
        <ele>543</ele>
        <time>2013-05-10T13:55:21Z</time>
      </trkpt>
      <trkpt lat="48.03779" lon="7.27436">
        <ele>542</ele>
        <time>2013-05-10T13:55:26Z</time>
      </trkpt>
      <trkpt lat="48.0378" lon="7.27438">
        <ele>542</ele>
        <time>2013-05-10T13:55:31Z</time>
      </trkpt>
      <trkpt lat="48.03782" lon="7.27435">
        <ele>542</ele>
        <time>2013-05-10T13:55:34Z</time>
      </trkpt>
      <trkpt lat="48.03785" lon="7.27429">
        <ele>543</ele>
        <time>2013-05-10T13:55:41Z</time>
      </trkpt>
      <trkpt lat="48.03785" lon="7.27425">
        <ele>543</ele>
        <time>2013-05-10T13:55:45Z</time>
      </trkpt>
      <trkpt lat="48.03788" lon="7.27413">
        <ele>552</ele>
        <time>2013-05-10T13:55:49Z</time>
      </trkpt>
      <trkpt lat="48.0379" lon="7.27385">
        <ele>552</ele>
        <time>2013-05-10T13:55:56Z</time>
      </trkpt>
      <trkpt lat="48.0379" lon="7.27383">
        <ele>552</ele>
        <time>2013-05-10T13:55:57Z</time>
      </trkpt>
      <trkpt lat="48.03783" lon="7.27379">
        <ele>551</ele>
        <time>2013-05-10T13:56:02Z</time>
      </trkpt>
      <trkpt lat="48.03779" lon="7.27386">
        <ele>550</ele>
        <time>2013-05-10T13:56:04Z</time>
      </trkpt>
      <trkpt lat="48.03761" lon="7.27419">
        <ele>542</ele>
        <time>2013-05-10T13:56:11Z</time>
      </trkpt>
      <trkpt lat="48.03746" lon="7.27434">
        <ele>532</ele>
        <time>2013-05-10T13:56:15Z</time>
      </trkpt>
      <trkpt lat="48.03736" lon="7.27445">
        <ele>528</ele>
        <time>2013-05-10T13:56:18Z</time>
      </trkpt>
      <trkpt lat="48.0373" lon="7.2746">
        <ele>525</ele>
        <time>2013-05-10T13:56:22Z</time>
      </trkpt>
      <trkpt lat="48.03718" lon="7.27488">
        <ele>523</ele>
        <time>2013-05-10T13:56:28Z</time>
      </trkpt>
      <trkpt lat="48.03712" lon="7.27509">
        <ele>512</ele>
        <time>2013-05-10T13:56:32Z</time>
      </trkpt>
      <trkpt lat="48.0371" lon="7.27513">
        <ele>512</ele>
        <time>2013-05-10T13:56:33Z</time>
      </trkpt>
      <trkpt lat="48.03698" lon="7.27524">
        <ele>509</ele>
        <time>2013-05-10T13:56:38Z</time>
      </trkpt>
      <trkpt lat="48.03686" lon="7.27529">
        <ele>507</ele>
        <time>2013-05-10T13:56:45Z</time>
      </trkpt>
      <trkpt lat="48.03685" lon="7.27525">
        <ele>507</ele>
        <time>2013-05-10T13:56:49Z</time>
      </trkpt>
      <trkpt lat="48.03685" lon="7.27524">
        <ele>507</ele>
        <time>2013-05-10T13:56:50Z</time>
      </trkpt>
      <trkpt lat="48.03687" lon="7.27509">
        <ele>508</ele>
        <time>2013-05-10T13:56:58Z</time>
      </trkpt>
      <trkpt lat="48.03688" lon="7.27502">
        <ele>509</ele>
        <time>2013-05-10T13:57:01Z</time>
      </trkpt>
      <trkpt lat="48.03683" lon="7.275">
        <ele>508</ele>
        <time>2013-05-10T13:57:06Z</time>
      </trkpt>
      <trkpt lat="48.03678" lon="7.27512">
        <ele>508</ele>
        <time>2013-05-10T13:57:10Z</time>
      </trkpt>
      <trkpt lat="48.03677" lon="7.2752">
        <ele>507</ele>
        <time>2013-05-10T13:57:12Z</time>
      </trkpt>
      <trkpt lat="48.03673" lon="7.27527">
        <ele>506</ele>
        <time>2013-05-10T13:57:17Z</time>
      </trkpt>
      <trkpt lat="48.03674" lon="7.27532">
        <ele>506</ele>
        <time>2013-05-10T13:57:23Z</time>
      </trkpt>
      <trkpt lat="48.03673" lon="7.2753">
        <ele>506</ele>
        <time>2013-05-10T13:57:32Z</time>
      </trkpt>
      <trkpt lat="48.03671" lon="7.27532">
        <ele>506</ele>
        <time>2013-05-10T13:57:53Z</time>
      </trkpt>
      <trkpt lat="48.03671" lon="7.27531">
        <ele>506</ele>
        <time>2013-05-10T13:57:54Z</time>
      </trkpt>
      <trkpt lat="48.03668" lon="7.27514">
        <ele>507</ele>
        <time>2013-05-10T13:58:02Z</time>
      </trkpt>
      <trkpt lat="48.03668" lon="7.2751">
        <ele>507</ele>
        <time>2013-05-10T13:58:09Z</time>
      </trkpt>
      <trkpt lat="48.03666" lon="7.2751">
        <ele>498</ele>
        <time>2013-05-10T13:58:18Z</time>
      </trkpt>
      <trkpt lat="48.03664" lon="7.27514">
        <ele>495</ele>
        <time>2013-05-10T13:58:21Z</time>
      </trkpt>
      <trkpt lat="48.03658" lon="7.27536">
        <ele>487</ele>
        <time>2013-05-10T13:58:28Z</time>
      </trkpt>
      <trkpt lat="48.03659" lon="7.2755">
        <ele>486</ele>
        <time>2013-05-10T13:58:32Z</time>
      </trkpt>
      <trkpt lat="48.03663" lon="7.27565">
        <ele>487</ele>
        <time>2013-05-10T13:58:37Z</time>
      </trkpt>
      <trkpt lat="48.03661" lon="7.27569">
        <ele>487</ele>
        <time>2013-05-10T13:58:41Z</time>
      </trkpt>
      <trkpt lat="48.03661" lon="7.27569">
        <ele>487</ele>
        <time>2013-05-10T13:58:42Z</time>
      </trkpt>
      <trkpt lat="48.03651" lon="7.27563">
        <ele>484</ele>
        <time>2013-05-10T13:58:47Z</time>
      </trkpt>
      <trkpt lat="48.03647" lon="7.27548">
        <ele>484</ele>
        <time>2013-05-10T13:58:50Z</time>
      </trkpt>
      <trkpt lat="48.03645" lon="7.27548">
        <ele>483</ele>
        <time>2013-05-10T13:58:53Z</time>
      </trkpt>
      <trkpt lat="48.03642" lon="7.2756">
        <ele>483</ele>
        <time>2013-05-10T13:58:58Z</time>
      </trkpt>
      <trkpt lat="48.03638" lon="7.2755">
        <ele>482</ele>
        <time>2013-05-10T13:59:04Z</time>
      </trkpt>
      <trkpt lat="48.03634" lon="7.27556">
        <ele>481</ele>
        <time>2013-05-10T13:59:08Z</time>
      </trkpt>
      <trkpt lat="48.03627" lon="7.27549">
        <ele>479</ele>
        <time>2013-05-10T13:59:13Z</time>
      </trkpt>
      <trkpt lat="48.03625" lon="7.27549">
        <ele>479</ele>
        <time>2013-05-10T13:59:15Z</time>
      </trkpt>
      <trkpt lat="48.03619" lon="7.27564">
        <ele>477</ele>
        <time>2013-05-10T13:59:20Z</time>
      </trkpt>
      <trkpt lat="48.03614" lon="7.27581">
        <ele>474</ele>
        <time>2013-05-10T13:59:24Z</time>
      </trkpt>
      <trkpt lat="48.03607" lon="7.27588">
        <ele>463</ele>
        <time>2013-05-10T13:59:28Z</time>
      </trkpt>
      <trkpt lat="48.03602" lon="7.27601">
        <ele>462</ele>
        <time>2013-05-10T13:59:33Z</time>
      </trkpt>
      <trkpt lat="48.03598" lon="7.27609">
        <ele>461</ele>
        <time>2013-05-10T13:59:37Z</time>
      </trkpt>
      <trkpt lat="48.03597" lon="7.2761">
        <ele>461</ele>
        <time>2013-05-10T13:59:48Z</time>
      </trkpt>
      <trkpt lat="48.03597" lon="7.27612">
        <ele>461</ele>
        <time>2013-05-10T13:59:55Z</time>
      </trkpt>
      <trkpt lat="48.03594" lon="7.27615">
        <ele>461</ele>
        <time>2013-05-10T14:00:05Z</time>
      </trkpt>
      <trkpt lat="48.03593" lon="7.27619">
        <ele>460</ele>
        <time>2013-05-10T14:00:11Z</time>
      </trkpt>
      <trkpt lat="48.03591" lon="7.2762">
        <ele>460</ele>
        <time>2013-05-10T14:00:17Z</time>
      </trkpt>
      <trkpt lat="48.03588" lon="7.27603">
        <ele>461</ele>
        <time>2013-05-10T14:00:22Z</time>
      </trkpt>
      <trkpt lat="48.03585" lon="7.27594">
        <ele>460</ele>
        <time>2013-05-10T14:00:26Z</time>
      </trkpt>
      <trkpt lat="48.03581" lon="7.27608">
        <ele>446</ele>
        <time>2013-05-10T14:00:31Z</time>
      </trkpt>
      <trkpt lat="48.03579" lon="7.2763">
        <ele>443</ele>
        <time>2013-05-10T14:00:35Z</time>
      </trkpt>
      <trkpt lat="48.03578" lon="7.27634">
        <ele>443</ele>
        <time>2013-05-10T14:00:36Z</time>
      </trkpt>
      <trkpt lat="48.03571" lon="7.27625">
        <ele>443</ele>
        <time>2013-05-10T14:00:42Z</time>
      </trkpt>
      <trkpt lat="48.03568" lon="7.2762">
        <ele>443</ele>
        <time>2013-05-10T14:00:44Z</time>
      </trkpt>
      <trkpt lat="48.03565" lon="7.27637">
        <ele>441</ele>
        <time>2013-05-10T14:00:49Z</time>
      </trkpt>
      <trkpt lat="48.03561" lon="7.27646">
        <ele>441</ele>
        <time>2013-05-10T14:00:51Z</time>
      </trkpt>
      <trkpt lat="48.03543" lon="7.27658">
        <ele>438</ele>
        <time>2013-05-10T14:00:57Z</time>
      </trkpt>
      <trkpt lat="48.03535" lon="7.27657">
        <ele>436</ele>
        <time>2013-05-10T14:01:00Z</time>
      </trkpt>
      <trkpt lat="48.03531" lon="7.27668">
        <ele>427</ele>
        <time>2013-05-10T14:01:04Z</time>
      </trkpt>
      <trkpt lat="48.03524" lon="7.27682">
        <ele>426</ele>
        <time>2013-05-10T14:01:09Z</time>
      </trkpt>
      <trkpt lat="48.03522" lon="7.27684">
        <ele>425</ele>
        <time>2013-05-10T14:01:10Z</time>
      </trkpt>
      <trkpt lat="48.0351" lon="7.2769">
        <ele>424</ele>
        <time>2013-05-10T14:01:15Z</time>
      </trkpt>
      <trkpt lat="48.03501" lon="7.27692">
        <ele>424</ele>
        <time>2013-05-10T14:01:19Z</time>
      </trkpt>
      <trkpt lat="48.03487" lon="7.27691">
        <ele>417</ele>
        <time>2013-05-10T14:01:24Z</time>
      </trkpt>
      <trkpt lat="48.03484" lon="7.27697">
        <ele>416</ele>
        <time>2013-05-10T14:01:30Z</time>
      </trkpt>
      <trkpt lat="48.03484" lon="7.27702">
        <ele>415</ele>
        <time>2013-05-10T14:01:35Z</time>
      </trkpt>
      <trkpt lat="48.03485" lon="7.27704">
        <ele>415</ele>
        <time>2013-05-10T14:01:37Z</time>
      </trkpt>
      <trkpt lat="48.03489" lon="7.27713">
        <ele>414</ele>
        <time>2013-05-10T14:01:42Z</time>
      </trkpt>
      <trkpt lat="48.0349" lon="7.27715">
        <ele>414</ele>
        <time>2013-05-10T14:01:49Z</time>
      </trkpt>
      <trkpt lat="48.03489" lon="7.27716">
        <ele>414</ele>
        <time>2013-05-10T14:02:04Z</time>
      </trkpt>
      <trkpt lat="48.03486" lon="7.27722">
        <ele>413</ele>
        <time>2013-05-10T14:03:09Z</time>
      </trkpt>
      <trkpt lat="48.03484" lon="7.27724">
        <ele>413</ele>
        <time>2013-05-10T14:03:23Z</time>
      </trkpt>
      <trkpt lat="48.03487" lon="7.27725">
        <ele>413</ele>
        <time>2013-05-10T14:03:39Z</time>
      </trkpt>
      <trkpt lat="48.03488" lon="7.27725">
        <ele>413</ele>
        <time>2013-05-10T14:03:45Z</time>
      </trkpt>
      <trkpt lat="48.03496" lon="7.27724">
        <ele>413</ele>
        <time>2013-05-10T14:03:52Z</time>
      </trkpt>
      <trkpt lat="48.03506" lon="7.27727">
        <ele>420</ele>
        <time>2013-05-10T14:04:00Z</time>
      </trkpt>
      <trkpt lat="48.03516" lon="7.27727">
        <ele>421</ele>
        <time>2013-05-10T14:04:07Z</time>
      </trkpt>
      <trkpt lat="48.03526" lon="7.27727">
        <ele>422</ele>
        <time>2013-05-10T14:04:13Z</time>
      </trkpt>
      <trkpt lat="48.03535" lon="7.27725">
        <ele>423</ele>
        <time>2013-05-10T14:04:19Z</time>
      </trkpt>
      <trkpt lat="48.03547" lon="7.2772">
        <ele>424</ele>
        <time>2013-05-10T14:04:26Z</time>
      </trkpt>
      <trkpt lat="48.0356" lon="7.27713">
        <ele>426</ele>
        <time>2013-05-10T14:04:34Z</time>
      </trkpt>
      <trkpt lat="48.03563" lon="7.2771">
        <ele>426</ele>
        <time>2013-05-10T14:04:37Z</time>
      </trkpt>
      <trkpt lat="48.03568" lon="7.27709">
        <ele>427</ele>
        <time>2013-05-10T14:04:42Z</time>
      </trkpt>
      <trkpt lat="48.03577" lon="7.27703">
        <ele>429</ele>
        <time>2013-05-10T14:04:50Z</time>
      </trkpt>
      <trkpt lat="48.03584" lon="7.277">
        <ele>437</ele>
        <time>2013-05-10T14:04:56Z</time>
      </trkpt>
      <trkpt lat="48.03594" lon="7.27702">
        <ele>437</ele>
        <time>2013-05-10T14:05:04Z</time>
      </trkpt>
      <trkpt lat="48.03606" lon="7.27701">
        <ele>438</ele>
        <time>2013-05-10T14:05:12Z</time>
      </trkpt>
      <trkpt lat="48.03613" lon="7.277">
        <ele>438</ele>
        <time>2013-05-10T14:05:18Z</time>
      </trkpt>
      <trkpt lat="48.03621" lon="7.27699">
        <ele>439</ele>
        <time>2013-05-10T14:05:24Z</time>
      </trkpt>
      <trkpt lat="48.03629" lon="7.277">
        <ele>439</ele>
        <time>2013-05-10T14:05:30Z</time>
      </trkpt>
      <trkpt lat="48.03639" lon="7.27701">
        <ele>440</ele>
        <time>2013-05-10T14:05:38Z</time>
      </trkpt>
      <trkpt lat="48.03648" lon="7.27703">
        <ele>440</ele>
        <time>2013-05-10T14:05:45Z</time>
      </trkpt>
      <trkpt lat="48.03657" lon="7.27702">
        <ele>441</ele>
        <time>2013-05-10T14:05:51Z</time>
      </trkpt>
      <trkpt lat="48.03665" lon="7.277">
        <ele>442</ele>
        <time>2013-05-10T14:05:57Z</time>
      </trkpt>
      <trkpt lat="48.03674" lon="7.27701">
        <ele>449</ele>
        <time>2013-05-10T14:06:03Z</time>
      </trkpt>
      <trkpt lat="48.03686" lon="7.27699">
        <ele>450</ele>
        <time>2013-05-10T14:06:10Z</time>
      </trkpt>
      <trkpt lat="48.03692" lon="7.27699">
        <ele>450</ele>
        <time>2013-05-10T14:06:15Z</time>
      </trkpt>
      <trkpt lat="48.03701" lon="7.27703">
        <ele>450</ele>
        <time>2013-05-10T14:06:22Z</time>
      </trkpt>
      <trkpt lat="48.03703" lon="7.27704">
        <ele>450</ele>
        <time>2013-05-10T14:06:24Z</time>
      </trkpt>
      <trkpt lat="48.03715" lon="7.27709">
        <ele>450</ele>
        <time>2013-05-10T14:06:32Z</time>
      </trkpt>
      <trkpt lat="48.03726" lon="7.27718">
        <ele>448</ele>
        <time>2013-05-10T14:06:41Z</time>
      </trkpt>
      <trkpt lat="48.03731" lon="7.27719">
        <ele>448</ele>
        <time>2013-05-10T14:06:45Z</time>
      </trkpt>
      <trkpt lat="48.03738" lon="7.27721">
        <ele>448</ele>
        <time>2013-05-10T14:06:50Z</time>
      </trkpt>
      <trkpt lat="48.03743" lon="7.27721">
        <ele>448</ele>
        <time>2013-05-10T14:06:54Z</time>
      </trkpt>
      <trkpt lat="48.03747" lon="7.27722">
        <ele>448</ele>
        <time>2013-05-10T14:06:56Z</time>
      </trkpt>
      <trkpt lat="48.0376" lon="7.27721">
        <ele>453</ele>
        <time>2013-05-10T14:07:04Z</time>
      </trkpt>
      <trkpt lat="48.03772" lon="7.27723">
        <ele>454</ele>
        <time>2013-05-10T14:07:11Z</time>
      </trkpt>
      <trkpt lat="48.03783" lon="7.27723">
        <ele>454</ele>
        <time>2013-05-10T14:07:18Z</time>
      </trkpt>
      <trkpt lat="48.03797" lon="7.27725">
        <ele>455</ele>
        <time>2013-05-10T14:07:26Z</time>
      </trkpt>
      <trkpt lat="48.03807" lon="7.27726">
        <ele>454</ele>
        <time>2013-05-10T14:07:33Z</time>
      </trkpt>
      <trkpt lat="48.03822" lon="7.27722">
        <ele>455</ele>
        <time>2013-05-10T14:07:42Z</time>
      </trkpt>
      <trkpt lat="48.03831" lon="7.27715">
        <ele>456</ele>
        <time>2013-05-10T14:07:48Z</time>
      </trkpt>
      <trkpt lat="48.03841" lon="7.27708">
        <ele>457</ele>
        <time>2013-05-10T14:07:55Z</time>
      </trkpt>
      <trkpt lat="48.03849" lon="7.27704">
        <ele>458</ele>
        <time>2013-05-10T14:08:01Z</time>
      </trkpt>
      <trkpt lat="48.03861" lon="7.27696">
        <ele>459</ele>
        <time>2013-05-10T14:08:09Z</time>
      </trkpt>
      <trkpt lat="48.03871" lon="7.27688">
        <ele>460</ele>
        <time>2013-05-10T14:08:15Z</time>
      </trkpt>
      <trkpt lat="48.03881" lon="7.27682">
        <ele>460</ele>
        <time>2013-05-10T14:08:23Z</time>
      </trkpt>
      <trkpt lat="48.03895" lon="7.27674">
        <ele>462</ele>
        <time>2013-05-10T14:08:32Z</time>
      </trkpt>
      <trkpt lat="48.03905" lon="7.27669">
        <ele>464</ele>
        <time>2013-05-10T14:08:39Z</time>
      </trkpt>
      <trkpt lat="48.03915" lon="7.27664">
        <ele>470</ele>
        <time>2013-05-10T14:08:46Z</time>
      </trkpt>
      <trkpt lat="48.03924" lon="7.2766">
        <ele>471</ele>
        <time>2013-05-10T14:08:53Z</time>
      </trkpt>
      <trkpt lat="48.03936" lon="7.27652">
        <ele>473</ele>
        <time>2013-05-10T14:09:01Z</time>
      </trkpt>
      <trkpt lat="48.03946" lon="7.27646">
        <ele>474</ele>
        <time>2013-05-10T14:09:08Z</time>
      </trkpt>
      <trkpt lat="48.03953" lon="7.27641">
        <ele>475</ele>
        <time>2013-05-10T14:09:14Z</time>
      </trkpt>
      <trkpt lat="48.03965" lon="7.27634">
        <ele>475</ele>
        <time>2013-05-10T14:09:21Z</time>
      </trkpt>
      <trkpt lat="48.03975" lon="7.27628">
        <ele>476</ele>
        <time>2013-05-10T14:09:28Z</time>
      </trkpt>
      <trkpt lat="48.03987" lon="7.2762">
        <ele>477</ele>
        <time>2013-05-10T14:09:37Z</time>
      </trkpt>
      <trkpt lat="48.03989" lon="7.27618">
        <ele>477</ele>
        <time>2013-05-10T14:09:39Z</time>
      </trkpt>
      <trkpt lat="48.03996" lon="7.27614">
        <ele>478</ele>
        <time>2013-05-10T14:09:45Z</time>
      </trkpt>
      <trkpt lat="48.04006" lon="7.27607">
        <ele>474</ele>
        <time>2013-05-10T14:09:51Z</time>
      </trkpt>
      <trkpt lat="48.04014" lon="7.276">
        <ele>475</ele>
        <time>2013-05-10T14:09:58Z</time>
      </trkpt>
      <trkpt lat="48.04025" lon="7.27589">
        <ele>474</ele>
        <time>2013-05-10T14:10:06Z</time>
      </trkpt>
      <trkpt lat="48.04036" lon="7.27581">
        <ele>489</ele>
        <time>2013-05-10T14:10:13Z</time>
      </trkpt>
      <trkpt lat="48.04041" lon="7.2758">
        <ele>488</ele>
        <time>2013-05-10T14:10:18Z</time>
      </trkpt>
      <trkpt lat="48.04051" lon="7.27573">
        <ele>487</ele>
        <time>2013-05-10T14:10:26Z</time>
      </trkpt>
      <trkpt lat="48.0406" lon="7.27567">
        <ele>486</ele>
        <time>2013-05-10T14:10:32Z</time>
      </trkpt>
      <trkpt lat="48.04062" lon="7.27566">
        <ele>486</ele>
        <time>2013-05-10T14:10:33Z</time>
      </trkpt>
      <trkpt lat="48.04069" lon="7.27562">
        <ele>486</ele>
        <time>2013-05-10T14:10:39Z</time>
      </trkpt>
      <trkpt lat="48.04078" lon="7.27555">
        <ele>487</ele>
        <time>2013-05-10T14:10:46Z</time>
      </trkpt>
      <trkpt lat="48.04088" lon="7.27548">
        <ele>480</ele>
        <time>2013-05-10T14:10:53Z</time>
      </trkpt>
      <trkpt lat="48.04095" lon="7.27542">
        <ele>481</ele>
        <time>2013-05-10T14:10:59Z</time>
      </trkpt>
      <trkpt lat="48.04103" lon="7.27534">
        <ele>482</ele>
        <time>2013-05-10T14:11:06Z</time>
      </trkpt>
      <trkpt lat="48.04112" lon="7.27524">
        <ele>482</ele>
        <time>2013-05-10T14:11:14Z</time>
      </trkpt>
      <trkpt lat="48.04121" lon="7.27512">
        <ele>482</ele>
        <time>2013-05-10T14:11:20Z</time>
      </trkpt>
      <trkpt lat="48.0413" lon="7.27497">
        <ele>493</ele>
        <time>2013-05-10T14:11:27Z</time>
      </trkpt>
      <trkpt lat="48.04138" lon="7.27486">
        <ele>492</ele>
        <time>2013-05-10T14:11:33Z</time>
      </trkpt>
      <trkpt lat="48.04147" lon="7.2747">
        <ele>492</ele>
        <time>2013-05-10T14:11:41Z</time>
      </trkpt>
      <trkpt lat="48.04153" lon="7.27456">
        <ele>494</ele>
        <time>2013-05-10T14:11:48Z</time>
      </trkpt>
      <trkpt lat="48.04156" lon="7.27447">
        <ele>494</ele>
        <time>2013-05-10T14:11:54Z</time>
      </trkpt>
      <trkpt lat="48.04161" lon="7.27432">
        <ele>494</ele>
        <time>2013-05-10T14:12:01Z</time>
      </trkpt>
      <trkpt lat="48.04162" lon="7.27429">
        <ele>494</ele>
        <time>2013-05-10T14:12:03Z</time>
      </trkpt>
      <trkpt lat="48.04165" lon="7.27417">
        <ele>493</ele>
        <time>2013-05-10T14:12:09Z</time>
      </trkpt>
      <trkpt lat="48.04168" lon="7.27402">
        <ele>490</ele>
        <time>2013-05-10T14:12:16Z</time>
      </trkpt>
      <trkpt lat="48.0417" lon="7.27389">
        <ele>490</ele>
        <time>2013-05-10T14:12:22Z</time>
      </trkpt>
      <trkpt lat="48.04171" lon="7.27374">
        <ele>490</ele>
        <time>2013-05-10T14:12:29Z</time>
      </trkpt>
      <trkpt lat="48.04172" lon="7.27361">
        <ele>492</ele>
        <time>2013-05-10T14:12:36Z</time>
      </trkpt>
      <trkpt lat="48.04175" lon="7.27342">
        <ele>495</ele>
        <time>2013-05-10T14:12:43Z</time>
      </trkpt>
      <trkpt lat="48.04176" lon="7.27331">
        <ele>497</ele>
        <time>2013-05-10T14:12:48Z</time>
      </trkpt>
      <trkpt lat="48.04175" lon="7.27313">
        <ele>495</ele>
        <time>2013-05-10T14:12:55Z</time>
      </trkpt>
      <trkpt lat="48.04174" lon="7.27302">
        <ele>495</ele>
        <time>2013-05-10T14:13:00Z</time>
      </trkpt>
      <trkpt lat="48.04172" lon="7.27279">
        <ele>496</ele>
        <time>2013-05-10T14:13:08Z</time>
      </trkpt>
      <trkpt lat="48.04172" lon="7.27275">
        <ele>497</ele>
        <time>2013-05-10T14:13:10Z</time>
      </trkpt>
      <trkpt lat="48.04172" lon="7.27258">
        <ele>502</ele>
        <time>2013-05-10T14:13:17Z</time>
      </trkpt>
      <trkpt lat="48.04171" lon="7.27251">
        <ele>505</ele>
        <time>2013-05-10T14:13:20Z</time>
      </trkpt>
      <trkpt lat="48.04169" lon="7.27241">
        <ele>503</ele>
        <time>2013-05-10T14:13:25Z</time>
      </trkpt>
      <trkpt lat="48.0417" lon="7.27225">
        <ele>500</ele>
        <time>2013-05-10T14:13:32Z</time>
      </trkpt>
      <trkpt lat="48.04169" lon="7.27204">
        <ele>499</ele>
        <time>2013-05-10T14:13:41Z</time>
      </trkpt>
      <trkpt lat="48.04168" lon="7.27195">
        <ele>500</ele>
        <time>2013-05-10T14:13:47Z</time>
      </trkpt>
      <trkpt lat="48.04164" lon="7.27183">
        <ele>517</ele>
        <time>2013-05-10T14:13:53Z</time>
      </trkpt>
      <trkpt lat="48.04165" lon="7.27171">
        <ele>514</ele>
        <time>2013-05-10T14:13:59Z</time>
      </trkpt>
      <trkpt lat="48.04168" lon="7.27158">
        <ele>508</ele>
        <time>2013-05-10T14:14:04Z</time>
      </trkpt>
      <trkpt lat="48.04171" lon="7.27141">
        <ele>504</ele>
        <time>2013-05-10T14:14:12Z</time>
      </trkpt>
      <trkpt lat="48.04174" lon="7.27123">
        <ele>504</ele>
        <time>2013-05-10T14:14:19Z</time>
      </trkpt>
      <trkpt lat="48.04176" lon="7.27107">
        <ele>506</ele>
        <time>2013-05-10T14:14:26Z</time>
      </trkpt>
      <trkpt lat="48.04178" lon="7.27091">
        <ele>510</ele>
        <time>2013-05-10T14:14:33Z</time>
      </trkpt>
      <trkpt lat="48.04178" lon="7.27078">
        <ele>512</ele>
        <time>2013-05-10T14:14:39Z</time>
      </trkpt>
      <trkpt lat="48.04179" lon="7.27062">
        <ele>509</ele>
        <time>2013-05-10T14:14:46Z</time>
      </trkpt>
      <trkpt lat="48.0418" lon="7.27045">
        <ele>508</ele>
        <time>2013-05-10T14:14:53Z</time>
      </trkpt>
      <trkpt lat="48.04179" lon="7.27033">
        <ele>509</ele>
        <time>2013-05-10T14:14:59Z</time>
      </trkpt>
      <trkpt lat="48.04179" lon="7.27016">
        <ele>512</ele>
        <time>2013-05-10T14:15:06Z</time>
      </trkpt>
      <trkpt lat="48.04178" lon="7.26998">
        <ele>517</ele>
        <time>2013-05-10T14:15:13Z</time>
      </trkpt>
      <trkpt lat="48.04178" lon="7.26991">
        <ele>517</ele>
        <time>2013-05-10T14:15:16Z</time>
      </trkpt>
      <trkpt lat="48.0418" lon="7.26974">
        <ele>514</ele>
        <time>2013-05-10T14:15:22Z</time>
      </trkpt>
      <trkpt lat="48.04178" lon="7.2696">
        <ele>514</ele>
        <time>2013-05-10T14:15:28Z</time>
      </trkpt>
      <trkpt lat="48.04176" lon="7.26949">
        <ele>516</ele>
        <time>2013-05-10T14:15:33Z</time>
      </trkpt>
      <trkpt lat="48.04177" lon="7.26937">
        <ele>518</ele>
        <time>2013-05-10T14:15:39Z</time>
      </trkpt>
      <trkpt lat="48.04178" lon="7.26927">
        <ele>522</ele>
        <time>2013-05-10T14:15:44Z</time>
      </trkpt>
      <trkpt lat="48.04178" lon="7.2691">
        <ele>527</ele>
        <time>2013-05-10T14:15:51Z</time>
      </trkpt>
      <trkpt lat="48.04179" lon="7.26904">
        <ele>526</ele>
        <time>2013-05-10T14:15:54Z</time>
      </trkpt>
      <trkpt lat="48.04184" lon="7.26881">
        <ele>523</ele>
        <time>2013-05-10T14:16:03Z</time>
      </trkpt>
      <trkpt lat="48.04191" lon="7.26859">
        <ele>524</ele>
        <time>2013-05-10T14:16:11Z</time>
      </trkpt>
      <trkpt lat="48.04198" lon="7.2684">
        <ele>525</ele>
        <time>2013-05-10T14:16:19Z</time>
      </trkpt>
      <trkpt lat="48.04205" lon="7.26824">
        <ele>529</ele>
        <time>2013-05-10T14:16:27Z</time>
      </trkpt>
      <trkpt lat="48.04213" lon="7.26811">
        <ele>527</ele>
        <time>2013-05-10T14:16:34Z</time>
      </trkpt>
      <trkpt lat="48.04219" lon="7.26801">
        <ele>526</ele>
        <time>2013-05-10T14:16:38Z</time>
      </trkpt>
      <trkpt lat="48.0422" lon="7.26797">
        <ele>526</ele>
        <time>2013-05-10T14:16:40Z</time>
      </trkpt>
      <trkpt lat="48.04223" lon="7.2679">
        <ele>526</ele>
        <time>2013-05-10T14:16:44Z</time>
      </trkpt>
      <trkpt lat="48.04227" lon="7.26774">
        <ele>525</ele>
        <time>2013-05-10T14:16:52Z</time>
      </trkpt>
      <trkpt lat="48.04227" lon="7.2676">
        <ele>525</ele>
        <time>2013-05-10T14:16:59Z</time>
      </trkpt>
      <trkpt lat="48.04227" lon="7.26746">
        <ele>529</ele>
        <time>2013-05-10T14:17:05Z</time>
      </trkpt>
      <trkpt lat="48.04225" lon="7.26738">
        <ele>530</ele>
        <time>2013-05-10T14:17:09Z</time>
      </trkpt>
      <trkpt lat="48.04224" lon="7.26736">
        <ele>531</ele>
        <time>2013-05-10T14:17:10Z</time>
      </trkpt>
      <trkpt lat="48.04221" lon="7.26722">
        <ele>533</ele>
        <time>2013-05-10T14:17:16Z</time>
      </trkpt>
      <trkpt lat="48.0422" lon="7.2672">
        <ele>533</ele>
        <time>2013-05-10T14:17:17Z</time>
      </trkpt>
      <trkpt lat="48.04218" lon="7.26713">
        <ele>534</ele>
        <time>2013-05-10T14:17:21Z</time>
      </trkpt>
      <trkpt lat="48.04214" lon="7.26703">
        <ele>535</ele>
        <time>2013-05-10T14:17:26Z</time>
      </trkpt>
      <trkpt lat="48.04212" lon="7.26696">
        <ele>536</ele>
        <time>2013-05-10T14:17:30Z</time>
      </trkpt>
      <trkpt lat="48.04208" lon="7.26683">
        <ele>537</ele>
        <time>2013-05-10T14:17:36Z</time>
      </trkpt>
      <trkpt lat="48.04207" lon="7.26673">
        <ele>538</ele>
        <time>2013-05-10T14:17:42Z</time>
      </trkpt>
      <trkpt lat="48.04206" lon="7.26667">
        <ele>538</ele>
        <time>2013-05-10T14:17:47Z</time>
      </trkpt>
      <trkpt lat="48.04208" lon="7.26659">
        <ele>544</ele>
        <time>2013-05-10T14:17:50Z</time>
      </trkpt>
      <trkpt lat="48.04219" lon="7.2664">
        <ele>543</ele>
        <time>2013-05-10T14:17:58Z</time>
      </trkpt>
      <trkpt lat="48.04223" lon="7.26631">
        <ele>543</ele>
        <time>2013-05-10T14:18:02Z</time>
      </trkpt>
      <trkpt lat="48.04229" lon="7.26619">
        <ele>543</ele>
        <time>2013-05-10T14:18:08Z</time>
      </trkpt>
      <trkpt lat="48.04236" lon="7.26607">
        <ele>543</ele>
        <time>2013-05-10T14:18:13Z</time>
      </trkpt>
      <trkpt lat="48.04244" lon="7.2659">
        <ele>541</ele>
        <time>2013-05-10T14:18:20Z</time>
      </trkpt>
      <trkpt lat="48.04245" lon="7.26588">
        <ele>541</ele>
        <time>2013-05-10T14:18:21Z</time>
      </trkpt>
      <trkpt lat="48.04249" lon="7.26577">
        <ele>544</ele>
        <time>2013-05-10T14:18:26Z</time>
      </trkpt>
      <trkpt lat="48.04253" lon="7.26567">
        <ele>535</ele>
        <time>2013-05-10T14:18:31Z</time>
      </trkpt>
      <trkpt lat="48.04259" lon="7.26553">
        <ele>535</ele>
        <time>2013-05-10T14:18:38Z</time>
      </trkpt>
      <trkpt lat="48.04263" lon="7.26538">
        <ele>536</ele>
        <time>2013-05-10T14:18:45Z</time>
      </trkpt>
      <trkpt lat="48.04266" lon="7.2653">
        <ele>537</ele>
        <time>2013-05-10T14:18:50Z</time>
      </trkpt>
      <trkpt lat="48.04269" lon="7.26515">
        <ele>539</ele>
        <time>2013-05-10T14:18:56Z</time>
      </trkpt>
      <trkpt lat="48.04273" lon="7.26503">
        <ele>540</ele>
        <time>2013-05-10T14:19:03Z</time>
      </trkpt>
      <trkpt lat="48.04277" lon="7.26492">
        <ele>547</ele>
        <time>2013-05-10T14:19:09Z</time>
      </trkpt>
      <trkpt lat="48.04281" lon="7.26484">
        <ele>546</ele>
        <time>2013-05-10T14:19:14Z</time>
      </trkpt>
      <trkpt lat="48.04287" lon="7.26475">
        <ele>545</ele>
        <time>2013-05-10T14:19:20Z</time>
      </trkpt>
      <trkpt lat="48.04293" lon="7.26462">
        <ele>544</ele>
        <time>2013-05-10T14:19:27Z</time>
      </trkpt>
      <trkpt lat="48.04296" lon="7.26452">
        <ele>544</ele>
        <time>2013-05-10T14:19:33Z</time>
      </trkpt>
      <trkpt lat="48.04302" lon="7.26436">
        <ele>543</ele>
        <time>2013-05-10T14:19:41Z</time>
      </trkpt>
      <trkpt lat="48.04304" lon="7.26431">
        <ele>543</ele>
        <time>2013-05-10T14:19:43Z</time>
      </trkpt>
      <trkpt lat="48.04308" lon="7.26421">
        <ele>542</ele>
        <time>2013-05-10T14:19:47Z</time>
      </trkpt>
      <trkpt lat="48.04307" lon="7.26409">
        <ele>546</ele>
        <time>2013-05-10T14:19:53Z</time>
      </trkpt>
      <trkpt lat="48.04309" lon="7.26395">
        <ele>547</ele>
        <time>2013-05-10T14:19:59Z</time>
      </trkpt>
      <trkpt lat="48.04308" lon="7.26385">
        <ele>548</ele>
        <time>2013-05-10T14:20:04Z</time>
      </trkpt>
      <trkpt lat="48.04308" lon="7.26374">
        <ele>548</ele>
        <time>2013-05-10T14:20:08Z</time>
      </trkpt>
      <trkpt lat="48.04306" lon="7.26356">
        <ele>549</ele>
        <time>2013-05-10T14:20:16Z</time>
      </trkpt>
      <trkpt lat="48.04304" lon="7.26345">
        <ele>549</ele>
        <time>2013-05-10T14:20:21Z</time>
      </trkpt>
      <trkpt lat="48.04301" lon="7.26334">
        <ele>549</ele>
        <time>2013-05-10T14:20:27Z</time>
      </trkpt>
      <trkpt lat="48.04299" lon="7.26325">
        <ele>551</ele>
        <time>2013-05-10T14:20:32Z</time>
      </trkpt>
      <trkpt lat="48.04293" lon="7.26308">
        <ele>553</ele>
        <time>2013-05-10T14:20:38Z</time>
      </trkpt>
      <trkpt lat="48.04288" lon="7.26291">
        <ele>555</ele>
        <time>2013-05-10T14:20:45Z</time>
      </trkpt>
      <trkpt lat="48.04283" lon="7.26276">
        <ele>556</ele>
        <time>2013-05-10T14:20:52Z</time>
      </trkpt>
      <trkpt lat="48.04278" lon="7.26261">
        <ele>558</ele>
        <time>2013-05-10T14:20:59Z</time>
      </trkpt>
      <trkpt lat="48.04274" lon="7.26242">
        <ele>560</ele>
        <time>2013-05-10T14:21:07Z</time>
      </trkpt>
      <trkpt lat="48.04271" lon="7.26232">
        <ele>559</ele>
        <time>2013-05-10T14:21:12Z</time>
      </trkpt>
      <trkpt lat="48.0427" lon="7.26223">
        <ele>559</ele>
        <time>2013-05-10T14:21:17Z</time>
      </trkpt>
      <trkpt lat="48.04268" lon="7.26204">
        <ele>558</ele>
        <time>2013-05-10T14:21:26Z</time>
      </trkpt>
      <trkpt lat="48.04266" lon="7.26192">
        <ele>559</ele>
        <time>2013-05-10T14:21:31Z</time>
      </trkpt>
      <trkpt lat="48.04266" lon="7.26185">
        <ele>560</ele>
        <time>2013-05-10T14:21:33Z</time>
      </trkpt>
      <trkpt lat="48.04264" lon="7.26172">
        <ele>562</ele>
        <time>2013-05-10T14:21:37Z</time>
      </trkpt>
      <trkpt lat="48.04261" lon="7.26155">
        <ele>563</ele>
        <time>2013-05-10T14:21:44Z</time>
      </trkpt>
      <trkpt lat="48.0426" lon="7.26145">
        <ele>562</ele>
        <time>2013-05-10T14:21:50Z</time>
      </trkpt>
      <trkpt lat="48.04261" lon="7.26138">
        <ele>561</ele>
        <time>2013-05-10T14:21:54Z</time>
      </trkpt>
      <trkpt lat="48.0426" lon="7.26127">
        <ele>561</ele>
        <time>2013-05-10T14:22:00Z</time>
      </trkpt>
      <trkpt lat="48.04257" lon="7.26111">
        <ele>562</ele>
        <time>2013-05-10T14:22:06Z</time>
      </trkpt>
      <trkpt lat="48.04252" lon="7.26098">
        <ele>565</ele>
        <time>2013-05-10T14:22:11Z</time>
      </trkpt>
      <trkpt lat="48.04248" lon="7.26087">
        <ele>574</ele>
        <time>2013-05-10T14:22:17Z</time>
      </trkpt>
      <trkpt lat="48.0425" lon="7.2608">
        <ele>573</ele>
        <time>2013-05-10T14:22:21Z</time>
      </trkpt>
      <trkpt lat="48.04249" lon="7.26075">
        <ele>576</ele>
        <time>2013-05-10T14:22:25Z</time>
      </trkpt>
      <trkpt lat="48.04245" lon="7.26066">
        <ele>580</ele>
        <time>2013-05-10T14:22:30Z</time>
      </trkpt>
      <trkpt lat="48.04243" lon="7.26049">
        <ele>583</ele>
        <time>2013-05-10T14:22:36Z</time>
      </trkpt>
      <trkpt lat="48.04244" lon="7.26035">
        <ele>582</ele>
        <time>2013-05-10T14:22:41Z</time>
      </trkpt>
      <trkpt lat="48.04247" lon="7.26025">
        <ele>581</ele>
        <time>2013-05-10T14:22:46Z</time>
      </trkpt>
      <trkpt lat="48.04248" lon="7.26022">
        <ele>580</ele>
        <time>2013-05-10T14:22:48Z</time>
      </trkpt>
      <trkpt lat="48.04253" lon="7.26">
        <ele>572</ele>
        <time>2013-05-10T14:22:54Z</time>
      </trkpt>
      <trkpt lat="48.04255" lon="7.25994">
        <ele>573</ele>
        <time>2013-05-10T14:22:55Z</time>
      </trkpt>
      <trkpt lat="48.04264" lon="7.25973">
        <ele>578</ele>
        <time>2013-05-10T14:23:02Z</time>
      </trkpt>
      <trkpt lat="48.04273" lon="7.25966">
        <ele>579</ele>
        <time>2013-05-10T14:23:06Z</time>
      </trkpt>
      <trkpt lat="48.04284" lon="7.25974">
        <ele>578</ele>
        <time>2013-05-10T14:23:13Z</time>
      </trkpt>
      <trkpt lat="48.04296" lon="7.25977">
        <ele>578</ele>
        <time>2013-05-10T14:23:18Z</time>
      </trkpt>
      <trkpt lat="48.0431" lon="7.25977">
        <ele>578</ele>
        <time>2013-05-10T14:23:24Z</time>
      </trkpt>
      <trkpt lat="48.0432" lon="7.25981">
        <ele>576</ele>
        <time>2013-05-10T14:23:29Z</time>
      </trkpt>
      <trkpt lat="48.04323" lon="7.25986">
        <ele>575</ele>
        <time>2013-05-10T14:23:32Z</time>
      </trkpt>
      <trkpt lat="48.04334" lon="7.26008">
        <ele>568</ele>
        <time>2013-05-10T14:23:40Z</time>
      </trkpt>
      <trkpt lat="48.04342" lon="7.26015">
        <ele>568</ele>
        <time>2013-05-10T14:23:45Z</time>
      </trkpt>
      <trkpt lat="48.04354" lon="7.26025">
        <ele>568</ele>
        <time>2013-05-10T14:23:51Z</time>
      </trkpt>
      <trkpt lat="48.04362" lon="7.2603">
        <ele>568</ele>
        <time>2013-05-10T14:23:55Z</time>
      </trkpt>
      <trkpt lat="48.04367" lon="7.26038">
        <ele>567</ele>
        <time>2013-05-10T14:23:59Z</time>
      </trkpt>
      <trkpt lat="48.04375" lon="7.26049">
        <ele>567</ele>
        <time>2013-05-10T14:24:06Z</time>
      </trkpt>
      <trkpt lat="48.04381" lon="7.26056">
        <ele>566</ele>
        <time>2013-05-10T14:24:10Z</time>
      </trkpt>
      <trkpt lat="48.04389" lon="7.2606">
        <ele>566</ele>
        <time>2013-05-10T14:24:15Z</time>
      </trkpt>
      <trkpt lat="48.04396" lon="7.2607">
        <ele>565</ele>
        <time>2013-05-10T14:24:21Z</time>
      </trkpt>
      <trkpt lat="48.04402" lon="7.26077">
        <ele>565</ele>
        <time>2013-05-10T14:24:26Z</time>
      </trkpt>
      <trkpt lat="48.04409" lon="7.26082">
        <ele>564</ele>
        <time>2013-05-10T14:24:32Z</time>
      </trkpt>
      <trkpt lat="48.04418" lon="7.26085">
        <ele>563</ele>
        <time>2013-05-10T14:24:38Z</time>
      </trkpt>
      <trkpt lat="48.04426" lon="7.26094">
        <ele>562</ele>
        <time>2013-05-10T14:24:44Z</time>
      </trkpt>
      <trkpt lat="48.04431" lon="7.261">
        <ele>562</ele>
        <time>2013-05-10T14:24:50Z</time>
      </trkpt>
      <trkpt lat="48.04439" lon="7.26085">
        <ele>563</ele>
        <time>2013-05-10T14:25:16Z</time>
      </trkpt>
      <trkpt lat="48.04443" lon="7.26098">
        <ele>563</ele>
        <time>2013-05-10T14:25:56Z</time>
      </trkpt>
      <trkpt lat="48.04445" lon="7.26096">
        <ele>563</ele>
        <time>2013-05-10T14:25:57Z</time>
      </trkpt>
      <trkpt lat="48.0445" lon="7.26095">
        <ele>564</ele>
        <time>2013-05-10T14:26:00Z</time>
      </trkpt>
      <trkpt lat="48.04461" lon="7.26097">
        <ele>566</ele>
        <time>2013-05-10T14:26:06Z</time>
      </trkpt>
      <trkpt lat="48.04474" lon="7.26092">
        <ele>570</ele>
        <time>2013-05-10T14:26:13Z</time>
      </trkpt>
      <trkpt lat="48.04482" lon="7.2609">
        <ele>573</ele>
        <time>2013-05-10T14:26:18Z</time>
      </trkpt>
      <trkpt lat="48.04494" lon="7.26091">
        <ele>578</ele>
        <time>2013-05-10T14:26:25Z</time>
      </trkpt>
      <trkpt lat="48.04498" lon="7.26096">
        <ele>576</ele>
        <time>2013-05-10T14:26:30Z</time>
      </trkpt>
      <trkpt lat="48.04506" lon="7.26099">
        <ele>583</ele>
        <time>2013-05-10T14:26:35Z</time>
      </trkpt>
      <trkpt lat="48.04508" lon="7.26101">
        <ele>583</ele>
        <time>2013-05-10T14:26:37Z</time>
      </trkpt>
      <trkpt lat="48.04516" lon="7.26109">
        <ele>582</ele>
        <time>2013-05-10T14:26:43Z</time>
      </trkpt>
      <trkpt lat="48.04522" lon="7.26114">
        <ele>581</ele>
        <time>2013-05-10T14:26:48Z</time>
      </trkpt>
      <trkpt lat="48.04539" lon="7.26116">
        <ele>582</ele>
        <time>2013-05-10T14:26:56Z</time>
      </trkpt>
      <trkpt lat="48.04551" lon="7.26115">
        <ele>584</ele>
        <time>2013-05-10T14:27:03Z</time>
      </trkpt>
      <trkpt lat="48.04556" lon="7.26114">
        <ele>584</ele>
        <time>2013-05-10T14:27:06Z</time>
      </trkpt>
      <trkpt lat="48.04562" lon="7.26115">
        <ele>585</ele>
        <time>2013-05-10T14:27:10Z</time>
      </trkpt>
      <trkpt lat="48.04575" lon="7.26118">
        <ele>585</ele>
        <time>2013-05-10T14:27:19Z</time>
      </trkpt>
      <trkpt lat="48.04576" lon="7.26118">
        <ele>586</ele>
        <time>2013-05-10T14:27:21Z</time>
      </trkpt>
      <trkpt lat="48.04578" lon="7.26129">
        <ele>583</ele>
        <time>2013-05-10T14:27:26Z</time>
      </trkpt>
      <trkpt lat="48.0458" lon="7.26133">
        <ele>583</ele>
        <time>2013-05-10T14:27:28Z</time>
      </trkpt>
      <trkpt lat="48.04589" lon="7.26144">
        <ele>592</ele>
        <time>2013-05-10T14:27:35Z</time>
      </trkpt>
      <trkpt lat="48.04593" lon="7.26152">
        <ele>590</ele>
        <time>2013-05-10T14:27:40Z</time>
      </trkpt>
      <trkpt lat="48.04602" lon="7.26159">
        <ele>591</ele>
        <time>2013-05-10T14:27:46Z</time>
      </trkpt>
      <trkpt lat="48.0461" lon="7.26174">
        <ele>581</ele>
        <time>2013-05-10T14:27:54Z</time>
      </trkpt>
      <trkpt lat="48.04619" lon="7.2618">
        <ele>582</ele>
        <time>2013-05-10T14:28:00Z</time>
      </trkpt>
      <trkpt lat="48.04628" lon="7.26184">
        <ele>584</ele>
        <time>2013-05-10T14:28:06Z</time>
      </trkpt>
      <trkpt lat="48.04631" lon="7.26185">
        <ele>584</ele>
        <time>2013-05-10T14:28:07Z</time>
      </trkpt>
      <trkpt lat="48.04637" lon="7.26186">
        <ele>585</ele>
        <time>2013-05-10T14:28:10Z</time>
      </trkpt>
      <trkpt lat="48.04651" lon="7.26192">
        <ele>587</ele>
        <time>2013-05-10T14:28:17Z</time>
      </trkpt>
      <trkpt lat="48.04658" lon="7.26201">
        <ele>586</ele>
        <time>2013-05-10T14:28:23Z</time>
      </trkpt>
      <trkpt lat="48.04669" lon="7.2621">
        <ele>599</ele>
        <time>2013-05-10T14:28:30Z</time>
      </trkpt>
      <trkpt lat="48.04677" lon="7.26216">
        <ele>598</ele>
        <time>2013-05-10T14:28:35Z</time>
      </trkpt>
      <trkpt lat="48.04686" lon="7.26225">
        <ele>597</ele>
        <time>2013-05-10T14:28:42Z</time>
      </trkpt>
      <trkpt lat="48.04693" lon="7.26237">
        <ele>597</ele>
        <time>2013-05-10T14:28:48Z</time>
      </trkpt>
      <trkpt lat="48.04701" lon="7.26246">
        <ele>598</ele>
        <time>2013-05-10T14:28:54Z</time>
      </trkpt>
      <trkpt lat="48.04709" lon="7.26255">
        <ele>587</ele>
        <time>2013-05-10T14:29:00Z</time>
      </trkpt>
      <trkpt lat="48.04715" lon="7.26262">
        <ele>588</ele>
        <time>2013-05-10T14:29:06Z</time>
      </trkpt>
      <trkpt lat="48.04717" lon="7.26273">
        <ele>588</ele>
        <time>2013-05-10T14:29:11Z</time>
      </trkpt>
      <trkpt lat="48.04723" lon="7.26279">
        <ele>588</ele>
        <time>2013-05-10T14:29:16Z</time>
      </trkpt>
      <trkpt lat="48.04732" lon="7.26279">
        <ele>589</ele>
        <time>2013-05-10T14:29:20Z</time>
      </trkpt>
      <trkpt lat="48.04736" lon="7.26281">
        <ele>590</ele>
        <time>2013-05-10T14:29:22Z</time>
      </trkpt>
      <trkpt lat="48.04749" lon="7.26282">
        <ele>591</ele>
        <time>2013-05-10T14:29:28Z</time>
      </trkpt>
      <trkpt lat="48.04758" lon="7.2628">
        <ele>600</ele>
        <time>2013-05-10T14:29:33Z</time>
      </trkpt>
      <trkpt lat="48.04769" lon="7.26274">
        <ele>601</ele>
        <time>2013-05-10T14:29:40Z</time>
      </trkpt>
      <trkpt lat="48.04778" lon="7.26265">
        <ele>602</ele>
        <time>2013-05-10T14:29:46Z</time>
      </trkpt>
      <trkpt lat="48.04786" lon="7.26258">
        <ele>602</ele>
        <time>2013-05-10T14:29:52Z</time>
      </trkpt>
      <trkpt lat="48.04793" lon="7.26252">
        <ele>603</ele>
        <time>2013-05-10T14:29:57Z</time>
      </trkpt>
      <trkpt lat="48.04797" lon="7.26247">
        <ele>611</ele>
        <time>2013-05-10T14:30:01Z</time>
      </trkpt>
      <trkpt lat="48.04798" lon="7.26245">
        <ele>611</ele>
        <time>2013-05-10T14:30:02Z</time>
      </trkpt>
      <trkpt lat="48.04805" lon="7.26227">
        <ele>612</ele>
        <time>2013-05-10T14:30:09Z</time>
      </trkpt>
      <trkpt lat="48.04808" lon="7.26218">
        <ele>613</ele>
        <time>2013-05-10T14:30:14Z</time>
      </trkpt>
      <trkpt lat="48.04811" lon="7.26206">
        <ele>614</ele>
        <time>2013-05-10T14:30:21Z</time>
      </trkpt>
      <trkpt lat="48.04812" lon="7.26197">
        <ele>615</ele>
        <time>2013-05-10T14:30:27Z</time>
      </trkpt>
      <trkpt lat="48.04826" lon="7.2618">
        <ele>617</ele>
        <time>2013-05-10T14:30:38Z</time>
      </trkpt>
      <trkpt lat="48.04828" lon="7.26179">
        <ele>617</ele>
        <time>2013-05-10T14:30:39Z</time>
      </trkpt>
      <trkpt lat="48.04835" lon="7.26183">
        <ele>621</ele>
        <time>2013-05-10T14:30:43Z</time>
      </trkpt>
      <trkpt lat="48.04844" lon="7.26202">
        <ele>620</ele>
        <time>2013-05-10T14:30:50Z</time>
      </trkpt>
      <trkpt lat="48.04854" lon="7.26223">
        <ele>619</ele>
        <time>2013-05-10T14:30:57Z</time>
      </trkpt>
      <trkpt lat="48.04861" lon="7.26245">
        <ele>618</ele>
        <time>2013-05-10T14:31:05Z</time>
      </trkpt>
      <trkpt lat="48.04869" lon="7.26262">
        <ele>613</ele>
        <time>2013-05-10T14:31:11Z</time>
      </trkpt>
      <trkpt lat="48.04878" lon="7.2628">
        <ele>613</ele>
        <time>2013-05-10T14:31:18Z</time>
      </trkpt>
      <trkpt lat="48.04886" lon="7.26292">
        <ele>613</ele>
        <time>2013-05-10T14:31:24Z</time>
      </trkpt>
      <trkpt lat="48.04893" lon="7.263">
        <ele>613</ele>
        <time>2013-05-10T14:31:29Z</time>
      </trkpt>
      <trkpt lat="48.04904" lon="7.26313">
        <ele>613</ele>
        <time>2013-05-10T14:31:36Z</time>
      </trkpt>
      <trkpt lat="48.04915" lon="7.26336">
        <ele>612</ele>
        <time>2013-05-10T14:31:43Z</time>
      </trkpt>
      <trkpt lat="48.04924" lon="7.2635">
        <ele>611</ele>
        <time>2013-05-10T14:31:49Z</time>
      </trkpt>
      <trkpt lat="48.04936" lon="7.26359">
        <ele>610</ele>
        <time>2013-05-10T14:31:56Z</time>
      </trkpt>
      <trkpt lat="48.0495" lon="7.26364">
        <ele>610</ele>
        <time>2013-05-10T14:32:02Z</time>
      </trkpt>
      <trkpt lat="48.04958" lon="7.2636">
        <ele>610</ele>
        <time>2013-05-10T14:32:07Z</time>
      </trkpt>
      <trkpt lat="48.0497" lon="7.26341">
        <ele>611</ele>
        <time>2013-05-10T14:32:15Z</time>
      </trkpt>
      <trkpt lat="48.04986" lon="7.26326">
        <ele>618</ele>
        <time>2013-05-10T14:32:21Z</time>
      </trkpt>
      <trkpt lat="48.04992" lon="7.26323">
        <ele>618</ele>
        <time>2013-05-10T14:32:23Z</time>
      </trkpt>
      <trkpt lat="48.05008" lon="7.26324">
        <ele>619</ele>
        <time>2013-05-10T14:32:29Z</time>
      </trkpt>
      <trkpt lat="48.05017" lon="7.2633">
        <ele>620</ele>
        <time>2013-05-10T14:32:32Z</time>
      </trkpt>
      <trkpt lat="48.05044" lon="7.26363">
        <ele>617</ele>
        <time>2013-05-10T14:32:39Z</time>
      </trkpt>
      <trkpt lat="48.05047" lon="7.26368">
        <ele>617</ele>
        <time>2013-05-10T14:32:40Z</time>
      </trkpt>
      <trkpt lat="48.05054" lon="7.26414">
        <ele>616</ele>
        <time>2013-05-10T14:32:47Z</time>
      </trkpt>
      <trkpt lat="48.0505" lon="7.2644">
        <ele>611</ele>
        <time>2013-05-10T14:32:50Z</time>
      </trkpt>
      <trkpt lat="48.05052" lon="7.26463">
        <ele>610</ele>
        <time>2013-05-10T14:32:53Z</time>
      </trkpt>
      <trkpt lat="48.05065" lon="7.26509">
        <ele>609</ele>
        <time>2013-05-10T14:33:01Z</time>
      </trkpt>
      <trkpt lat="48.05067" lon="7.26512">
        <ele>609</ele>
        <time>2013-05-10T14:33:02Z</time>
      </trkpt>
      <trkpt lat="48.05078" lon="7.26511">
        <ele>610</ele>
        <time>2013-05-10T14:33:06Z</time>
      </trkpt>
      <trkpt lat="48.05086" lon="7.26503">
        <ele>612</ele>
        <time>2013-05-10T14:33:09Z</time>
      </trkpt>
      <trkpt lat="48.05103" lon="7.26494">
        <ele>611</ele>
        <time>2013-05-10T14:33:14Z</time>
      </trkpt>
      <trkpt lat="48.05106" lon="7.26492">
        <ele>611</ele>
        <time>2013-05-10T14:33:19Z</time>
      </trkpt>
      <trkpt lat="48.05108" lon="7.26487">
        <ele>611</ele>
        <time>2013-05-10T14:33:29Z</time>
      </trkpt>
      <trkpt lat="48.05125" lon="7.26484">
        <ele>611</ele>
        <time>2013-05-10T14:33:34Z</time>
      </trkpt>
      <trkpt lat="48.0513" lon="7.26484">
        <ele>611</ele>
        <time>2013-05-10T14:33:35Z</time>
      </trkpt>
      <trkpt lat="48.05157" lon="7.26484">
        <ele>609</ele>
        <time>2013-05-10T14:33:40Z</time>
      </trkpt>
      <trkpt lat="48.05173" lon="7.2649">
        <ele>607</ele>
        <time>2013-05-10T14:33:43Z</time>
      </trkpt>
      <trkpt lat="48.05185" lon="7.26493">
        <ele>606</ele>
        <time>2013-05-10T14:33:45Z</time>
      </trkpt>
      <trkpt lat="48.05217" lon="7.265">
        <ele>606</ele>
        <time>2013-05-10T14:33:51Z</time>
      </trkpt>
      <trkpt lat="48.05228" lon="7.26499">
        <ele>605</ele>
        <time>2013-05-10T14:33:56Z</time>
      </trkpt>
      <trkpt lat="48.05238" lon="7.26497">
        <ele>605</ele>
        <time>2013-05-10T14:34:02Z</time>
      </trkpt>
      <trkpt lat="48.05252" lon="7.26492">
        <ele>604</ele>
        <time>2013-05-10T14:34:08Z</time>
      </trkpt>
      <trkpt lat="48.05265" lon="7.26488">
        <ele>603</ele>
        <time>2013-05-10T14:34:12Z</time>
      </trkpt>
      <trkpt lat="48.05274" lon="7.26486">
        <ele>603</ele>
        <time>2013-05-10T14:34:16Z</time>
      </trkpt>
      <trkpt lat="48.05277" lon="7.26486">
        <ele>603</ele>
        <time>2013-05-10T14:34:20Z</time>
      </trkpt>
      <trkpt lat="48.05274" lon="7.26502">
        <ele>604</ele>
        <time>2013-05-10T14:34:27Z</time>
      </trkpt>
      <trkpt lat="48.0527" lon="7.26513">
        <ele>605</ele>
        <time>2013-05-10T14:34:32Z</time>
      </trkpt>
      <trkpt lat="48.05265" lon="7.26525">
        <ele>605</ele>
        <time>2013-05-10T14:34:38Z</time>
      </trkpt>
      <trkpt lat="48.05268" lon="7.26531">
        <ele>605</ele>
        <time>2013-05-10T14:34:42Z</time>
      </trkpt>
      <trkpt lat="48.05274" lon="7.26538">
        <ele>605</ele>
        <time>2013-05-10T14:34:46Z</time>
      </trkpt>
      <trkpt lat="48.05286" lon="7.26546">
        <ele>605</ele>
        <time>2013-05-10T14:34:53Z</time>
      </trkpt>
      <trkpt lat="48.053" lon="7.26548">
        <ele>605</ele>
        <time>2013-05-10T14:34:58Z</time>
      </trkpt>
      <trkpt lat="48.05307" lon="7.26547">
        <ele>605</ele>
        <time>2013-05-10T14:35:01Z</time>
      </trkpt>
      <trkpt lat="48.05321" lon="7.26548">
        <ele>605</ele>
        <time>2013-05-10T14:35:07Z</time>
      </trkpt>
      <trkpt lat="48.05328" lon="7.26545">
        <ele>605</ele>
        <time>2013-05-10T14:35:10Z</time>
      </trkpt>
      <trkpt lat="48.05335" lon="7.26534">
        <ele>603</ele>
        <time>2013-05-10T14:35:15Z</time>
      </trkpt>
      <trkpt lat="48.05336" lon="7.26526">
        <ele>602</ele>
        <time>2013-05-10T14:35:19Z</time>
      </trkpt>
      <trkpt lat="48.05337" lon="7.26524">
        <ele>602</ele>
        <time>2013-05-10T14:35:20Z</time>
      </trkpt>
      <trkpt lat="48.05349" lon="7.26506">
        <ele>602</ele>
        <time>2013-05-10T14:35:26Z</time>
      </trkpt>
      <trkpt lat="48.05359" lon="7.26491">
        <ele>597</ele>
        <time>2013-05-10T14:35:31Z</time>
      </trkpt>
      <trkpt lat="48.0537" lon="7.26479">
        <ele>596</ele>
        <time>2013-05-10T14:35:36Z</time>
      </trkpt>
      <trkpt lat="48.05385" lon="7.2648">
        <ele>595</ele>
        <time>2013-05-10T14:35:42Z</time>
      </trkpt>
      <trkpt lat="48.05397" lon="7.26488">
        <ele>594</ele>
        <time>2013-05-10T14:35:45Z</time>
      </trkpt>
      <trkpt lat="48.05416" lon="7.26508">
        <ele>596</ele>
        <time>2013-05-10T14:35:50Z</time>
      </trkpt>
      <trkpt lat="48.05429" lon="7.26526">
        <ele>591</ele>
        <time>2013-05-10T14:35:54Z</time>
      </trkpt>
      <trkpt lat="48.05437" lon="7.26547">
        <ele>592</ele>
        <time>2013-05-10T14:35:58Z</time>
      </trkpt>
      <trkpt lat="48.05458" lon="7.26579">
        <ele>591</ele>
        <time>2013-05-10T14:36:04Z</time>
      </trkpt>
      <trkpt lat="48.05461" lon="7.26582">
        <ele>591</ele>
        <time>2013-05-10T14:36:05Z</time>
      </trkpt>
      <trkpt lat="48.05478" lon="7.26593">
        <ele>594</ele>
        <time>2013-05-10T14:36:10Z</time>
      </trkpt>
      <trkpt lat="48.05499" lon="7.26614">
        <ele>595</ele>
        <time>2013-05-10T14:36:16Z</time>
      </trkpt>
      <trkpt lat="48.05504" lon="7.26617">
        <ele>589</ele>
        <time>2013-05-10T14:36:17Z</time>
      </trkpt>
      <trkpt lat="48.05512" lon="7.26626">
        <ele>590</ele>
        <time>2013-05-10T14:36:19Z</time>
      </trkpt>
      <trkpt lat="48.05526" lon="7.26642">
        <ele>591</ele>
        <time>2013-05-10T14:36:22Z</time>
      </trkpt>
      <trkpt lat="48.05547" lon="7.26661">
        <ele>591</ele>
        <time>2013-05-10T14:36:27Z</time>
      </trkpt>
      <trkpt lat="48.05561" lon="7.2666">
        <ele>591</ele>
        <time>2013-05-10T14:36:30Z</time>
      </trkpt>
      <trkpt lat="48.0557" lon="7.26654">
        <ele>591</ele>
        <time>2013-05-10T14:36:32Z</time>
      </trkpt>
      <trkpt lat="48.05593" lon="7.26626">
        <ele>582</ele>
        <time>2013-05-10T14:36:39Z</time>
      </trkpt>
      <trkpt lat="48.05594" lon="7.26621">
        <ele>581</ele>
        <time>2013-05-10T14:36:45Z</time>
      </trkpt>
      <trkpt lat="48.05599" lon="7.26617">
        <ele>581</ele>
        <time>2013-05-10T14:36:55Z</time>
      </trkpt>
      <trkpt lat="48.05614" lon="7.2662">
        <ele>581</ele>
        <time>2013-05-10T14:36:59Z</time>
      </trkpt>
      <trkpt lat="48.05642" lon="7.26634">
        <ele>581</ele>
        <time>2013-05-10T14:37:05Z</time>
      </trkpt>
      <trkpt lat="48.05646" lon="7.26638">
        <ele>581</ele>
        <time>2013-05-10T14:37:06Z</time>
      </trkpt>
      <trkpt lat="48.05666" lon="7.26654">
        <ele>584</ele>
        <time>2013-05-10T14:37:10Z</time>
      </trkpt>
      <trkpt lat="48.0568" lon="7.26679">
        <ele>585</ele>
        <time>2013-05-10T14:37:15Z</time>
      </trkpt>
      <trkpt lat="48.05688" lon="7.26692">
        <ele>585</ele>
        <time>2013-05-10T14:37:18Z</time>
      </trkpt>
      <trkpt lat="48.05699" lon="7.26723">
        <ele>586</ele>
        <time>2013-05-10T14:37:24Z</time>
      </trkpt>
      <trkpt lat="48.05707" lon="7.26748">
        <ele>587</ele>
        <time>2013-05-10T14:37:29Z</time>
      </trkpt>
      <trkpt lat="48.05723" lon="7.26754">
        <ele>590</ele>
        <time>2013-05-10T14:37:34Z</time>
      </trkpt>
      <trkpt lat="48.0573" lon="7.26759">
        <ele>589</ele>
        <time>2013-05-10T14:37:36Z</time>
      </trkpt>
      <trkpt lat="48.05736" lon="7.26764">
        <ele>588</ele>
        <time>2013-05-10T14:37:39Z</time>
      </trkpt>
      <trkpt lat="48.05744" lon="7.26782">
        <ele>589</ele>
        <time>2013-05-10T14:37:45Z</time>
      </trkpt>
      <trkpt lat="48.0575" lon="7.26791">
        <ele>590</ele>
        <time>2013-05-10T14:37:49Z</time>
      </trkpt>
      <trkpt lat="48.05757" lon="7.26792">
        <ele>591</ele>
        <time>2013-05-10T14:37:53Z</time>
      </trkpt>
      <trkpt lat="48.05767" lon="7.26789">
        <ele>591</ele>
        <time>2013-05-10T14:37:59Z</time>
      </trkpt>
      <trkpt lat="48.0578" lon="7.26798">
        <ele>592</ele>
        <time>2013-05-10T14:38:06Z</time>
      </trkpt>
      <trkpt lat="48.05781" lon="7.268">
        <ele>593</ele>
        <time>2013-05-10T14:38:07Z</time>
      </trkpt>
      <trkpt lat="48.05788" lon="7.26815">
        <ele>593</ele>
        <time>2013-05-10T14:38:13Z</time>
      </trkpt>
      <trkpt lat="48.0579" lon="7.26816">
        <ele>594</ele>
        <time>2013-05-10T14:38:14Z</time>
      </trkpt>
      <trkpt lat="48.05793" lon="7.2682">
        <ele>594</ele>
        <time>2013-05-10T14:38:17Z</time>
      </trkpt>
      <trkpt lat="48.05802" lon="7.26829">
        <ele>595</ele>
        <time>2013-05-10T14:38:23Z</time>
      </trkpt>
      <trkpt lat="48.05812" lon="7.2684">
        <ele>596</ele>
        <time>2013-05-10T14:38:30Z</time>
      </trkpt>
      <trkpt lat="48.0582" lon="7.2685">
        <ele>596</ele>
        <time>2013-05-10T14:38:36Z</time>
      </trkpt>
      <trkpt lat="48.05829" lon="7.26864">
        <ele>595</ele>
        <time>2013-05-10T14:38:44Z</time>
      </trkpt>
      <trkpt lat="48.05836" lon="7.26875">
        <ele>604</ele>
        <time>2013-05-10T14:38:52Z</time>
      </trkpt>
      <trkpt lat="48.05845" lon="7.26886">
        <ele>604</ele>
        <time>2013-05-10T14:39:00Z</time>
      </trkpt>
      <trkpt lat="48.05855" lon="7.26899">
        <ele>603</ele>
        <time>2013-05-10T14:39:08Z</time>
      </trkpt>
      <trkpt lat="48.05863" lon="7.26911">
        <ele>604</ele>
        <time>2013-05-10T14:39:15Z</time>
      </trkpt>
      <trkpt lat="48.05873" lon="7.26932">
        <ele>601</ele>
        <time>2013-05-10T14:39:24Z</time>
      </trkpt>
      <trkpt lat="48.05879" lon="7.26948">
        <ele>602</ele>
        <time>2013-05-10T14:39:31Z</time>
      </trkpt>
      <trkpt lat="48.05886" lon="7.26962">
        <ele>602</ele>
        <time>2013-05-10T14:39:39Z</time>
      </trkpt>
      <trkpt lat="48.05892" lon="7.26968">
        <ele>602</ele>
        <time>2013-05-10T14:39:43Z</time>
      </trkpt>
      <trkpt lat="48.05897" lon="7.26976">
        <ele>603</ele>
        <time>2013-05-10T14:39:47Z</time>
      </trkpt>
      <trkpt lat="48.05904" lon="7.26998">
        <ele>605</ele>
        <time>2013-05-10T14:39:56Z</time>
      </trkpt>
      <trkpt lat="48.05907" lon="7.27004">
        <ele>602</ele>
        <time>2013-05-10T14:39:59Z</time>
      </trkpt>
      <trkpt lat="48.0591" lon="7.27013">
        <ele>600</ele>
        <time>2013-05-10T14:40:03Z</time>
      </trkpt>
      <trkpt lat="48.05916" lon="7.27025">
        <ele>597</ele>
        <time>2013-05-10T14:40:12Z</time>
      </trkpt>
      <trkpt lat="48.05922" lon="7.27034">
        <ele>604</ele>
        <time>2013-05-10T14:40:20Z</time>
      </trkpt>
      <trkpt lat="48.05929" lon="7.2704">
        <ele>603</ele>
        <time>2013-05-10T14:40:26Z</time>
      </trkpt>
      <trkpt lat="48.05939" lon="7.27042">
        <ele>603</ele>
        <time>2013-05-10T14:40:33Z</time>
      </trkpt>
      <trkpt lat="48.05947" lon="7.27046">
        <ele>603</ele>
        <time>2013-05-10T14:40:40Z</time>
      </trkpt>
      <trkpt lat="48.05956" lon="7.27047">
        <ele>604</ele>
        <time>2013-05-10T14:40:47Z</time>
      </trkpt>
      <trkpt lat="48.05969" lon="7.2704">
        <ele>605</ele>
        <time>2013-05-10T14:40:55Z</time>
      </trkpt>
      <trkpt lat="48.05974" lon="7.27034">
        <ele>606</ele>
        <time>2013-05-10T14:41:02Z</time>
      </trkpt>
      <trkpt lat="48.05979" lon="7.27026">
        <ele>607</ele>
        <time>2013-05-10T14:41:09Z</time>
      </trkpt>
      <trkpt lat="48.05991" lon="7.27017">
        <ele>610</ele>
        <time>2013-05-10T14:41:19Z</time>
      </trkpt>
      <trkpt lat="48.06006" lon="7.27007">
        <ele>611</ele>
        <time>2013-05-10T14:41:29Z</time>
      </trkpt>
      <trkpt lat="48.06008" lon="7.27006">
        <ele>610</ele>
        <time>2013-05-10T14:41:31Z</time>
      </trkpt>
      <trkpt lat="48.06015" lon="7.27006">
        <ele>608</ele>
        <time>2013-05-10T14:41:38Z</time>
      </trkpt>
      <trkpt lat="48.0602" lon="7.27004">
        <ele>606</ele>
        <time>2013-05-10T14:41:45Z</time>
      </trkpt>
      <trkpt lat="48.06028" lon="7.27">
        <ele>612</ele>
        <time>2013-05-10T14:42:04Z</time>
      </trkpt>
      <trkpt lat="48.06026" lon="7.27004">
        <ele>605</ele>
        <time>2013-05-10T14:42:12Z</time>
      </trkpt>
      <trkpt lat="48.06024" lon="7.27008">
        <ele>605</ele>
        <time>2013-05-10T14:42:22Z</time>
      </trkpt>
      <trkpt lat="48.06024" lon="7.27005">
        <ele>605</ele>
        <time>2013-05-10T14:42:25Z</time>
      </trkpt>
      <trkpt lat="48.06025" lon="7.26996">
        <ele>612</ele>
        <time>2013-05-10T14:42:32Z</time>
      </trkpt>
      <trkpt lat="48.06026" lon="7.26993">
        <ele>612</ele>
        <time>2013-05-10T14:42:39Z</time>
      </trkpt>
      <trkpt lat="48.06025" lon="7.26992">
        <ele>612</ele>
        <time>2013-05-10T14:42:54Z</time>
      </trkpt>
      <trkpt lat="48.06028" lon="7.26993">
        <ele>612</ele>
        <time>2013-05-10T14:45:58Z</time>
      </trkpt>
      <trkpt lat="48.06027" lon="7.26993">
        <ele>612</ele>
        <time>2013-05-10T14:47:07Z</time>
      </trkpt>
      <trkpt lat="48.06026" lon="7.26993">
        <ele>612</ele>
        <time>2013-05-10T14:47:27Z</time>
      </trkpt>
      <trkpt lat="48.06025" lon="7.26991">
        <ele>612</ele>
        <time>2013-05-10T14:48:49Z</time>
      </trkpt>
      <trkpt lat="48.06025" lon="7.26991">
        <ele>612</ele>
        <time>2013-05-10T14:49:10Z</time>
      </trkpt>
      <trkpt lat="48.06026" lon="7.2699">
        <ele>612</ele>
        <time>2013-05-10T14:49:15Z</time>
      </trkpt>
      <trkpt lat="48.06029" lon="7.26987">
        <ele>612</ele>
        <time>2013-05-10T14:49:21Z</time>
      </trkpt>
      <trkpt lat="48.0603" lon="7.26987">
        <ele>612</ele>
        <time>2013-05-10T14:49:26Z</time>
      </trkpt>
      <trkpt lat="48.06034" lon="7.26986">
        <ele>611</ele>
        <time>2013-05-10T14:49:29Z</time>
      </trkpt>
      <trkpt lat="48.06049" lon="7.26985">
        <ele>609</ele>
        <time>2013-05-10T14:49:35Z</time>
      </trkpt>
      <trkpt lat="48.06057" lon="7.26972">
        <ele>609</ele>
        <time>2013-05-10T14:49:38Z</time>
      </trkpt>
      <trkpt lat="48.06061" lon="7.2696">
        <ele>609</ele>
        <time>2013-05-10T14:49:40Z</time>
      </trkpt>
      <trkpt lat="48.06066" lon="7.26946">
        <ele>609</ele>
        <time>2013-05-10T14:49:42Z</time>
      </trkpt>
      <trkpt lat="48.06073" lon="7.26917">
        <ele>607</ele>
        <time>2013-05-10T14:49:46Z</time>
      </trkpt>
      <trkpt lat="48.06074" lon="7.26901">
        <ele>608</ele>
        <time>2013-05-10T14:49:50Z</time>
      </trkpt>
      <trkpt lat="48.06079" lon="7.26911">
        <ele>606</ele>
        <time>2013-05-10T14:49:54Z</time>
      </trkpt>
      <trkpt lat="48.06082" lon="7.26921">
        <ele>605</ele>
        <time>2013-05-10T14:49:58Z</time>
      </trkpt>
      <trkpt lat="48.06083" lon="7.26897">
        <ele>607</ele>
        <time>2013-05-10T14:50:03Z</time>
      </trkpt>
      <trkpt lat="48.06083" lon="7.26894">
        <ele>608</ele>
        <time>2013-05-10T14:50:05Z</time>
      </trkpt>
      <trkpt lat="48.06089" lon="7.2691">
        <ele>598</ele>
        <time>2013-05-10T14:50:11Z</time>
      </trkpt>
      <trkpt lat="48.06096" lon="7.26921">
        <ele>595</ele>
        <time>2013-05-10T14:50:16Z</time>
      </trkpt>
      <trkpt lat="48.06098" lon="7.26921">
        <ele>594</ele>
        <time>2013-05-10T14:50:18Z</time>
      </trkpt>
      <trkpt lat="48.06102" lon="7.26908">
        <ele>591</ele>
        <time>2013-05-10T14:50:24Z</time>
      </trkpt>
      <trkpt lat="48.06104" lon="7.26908">
        <ele>591</ele>
        <time>2013-05-10T14:50:25Z</time>
      </trkpt>
      <trkpt lat="48.06112" lon="7.26924">
        <ele>589</ele>
        <time>2013-05-10T14:50:30Z</time>
      </trkpt>
      <trkpt lat="48.06121" lon="7.26951">
        <ele>585</ele>
        <time>2013-05-10T14:50:35Z</time>
      </trkpt>
      <trkpt lat="48.0612" lon="7.26955">
        <ele>585</ele>
        <time>2013-05-10T14:50:37Z</time>
      </trkpt>
      <trkpt lat="48.06123" lon="7.26937">
        <ele>585</ele>
        <time>2013-05-10T14:50:42Z</time>
      </trkpt>
      <trkpt lat="48.06124" lon="7.26938">
        <ele>584</ele>
        <time>2013-05-10T14:50:43Z</time>
      </trkpt>
      <trkpt lat="48.06125" lon="7.26966">
        <ele>584</ele>
        <time>2013-05-10T14:50:48Z</time>
      </trkpt>
      <trkpt lat="48.06125" lon="7.27002">
        <ele>578</ele>
        <time>2013-05-10T14:50:52Z</time>
      </trkpt>
      <trkpt lat="48.06125" lon="7.27006">
        <ele>578</ele>
        <time>2013-05-10T14:50:53Z</time>
      </trkpt>
      <trkpt lat="48.06134" lon="7.26988">
        <ele>581</ele>
        <time>2013-05-10T14:50:56Z</time>
      </trkpt>
      <trkpt lat="48.06142" lon="7.26971">
        <ele>580</ele>
        <time>2013-05-10T14:50:58Z</time>
      </trkpt>
      <trkpt lat="48.06158" lon="7.26927">
        <ele>574</ele>
        <time>2013-05-10T14:51:03Z</time>
      </trkpt>
      <trkpt lat="48.06165" lon="7.26917">
        <ele>568</ele>
        <time>2013-05-10T14:51:07Z</time>
      </trkpt>
      <trkpt lat="48.06174" lon="7.26934">
        <ele>560</ele>
        <time>2013-05-10T14:51:11Z</time>
      </trkpt>
      <trkpt lat="48.06174" lon="7.2694">
        <ele>559</ele>
        <time>2013-05-10T14:51:12Z</time>
      </trkpt>
      <trkpt lat="48.06183" lon="7.26937">
        <ele>558</ele>
        <time>2013-05-10T14:51:16Z</time>
      </trkpt>
      <trkpt lat="48.06187" lon="7.26911">
        <ele>559</ele>
        <time>2013-05-10T14:51:20Z</time>
      </trkpt>
      <trkpt lat="48.06191" lon="7.26895">
        <ele>557</ele>
        <time>2013-05-10T14:51:23Z</time>
      </trkpt>
      <trkpt lat="48.06197" lon="7.26903">
        <ele>556</ele>
        <time>2013-05-10T14:51:26Z</time>
      </trkpt>
      <trkpt lat="48.0621" lon="7.26932">
        <ele>553</ele>
        <time>2013-05-10T14:51:31Z</time>
      </trkpt>
      <trkpt lat="48.06211" lon="7.26933">
        <ele>553</ele>
        <time>2013-05-10T14:51:32Z</time>
      </trkpt>
      <trkpt lat="48.06224" lon="7.26915">
        <ele>550</ele>
        <time>2013-05-10T14:51:36Z</time>
      </trkpt>
      <trkpt lat="48.06233" lon="7.26881">
        <ele>550</ele>
        <time>2013-05-10T14:51:41Z</time>
      </trkpt>
      <trkpt lat="48.06233" lon="7.26869">
        <ele>551</ele>
        <time>2013-05-10T14:51:44Z</time>
      </trkpt>
      <trkpt lat="48.06228" lon="7.26863">
        <ele>551</ele>
        <time>2013-05-10T14:51:48Z</time>
      </trkpt>
      <trkpt lat="48.06229" lon="7.26869">
        <ele>551</ele>
        <time>2013-05-10T14:51:51Z</time>
      </trkpt>
      <trkpt lat="48.06234" lon="7.26877">
        <ele>550</ele>
        <time>2013-05-10T14:51:55Z</time>
      </trkpt>
      <trkpt lat="48.06246" lon="7.26879">
        <ele>549</ele>
        <time>2013-05-10T14:52:01Z</time>
      </trkpt>
      <trkpt lat="48.06245" lon="7.26881">
        <ele>549</ele>
        <time>2013-05-10T14:52:03Z</time>
      </trkpt>
      <trkpt lat="48.06249" lon="7.26894">
        <ele>547</ele>
        <time>2013-05-10T14:52:08Z</time>
      </trkpt>
      <trkpt lat="48.06264" lon="7.26907">
        <ele>541</ele>
        <time>2013-05-10T14:52:12Z</time>
      </trkpt>
      <trkpt lat="48.06287" lon="7.26917">
        <ele>537</ele>
        <time>2013-05-10T14:52:16Z</time>
      </trkpt>
      <trkpt lat="48.0633" lon="7.26941">
        <ele>535</ele>
        <time>2013-05-10T14:52:22Z</time>
      </trkpt>
      <trkpt lat="48.06337" lon="7.26961">
        <ele>533</ele>
        <time>2013-05-10T14:52:26Z</time>
      </trkpt>
      <trkpt lat="48.06346" lon="7.26982">
        <ele>530</ele>
        <time>2013-05-10T14:52:30Z</time>
      </trkpt>
      <trkpt lat="48.06355" lon="7.26993">
        <ele>530</ele>
        <time>2013-05-10T14:52:33Z</time>
      </trkpt>
      <trkpt lat="48.06364" lon="7.27012">
        <ele>522</ele>
        <time>2013-05-10T14:52:37Z</time>
      </trkpt>
      <trkpt lat="48.06383" lon="7.27031">
        <ele>520</ele>
        <time>2013-05-10T14:52:42Z</time>
      </trkpt>
      <trkpt lat="48.06388" lon="7.27035">
        <ele>520</ele>
        <time>2013-05-10T14:52:43Z</time>
      </trkpt>
      <trkpt lat="48.06398" lon="7.27041">
        <ele>519</ele>
        <time>2013-05-10T14:52:45Z</time>
      </trkpt>
      <trkpt lat="48.06414" lon="7.27056">
        <ele>517</ele>
        <time>2013-05-10T14:52:48Z</time>
      </trkpt>
      <trkpt lat="48.06441" lon="7.27078">
        <ele>513</ele>
        <time>2013-05-10T14:52:53Z</time>
      </trkpt>
      <trkpt lat="48.06463" lon="7.27075">
        <ele>513</ele>
        <time>2013-05-10T14:52:57Z</time>
      </trkpt>
      <trkpt lat="48.06476" lon="7.27052">
        <ele>514</ele>
        <time>2013-05-10T14:53:00Z</time>
      </trkpt>
      <trkpt lat="48.0649" lon="7.27012">
        <ele>516</ele>
        <time>2013-05-10T14:53:04Z</time>
      </trkpt>
      <trkpt lat="48.06498" lon="7.27009">
        <ele>516</ele>
        <time>2013-05-10T14:53:08Z</time>
      </trkpt>
      <trkpt lat="48.06498" lon="7.2701">
        <ele>516</ele>
        <time>2013-05-10T14:53:16Z</time>
      </trkpt>
      <trkpt lat="48.06507" lon="7.27">
        <ele>514</ele>
        <time>2013-05-10T14:53:21Z</time>
      </trkpt>
      <trkpt lat="48.06513" lon="7.2699">
        <ele>512</ele>
        <time>2013-05-10T14:53:25Z</time>
      </trkpt>
      <trkpt lat="48.06516" lon="7.26991">
        <ele>512</ele>
        <time>2013-05-10T14:53:27Z</time>
      </trkpt>
      <trkpt lat="48.06518" lon="7.27003">
        <ele>510</ele>
        <time>2013-05-10T14:53:32Z</time>
      </trkpt>
      <trkpt lat="48.06519" lon="7.27008">
        <ele>509</ele>
        <time>2013-05-10T14:53:33Z</time>
      </trkpt>
      <trkpt lat="48.06519" lon="7.27028">
        <ele>507</ele>
        <time>2013-05-10T14:53:37Z</time>
      </trkpt>
      <trkpt lat="48.06516" lon="7.27051">
        <ele>506</ele>
        <time>2013-05-10T14:53:43Z</time>
      </trkpt>
      <trkpt lat="48.06512" lon="7.27075">
        <ele>506</ele>
        <time>2013-05-10T14:53:49Z</time>
      </trkpt>
      <trkpt lat="48.0651" lon="7.27093">
        <ele>501</ele>
        <time>2013-05-10T14:53:54Z</time>
      </trkpt>
      <trkpt lat="48.06509" lon="7.27109">
        <ele>498</ele>
        <time>2013-05-10T14:53:59Z</time>
      </trkpt>
      <trkpt lat="48.06509" lon="7.27114">
        <ele>497</ele>
        <time>2013-05-10T14:54:20Z</time>
      </trkpt>
      <trkpt lat="48.06509" lon="7.27123">
        <ele>496</ele>
        <time>2013-05-10T14:54:24Z</time>
      </trkpt>
      <trkpt lat="48.06507" lon="7.27144">
        <ele>494</ele>
        <time>2013-05-10T14:54:29Z</time>
      </trkpt>
      <trkpt lat="48.06505" lon="7.27158">
        <ele>493</ele>
        <time>2013-05-10T14:54:33Z</time>
      </trkpt>
      <trkpt lat="48.06503" lon="7.27173">
        <ele>490</ele>
        <time>2013-05-10T14:54:38Z</time>
      </trkpt>
      <trkpt lat="48.06499" lon="7.27187">
        <ele>487</ele>
        <time>2013-05-10T14:54:42Z</time>
      </trkpt>
      <trkpt lat="48.06501" lon="7.27192">
        <ele>484</ele>
        <time>2013-05-10T14:54:46Z</time>
      </trkpt>
      <trkpt lat="48.06503" lon="7.2719">
        <ele>484</ele>
        <time>2013-05-10T14:54:49Z</time>
      </trkpt>
      <trkpt lat="48.06514" lon="7.27178">
        <ele>486</ele>
        <time>2013-05-10T14:54:53Z</time>
      </trkpt>
      <trkpt lat="48.06528" lon="7.27166">
        <ele>492</ele>
        <time>2013-05-10T14:54:58Z</time>
      </trkpt>
      <trkpt lat="48.06531" lon="7.27163">
        <ele>492</ele>
        <time>2013-05-10T14:55:04Z</time>
      </trkpt>
      <trkpt lat="48.06538" lon="7.27153">
        <ele>492</ele>
        <time>2013-05-10T14:55:08Z</time>
      </trkpt>
      <trkpt lat="48.0654" lon="7.27153">
        <ele>492</ele>
        <time>2013-05-10T14:55:13Z</time>
      </trkpt>
      <trkpt lat="48.0654" lon="7.27154">
        <ele>492</ele>
        <time>2013-05-10T14:55:15Z</time>
      </trkpt>
      <trkpt lat="48.06541" lon="7.27165">
        <ele>491</ele>
        <time>2013-05-10T14:55:18Z</time>
      </trkpt>
      <trkpt lat="48.06543" lon="7.27199">
        <ele>480</ele>
        <time>2013-05-10T14:55:22Z</time>
      </trkpt>
      <trkpt lat="48.0654" lon="7.27236">
        <ele>476</ele>
        <time>2013-05-10T14:55:26Z</time>
      </trkpt>
      <trkpt lat="48.06539" lon="7.27267">
        <ele>464</ele>
        <time>2013-05-10T14:55:31Z</time>
      </trkpt>
      <trkpt lat="48.06539" lon="7.27267">
        <ele>464</ele>
        <time>2013-05-10T14:55:32Z</time>
      </trkpt>
      <trkpt lat="48.06548" lon="7.27246">
        <ele>475</ele>
        <time>2013-05-10T14:55:36Z</time>
      </trkpt>
      <trkpt lat="48.06551" lon="7.27241">
        <ele>475</ele>
        <time>2013-05-10T14:55:37Z</time>
      </trkpt>
      <trkpt lat="48.06562" lon="7.27231">
        <ele>474</ele>
        <time>2013-05-10T14:55:41Z</time>
      </trkpt>
      <trkpt lat="48.06563" lon="7.27234">
        <ele>473</ele>
        <time>2013-05-10T14:55:43Z</time>
      </trkpt>
      <trkpt lat="48.06571" lon="7.27257">
        <ele>463</ele>
        <time>2013-05-10T14:55:48Z</time>
      </trkpt>
      <trkpt lat="48.06576" lon="7.27278">
        <ele>461</ele>
        <time>2013-05-10T14:55:53Z</time>
      </trkpt>
      <trkpt lat="48.06577" lon="7.27283">
        <ele>461</ele>
        <time>2013-05-10T14:55:58Z</time>
      </trkpt>
      <trkpt lat="48.06584" lon="7.27305">
        <ele>448</ele>
        <time>2013-05-10T14:56:03Z</time>
      </trkpt>
      <trkpt lat="48.06587" lon="7.27321">
        <ele>448</ele>
        <time>2013-05-10T14:56:08Z</time>
      </trkpt>
      <trkpt lat="48.06588" lon="7.27335">
        <ele>444</ele>
        <time>2013-05-10T14:56:12Z</time>
      </trkpt>
      <trkpt lat="48.06588" lon="7.2734">
        <ele>442</ele>
        <time>2013-05-10T14:56:13Z</time>
      </trkpt>
      <trkpt lat="48.06586" lon="7.27369">
        <ele>432</ele>
        <time>2013-05-10T14:56:18Z</time>
      </trkpt>
      <trkpt lat="48.06586" lon="7.27371">
        <ele>431</ele>
        <time>2013-05-10T14:56:20Z</time>
      </trkpt>
      <trkpt lat="48.06595" lon="7.27357">
        <ele>434</ele>
        <time>2013-05-10T14:56:26Z</time>
      </trkpt>
      <trkpt lat="48.06607" lon="7.27337">
        <ele>434</ele>
        <time>2013-05-10T14:56:30Z</time>
      </trkpt>
      <trkpt lat="48.06608" lon="7.2734">
        <ele>434</ele>
        <time>2013-05-10T14:56:33Z</time>
      </trkpt>
      <trkpt lat="48.06609" lon="7.27357">
        <ele>431</ele>
        <time>2013-05-10T14:56:37Z</time>
      </trkpt>
      <trkpt lat="48.06606" lon="7.27359">
        <ele>431</ele>
        <time>2013-05-10T14:56:42Z</time>
      </trkpt>
      <trkpt lat="48.06609" lon="7.27356">
        <ele>431</ele>
        <time>2013-05-10T14:56:53Z</time>
      </trkpt>
      <trkpt lat="48.06617" lon="7.27349">
        <ele>430</ele>
        <time>2013-05-10T14:56:58Z</time>
      </trkpt>
      <trkpt lat="48.06626" lon="7.27356">
        <ele>428</ele>
        <time>2013-05-10T14:57:17Z</time>
      </trkpt>
      <trkpt lat="48.06624" lon="7.27365">
        <ele>427</ele>
        <time>2013-05-10T14:57:24Z</time>
      </trkpt>
      <trkpt lat="48.06624" lon="7.27362">
        <ele>427</ele>
        <time>2013-05-10T14:57:27Z</time>
      </trkpt>
      <trkpt lat="48.06628" lon="7.2736">
        <ele>427</ele>
        <time>2013-05-10T14:57:32Z</time>
      </trkpt>
      <trkpt lat="48.0663" lon="7.27364">
        <ele>426</ele>
        <time>2013-05-10T14:57:41Z</time>
      </trkpt>
      <trkpt lat="48.06629" lon="7.27362">
        <ele>426</ele>
        <time>2013-05-10T14:57:50Z</time>
      </trkpt>
      <trkpt lat="48.06632" lon="7.27364">
        <ele>426</ele>
        <time>2013-05-10T14:57:53Z</time>
      </trkpt>
      <trkpt lat="48.06638" lon="7.27382">
        <ele>422</ele>
        <time>2013-05-10T14:57:58Z</time>
      </trkpt>
      <trkpt lat="48.06638" lon="7.27405">
        <ele>418</ele>
        <time>2013-05-10T14:58:03Z</time>
      </trkpt>
      <trkpt lat="48.06636" lon="7.27414">
        <ele>418</ele>
        <time>2013-05-10T14:58:08Z</time>
      </trkpt>
      <trkpt lat="48.06636" lon="7.27413">
        <ele>418</ele>
        <time>2013-05-10T14:58:17Z</time>
      </trkpt>
      <trkpt lat="48.06639" lon="7.27409">
        <ele>417</ele>
        <time>2013-05-10T14:58:22Z</time>
      </trkpt>
      <trkpt lat="48.0664" lon="7.27409">
        <ele>417</ele>
        <time>2013-05-10T14:58:23Z</time>
      </trkpt>
      <trkpt lat="48.06641" lon="7.27409">
        <ele>417</ele>
        <time>2013-05-10T14:58:29Z</time>
      </trkpt>
      <trkpt lat="48.06645" lon="7.27407">
        <ele>416</ele>
        <time>2013-05-10T14:58:34Z</time>
      </trkpt>
      <trkpt lat="48.06645" lon="7.27414">
        <ele>415</ele>
        <time>2013-05-10T14:58:45Z</time>
      </trkpt>
      <trkpt lat="48.06652" lon="7.27424">
        <ele>403</ele>
        <time>2013-05-10T14:58:49Z</time>
      </trkpt>
      <trkpt lat="48.06657" lon="7.2744">
        <ele>403</ele>
        <time>2013-05-10T14:58:53Z</time>
      </trkpt>
      <trkpt lat="48.06659" lon="7.27443">
        <ele>402</ele>
        <time>2013-05-10T14:58:56Z</time>
      </trkpt>
      <trkpt lat="48.06658" lon="7.2743">
        <ele>402</ele>
        <time>2013-05-10T14:59:01Z</time>
      </trkpt>
      <trkpt lat="48.06658" lon="7.27428">
        <ele>402</ele>
        <time>2013-05-10T14:59:06Z</time>
      </trkpt>
      <trkpt lat="48.06657" lon="7.2743">
        <ele>402</ele>
        <time>2013-05-10T14:59:23Z</time>
      </trkpt>
      <trkpt lat="48.06655" lon="7.27435">
        <ele>403</ele>
        <time>2013-05-10T14:59:54Z</time>
      </trkpt>
      <trkpt lat="48.06659" lon="7.27448">
        <ele>402</ele>
        <time>2013-05-10T14:59:59Z</time>
      </trkpt>
      <trkpt lat="48.0666" lon="7.27451">
        <ele>402</ele>
        <time>2013-05-10T15:00:00Z</time>
      </trkpt>
      <trkpt lat="48.06666" lon="7.2747">
        <ele>398</ele>
        <time>2013-05-10T15:00:05Z</time>
      </trkpt>
      <trkpt lat="48.06661" lon="7.2749">
        <ele>391</ele>
        <time>2013-05-10T15:00:09Z</time>
      </trkpt>
      <trkpt lat="48.06658" lon="7.2751">
        <ele>386</ele>
        <time>2013-05-10T15:00:14Z</time>
      </trkpt>
      <trkpt lat="48.06653" lon="7.27523">
        <ele>388</ele>
        <time>2013-05-10T15:00:16Z</time>
      </trkpt>
      <trkpt lat="48.06649" lon="7.27537">
        <ele>389</ele>
        <time>2013-05-10T15:00:18Z</time>
      </trkpt>
      <trkpt lat="48.06645" lon="7.27568">
        <ele>386</ele>
        <time>2013-05-10T15:00:23Z</time>
      </trkpt>
      <trkpt lat="48.0664" lon="7.27594">
        <ele>380</ele>
        <time>2013-05-10T15:00:28Z</time>
      </trkpt>
      <trkpt lat="48.06639" lon="7.27594">
        <ele>380</ele>
        <time>2013-05-10T15:00:31Z</time>
      </trkpt>
      <trkpt lat="48.0664" lon="7.27594">
        <ele>380</ele>
        <time>2013-05-10T15:00:39Z</time>
      </trkpt>
      <trkpt lat="48.06638" lon="7.27611">
        <ele>380</ele>
        <time>2013-05-10T15:01:02Z</time>
      </trkpt>
      <trkpt lat="48.06634" lon="7.27617">
        <ele>380</ele>
        <time>2013-05-10T15:01:24Z</time>
      </trkpt>
      <trkpt lat="48.06644" lon="7.27602">
        <ele>379</ele>
        <time>2013-05-10T15:01:48Z</time>
      </trkpt>
      <trkpt lat="48.06639" lon="7.27611">
        <ele>380</ele>
        <time>2013-05-10T15:03:20Z</time>
      </trkpt>
      <trkpt lat="48.06635" lon="7.27611">
        <ele>380</ele>
        <time>2013-05-10T15:03:53Z</time>
      </trkpt>
      <trkpt lat="48.06637" lon="7.27615">
        <ele>380</ele>
        <time>2013-05-10T15:04:05Z</time>
      </trkpt>
      <trkpt lat="48.06637" lon="7.2763">
        <ele>379</ele>
        <time>2013-05-10T15:04:09Z</time>
      </trkpt>
      <trkpt lat="48.06633" lon="7.27658">
        <ele>377</ele>
        <time>2013-05-10T15:04:15Z</time>
      </trkpt>
      <trkpt lat="48.06629" lon="7.27681">
        <ele>365</ele>
        <time>2013-05-10T15:04:20Z</time>
      </trkpt>
      <trkpt lat="48.06624" lon="7.27687">
        <ele>365</ele>
        <time>2013-05-10T15:04:24Z</time>
      </trkpt>
      <trkpt lat="48.06618" lon="7.2769">
        <ele>365</ele>
        <time>2013-05-10T15:04:29Z</time>
      </trkpt>
      <trkpt lat="48.06621" lon="7.2769">
        <ele>365</ele>
        <time>2013-05-10T15:04:38Z</time>
      </trkpt>
      <trkpt lat="48.06618" lon="7.2769">
        <ele>365</ele>
        <time>2013-05-10T15:04:52Z</time>
      </trkpt>
      <trkpt lat="48.066" lon="7.27691">
        <ele>368</ele>
        <time>2013-05-10T15:04:58Z</time>
      </trkpt>
      <trkpt lat="48.06586" lon="7.27686">
        <ele>371</ele>
        <time>2013-05-10T15:05:03Z</time>
      </trkpt>
      <trkpt lat="48.06575" lon="7.27676">
        <ele>374</ele>
        <time>2013-05-10T15:05:08Z</time>
      </trkpt>
      <trkpt lat="48.06561" lon="7.27665">
        <ele>383</ele>
        <time>2013-05-10T15:05:12Z</time>
      </trkpt>
      <trkpt lat="48.06546" lon="7.27657">
        <ele>383</ele>
        <time>2013-05-10T15:05:16Z</time>
      </trkpt>
      <trkpt lat="48.06535" lon="7.2765">
        <ele>382</ele>
        <time>2013-05-10T15:05:20Z</time>
      </trkpt>
      <trkpt lat="48.06528" lon="7.27645">
        <ele>382</ele>
        <time>2013-05-10T15:05:25Z</time>
      </trkpt>
      <trkpt lat="48.06532" lon="7.27653">
        <ele>381</ele>
        <time>2013-05-10T15:05:30Z</time>
      </trkpt>
      <trkpt lat="48.06539" lon="7.27662">
        <ele>382</ele>
        <time>2013-05-10T15:05:34Z</time>
      </trkpt>
      <trkpt lat="48.06557" lon="7.27672">
        <ele>369</ele>
        <time>2013-05-10T15:05:40Z</time>
      </trkpt>
      <trkpt lat="48.06571" lon="7.27681">
        <ele>371</ele>
        <time>2013-05-10T15:05:45Z</time>
      </trkpt>
      <trkpt lat="48.06579" lon="7.27685">
        <ele>371</ele>
        <time>2013-05-10T15:05:49Z</time>
      </trkpt>
      <trkpt lat="48.06599" lon="7.27686">
        <ele>369</ele>
        <time>2013-05-10T15:05:55Z</time>
      </trkpt>
      <trkpt lat="48.06613" lon="7.27683">
        <ele>367</ele>
        <time>2013-05-10T15:06:01Z</time>
      </trkpt>
      <trkpt lat="48.06614" lon="7.27684">
        <ele>367</ele>
        <time>2013-05-10T15:06:03Z</time>
      </trkpt>
      <trkpt lat="48.06609" lon="7.27693">
        <ele>366</ele>
        <time>2013-05-10T15:06:09Z</time>
      </trkpt>
      <trkpt lat="48.06594" lon="7.27697">
        <ele>367</ele>
        <time>2013-05-10T15:06:13Z</time>
      </trkpt>
      <trkpt lat="48.06579" lon="7.27696">
        <ele>368</ele>
        <time>2013-05-10T15:06:16Z</time>
      </trkpt>
      <trkpt lat="48.06553" lon="7.27688">
        <ele>366</ele>
        <time>2013-05-10T15:06:21Z</time>
      </trkpt>
      <trkpt lat="48.06536" lon="7.2768">
        <ele>366</ele>
        <time>2013-05-10T15:06:25Z</time>
      </trkpt>
      <trkpt lat="48.06529" lon="7.27674">
        <ele>366</ele>
        <time>2013-05-10T15:06:27Z</time>
      </trkpt>
      <trkpt lat="48.06522" lon="7.27676">
        <ele>365</ele>
        <time>2013-05-10T15:06:31Z</time>
      </trkpt>
      <trkpt lat="48.06522" lon="7.27677">
        <ele>365</ele>
        <time>2013-05-10T15:06:32Z</time>
      </trkpt>
      <trkpt lat="48.06533" lon="7.27693">
        <ele>364</ele>
        <time>2013-05-10T15:06:38Z</time>
      </trkpt>
      <trkpt lat="48.0654" lon="7.27704">
        <ele>363</ele>
        <time>2013-05-10T15:06:42Z</time>
      </trkpt>
      <trkpt lat="48.0654" lon="7.27707">
        <ele>362</ele>
        <time>2013-05-10T15:06:44Z</time>
      </trkpt>
      <trkpt lat="48.06528" lon="7.27703">
        <ele>362</ele>
        <time>2013-05-10T15:06:50Z</time>
      </trkpt>
      <trkpt lat="48.06513" lon="7.27695">
        <ele>363</ele>
        <time>2013-05-10T15:06:54Z</time>
      </trkpt>
      <trkpt lat="48.06491" lon="7.27684">
        <ele>357</ele>
        <time>2013-05-10T15:06:59Z</time>
      </trkpt>
      <trkpt lat="48.06478" lon="7.27681">
        <ele>355</ele>
        <time>2013-05-10T15:07:02Z</time>
      </trkpt>
      <trkpt lat="48.06474" lon="7.27685">
        <ele>354</ele>
        <time>2013-05-10T15:07:05Z</time>
      </trkpt>
      <trkpt lat="48.06481" lon="7.27705">
        <ele>351</ele>
        <time>2013-05-10T15:07:11Z</time>
      </trkpt>
      <trkpt lat="48.06496" lon="7.27733">
        <ele>348</ele>
        <time>2013-05-10T15:07:16Z</time>
      </trkpt>
      <trkpt lat="48.06502" lon="7.27745">
        <ele>348</ele>
        <time>2013-05-10T15:07:19Z</time>
      </trkpt>
      <trkpt lat="48.06502" lon="7.27747">
        <ele>347</ele>
        <time>2013-05-10T15:07:21Z</time>
      </trkpt>
      <trkpt lat="48.06497" lon="7.2774">
        <ele>347</ele>
        <time>2013-05-10T15:07:25Z</time>
      </trkpt>
      <trkpt lat="48.06498" lon="7.27748">
        <ele>345</ele>
        <time>2013-05-10T15:07:29Z</time>
      </trkpt>
      <trkpt lat="48.06499" lon="7.27755">
        <ele>342</ele>
        <time>2013-05-10T15:07:32Z</time>
      </trkpt>
      <trkpt lat="48.06487" lon="7.27747">
        <ele>346</ele>
        <time>2013-05-10T15:07:37Z</time>
      </trkpt>
      <trkpt lat="48.0648" lon="7.27742">
        <ele>347</ele>
        <time>2013-05-10T15:07:39Z</time>
      </trkpt>
      <trkpt lat="48.06451" lon="7.27729">
        <ele>346</ele>
        <time>2013-05-10T15:07:46Z</time>
      </trkpt>
      <trkpt lat="48.06451" lon="7.27738">
        <ele>345</ele>
        <time>2013-05-10T15:07:50Z</time>
      </trkpt>
      <trkpt lat="48.06456" lon="7.27749">
        <ele>345</ele>
        <time>2013-05-10T15:07:53Z</time>
      </trkpt>
      <trkpt lat="48.06471" lon="7.27772">
        <ele>334</ele>
        <time>2013-05-10T15:07:59Z</time>
      </trkpt>
      <trkpt lat="48.0647" lon="7.27771">
        <ele>334</ele>
        <time>2013-05-10T15:08:01Z</time>
      </trkpt>
      <trkpt lat="48.06461" lon="7.27765">
        <ele>333</ele>
        <time>2013-05-10T15:08:06Z</time>
      </trkpt>
      <trkpt lat="48.06461" lon="7.27765">
        <ele>333</ele>
        <time>2013-05-10T15:08:07Z</time>
      </trkpt>
      <trkpt lat="48.0646" lon="7.27769">
        <ele>333</ele>
        <time>2013-05-10T15:08:10Z</time>
      </trkpt>
      <trkpt lat="48.06452" lon="7.27767">
        <ele>333</ele>
        <time>2013-05-10T15:08:15Z</time>
      </trkpt>
      <trkpt lat="48.06455" lon="7.27779">
        <ele>332</ele>
        <time>2013-05-10T15:08:20Z</time>
      </trkpt>
      <trkpt lat="48.06456" lon="7.27779">
        <ele>332</ele>
        <time>2013-05-10T15:08:23Z</time>
      </trkpt>
      <trkpt lat="48.06453" lon="7.27795">
        <ele>330</ele>
        <time>2013-05-10T15:08:28Z</time>
      </trkpt>
      <trkpt lat="48.06454" lon="7.27826">
        <ele>328</ele>
        <time>2013-05-10T15:08:32Z</time>
      </trkpt>
      <trkpt lat="48.06465" lon="7.27859">
        <ele>319</ele>
        <time>2013-05-10T15:08:38Z</time>
      </trkpt>
      <trkpt lat="48.06473" lon="7.2787">
        <ele>318</ele>
        <time>2013-05-10T15:08:41Z</time>
      </trkpt>
      <trkpt lat="48.06506" lon="7.27889">
        <ele>310</ele>
        <time>2013-05-10T15:08:46Z</time>
      </trkpt>
      <trkpt lat="48.06537" lon="7.27906">
        <ele>308</ele>
        <time>2013-05-10T15:08:52Z</time>
      </trkpt>
      <trkpt lat="48.06543" lon="7.27908">
        <ele>308</ele>
        <time>2013-05-10T15:08:53Z</time>
      </trkpt>
      <trkpt lat="48.06578" lon="7.27924">
        <ele>298</ele>
        <time>2013-05-10T15:08:58Z</time>
      </trkpt>
      <trkpt lat="48.06602" lon="7.27933">
        <ele>292</ele>
        <time>2013-05-10T15:09:01Z</time>
      </trkpt>
      <trkpt lat="48.06635" lon="7.27944">
        <ele>290</ele>
        <time>2013-05-10T15:09:07Z</time>
      </trkpt>
      <trkpt lat="48.06652" lon="7.27949">
        <ele>289</ele>
        <time>2013-05-10T15:09:13Z</time>
      </trkpt>
      <trkpt lat="48.0666" lon="7.27951">
        <ele>289</ele>
        <time>2013-05-10T15:09:17Z</time>
      </trkpt>
      <trkpt lat="48.06664" lon="7.27951">
        <ele>289</ele>
        <time>2013-05-10T15:09:20Z</time>
      </trkpt>
      <trkpt lat="48.06675" lon="7.27954">
        <ele>282</ele>
        <time>2013-05-10T15:09:25Z</time>
      </trkpt>
      <trkpt lat="48.06679" lon="7.27956">
        <ele>282</ele>
        <time>2013-05-10T15:09:26Z</time>
      </trkpt>
      <trkpt lat="48.06696" lon="7.27963">
        <ele>280</ele>
        <time>2013-05-10T15:09:31Z</time>
      </trkpt>
      <trkpt lat="48.06694" lon="7.27966">
        <ele>280</ele>
        <time>2013-05-10T15:09:36Z</time>
      </trkpt>
      <trkpt lat="48.06686" lon="7.27966">
        <ele>281</ele>
        <time>2013-05-10T15:09:52Z</time>
      </trkpt>
      <trkpt lat="48.06698" lon="7.27962">
        <ele>280</ele>
        <time>2013-05-10T15:10:25Z</time>
      </trkpt>
      <trkpt lat="48.06698" lon="7.27965">
        <ele>280</ele>
        <time>2013-05-10T15:10:41Z</time>
      </trkpt>
      <trkpt lat="48.06702" lon="7.27968">
        <ele>280</ele>
        <time>2013-05-10T15:10:50Z</time>
      </trkpt>
      <trkpt lat="48.06719" lon="7.27973">
        <ele>278</ele>
        <time>2013-05-10T15:10:54Z</time>
      </trkpt>
      <trkpt lat="48.06752" lon="7.2799">
        <ele>268</ele>
        <time>2013-05-10T15:11:00Z</time>
      </trkpt>
      <trkpt lat="48.06772" lon="7.28009">
        <ele>266</ele>
        <time>2013-05-10T15:11:05Z</time>
      </trkpt>
      <trkpt lat="48.06778" lon="7.28027">
        <ele>266</ele>
        <time>2013-05-10T15:11:09Z</time>
      </trkpt>
      <trkpt lat="48.06782" lon="7.28043">
        <ele>266</ele>
        <time>2013-05-10T15:11:15Z</time>
      </trkpt>
      <trkpt lat="48.06789" lon="7.28055">
        <ele>266</ele>
        <time>2013-05-10T15:11:22Z</time>
      </trkpt>
      <trkpt lat="48.06793" lon="7.28063">
        <ele>265</ele>
        <time>2013-05-10T15:11:29Z</time>
      </trkpt>
      <trkpt lat="48.06798" lon="7.28064">
        <ele>265</ele>
        <time>2013-05-10T15:13:24Z</time>
      </trkpt>
      <trkpt lat="48.06799" lon="7.28066">
        <ele>265</ele>
        <time>2013-05-10T15:13:25Z</time>
      </trkpt>
      <trkpt lat="48.06804" lon="7.28083">
        <ele>264</ele>
        <time>2013-05-10T15:13:34Z</time>
      </trkpt>
      <trkpt lat="48.06809" lon="7.28108">
        <ele>268</ele>
        <time>2013-05-10T15:13:45Z</time>
      </trkpt>
      <trkpt lat="48.0681" lon="7.2813">
        <ele>270</ele>
        <time>2013-05-10T15:13:55Z</time>
      </trkpt>
      <trkpt lat="48.06808" lon="7.28154">
        <ele>271</ele>
        <time>2013-05-10T15:14:05Z</time>
      </trkpt>
      <trkpt lat="48.06806" lon="7.28178">
        <ele>277</ele>
        <time>2013-05-10T15:14:15Z</time>
      </trkpt>
      <trkpt lat="48.06804" lon="7.28211">
        <ele>279</ele>
        <time>2013-05-10T15:14:28Z</time>
      </trkpt>
      <trkpt lat="48.06803" lon="7.28233">
        <ele>280</ele>
        <time>2013-05-10T15:14:37Z</time>
      </trkpt>
      <trkpt lat="48.06802" lon="7.28252">
        <ele>283</ele>
        <time>2013-05-10T15:14:45Z</time>
      </trkpt>
      <trkpt lat="48.06802" lon="7.28268">
        <ele>284</ele>
        <time>2013-05-10T15:14:52Z</time>
      </trkpt>
      <trkpt lat="48.06797" lon="7.28271">
        <ele>285</ele>
        <time>2013-05-10T15:14:57Z</time>
      </trkpt>
      <trkpt lat="48.06795" lon="7.2827">
        <ele>285</ele>
        <time>2013-05-10T15:14:58Z</time>
      </trkpt>
      <trkpt lat="48.06783" lon="7.28252">
        <ele>288</ele>
        <time>2013-05-10T15:15:08Z</time>
      </trkpt>
      <trkpt lat="48.06772" lon="7.28234">
        <ele>286</ele>
        <time>2013-05-10T15:15:16Z</time>
      </trkpt>
      <trkpt lat="48.06767" lon="7.28227">
        <ele>286</ele>
        <time>2013-05-10T15:15:20Z</time>
      </trkpt>
      <trkpt lat="48.06759" lon="7.28213">
        <ele>285</ele>
        <time>2013-05-10T15:15:28Z</time>
      </trkpt>
      <trkpt lat="48.06747" lon="7.28191">
        <ele>296</ele>
        <time>2013-05-10T15:15:40Z</time>
      </trkpt>
      <trkpt lat="48.06736" lon="7.28169">
        <ele>293</ele>
        <time>2013-05-10T15:15:51Z</time>
      </trkpt>
      <trkpt lat="48.06724" lon="7.28154">
        <ele>290</ele>
        <time>2013-05-10T15:16:01Z</time>
      </trkpt>
      <trkpt lat="48.06713" lon="7.28146">
        <ele>291</ele>
        <time>2013-05-10T15:16:09Z</time>
      </trkpt>
      <trkpt lat="48.06698" lon="7.28138">
        <ele>292</ele>
        <time>2013-05-10T15:16:20Z</time>
      </trkpt>
      <trkpt lat="48.06685" lon="7.28131">
        <ele>293</ele>
        <time>2013-05-10T15:16:28Z</time>
      </trkpt>
      <trkpt lat="48.0667" lon="7.28124">
        <ele>293</ele>
        <time>2013-05-10T15:16:37Z</time>
      </trkpt>
      <trkpt lat="48.06651" lon="7.28121">
        <ele>304</ele>
        <time>2013-05-10T15:16:48Z</time>
      </trkpt>
      <trkpt lat="48.06633" lon="7.28117">
        <ele>305</ele>
        <time>2013-05-10T15:16:59Z</time>
      </trkpt>
      <trkpt lat="48.06624" lon="7.28115">
        <ele>305</ele>
        <time>2013-05-10T15:17:05Z</time>
      </trkpt>
      <trkpt lat="48.06612" lon="7.28115">
        <ele>306</ele>
        <time>2013-05-10T15:17:13Z</time>
      </trkpt>
      <trkpt lat="48.06601" lon="7.28115">
        <ele>307</ele>
        <time>2013-05-10T15:17:20Z</time>
      </trkpt>
      <trkpt lat="48.06592" lon="7.28114">
        <ele>307</ele>
        <time>2013-05-10T15:17:27Z</time>
      </trkpt>
      <trkpt lat="48.06587" lon="7.28113">
        <ele>307</ele>
        <time>2013-05-10T15:17:32Z</time>
      </trkpt>
      <trkpt lat="48.0658" lon="7.28111">
        <ele>314</ele>
        <time>2013-05-10T15:17:44Z</time>
      </trkpt>
      <trkpt lat="48.06564" lon="7.28109">
        <ele>315</ele>
        <time>2013-05-10T15:17:53Z</time>
      </trkpt>
      <trkpt lat="48.06542" lon="7.28106">
        <ele>317</ele>
        <time>2013-05-10T15:18:05Z</time>
      </trkpt>
      <trkpt lat="48.06529" lon="7.28105">
        <ele>318</ele>
        <time>2013-05-10T15:18:13Z</time>
      </trkpt>
      <trkpt lat="48.06512" lon="7.2811">
        <ele>319</ele>
        <time>2013-05-10T15:18:23Z</time>
      </trkpt>
      <trkpt lat="48.065" lon="7.28115">
        <ele>330</ele>
        <time>2013-05-10T15:18:32Z</time>
      </trkpt>
      <trkpt lat="48.06482" lon="7.28123">
        <ele>332</ele>
        <time>2013-05-10T15:18:42Z</time>
      </trkpt>
      <trkpt lat="48.06473" lon="7.28122">
        <ele>333</ele>
        <time>2013-05-10T15:18:49Z</time>
      </trkpt>
      <trkpt lat="48.06465" lon="7.28118">
        <ele>334</ele>
        <time>2013-05-10T15:18:55Z</time>
      </trkpt>
      <trkpt lat="48.06461" lon="7.28116">
        <ele>335</ele>
        <time>2013-05-10T15:18:58Z</time>
      </trkpt>
      <trkpt lat="48.06455" lon="7.28107">
        <ele>335</ele>
        <time>2013-05-10T15:19:05Z</time>
      </trkpt>
      <trkpt lat="48.0645" lon="7.28093">
        <ele>335</ele>
        <time>2013-05-10T15:19:12Z</time>
      </trkpt>
      <trkpt lat="48.06439" lon="7.28077">
        <ele>332</ele>
        <time>2013-05-10T15:19:19Z</time>
      </trkpt>
      <trkpt lat="48.06428" lon="7.28075">
        <ele>335</ele>
        <time>2013-05-10T15:19:25Z</time>
      </trkpt>
      <trkpt lat="48.06419" lon="7.28084">
        <ele>341</ele>
        <time>2013-05-10T15:19:31Z</time>
      </trkpt>
      <trkpt lat="48.06416" lon="7.28093">
        <ele>348</ele>
        <time>2013-05-10T15:19:36Z</time>
      </trkpt>
      <trkpt lat="48.06421" lon="7.28107">
        <ele>339</ele>
        <time>2013-05-10T15:19:43Z</time>
      </trkpt>
      <trkpt lat="48.06422" lon="7.28124">
        <ele>339</ele>
        <time>2013-05-10T15:19:50Z</time>
      </trkpt>
      <trkpt lat="48.06428" lon="7.28137">
        <ele>340</ele>
        <time>2013-05-10T15:19:56Z</time>
      </trkpt>
      <trkpt lat="48.06436" lon="7.28149">
        <ele>341</ele>
        <time>2013-05-10T15:20:01Z</time>
      </trkpt>
      <trkpt lat="48.06441" lon="7.28162">
        <ele>341</ele>
        <time>2013-05-10T15:20:06Z</time>
      </trkpt>
      <trkpt lat="48.06446" lon="7.28173">
        <ele>346</ele>
        <time>2013-05-10T15:20:10Z</time>
      </trkpt>
      <trkpt lat="48.06452" lon="7.28187">
        <ele>346</ele>
        <time>2013-05-10T15:20:17Z</time>
      </trkpt>
      <trkpt lat="48.06457" lon="7.28199">
        <ele>346</ele>
        <time>2013-05-10T15:20:25Z</time>
      </trkpt>
      <trkpt lat="48.06462" lon="7.28209">
        <ele>346</ele>
        <time>2013-05-10T15:20:33Z</time>
      </trkpt>
      <trkpt lat="48.06471" lon="7.28219">
        <ele>346</ele>
        <time>2013-05-10T15:20:40Z</time>
      </trkpt>
      <trkpt lat="48.06481" lon="7.28233">
        <ele>346</ele>
        <time>2013-05-10T15:20:50Z</time>
      </trkpt>
      <trkpt lat="48.06482" lon="7.28234">
        <ele>346</ele>
        <time>2013-05-10T15:20:51Z</time>
      </trkpt>
      <trkpt lat="48.06481" lon="7.28242">
        <ele>347</ele>
        <time>2013-05-10T15:20:55Z</time>
      </trkpt>
      <trkpt lat="48.06472" lon="7.28246">
        <ele>347</ele>
        <time>2013-05-10T15:21:02Z</time>
      </trkpt>
      <trkpt lat="48.06458" lon="7.2825">
        <ele>354</ele>
        <time>2013-05-10T15:21:12Z</time>
      </trkpt>
      <trkpt lat="48.06444" lon="7.28253">
        <ele>355</ele>
        <time>2013-05-10T15:21:22Z</time>
      </trkpt>
      <trkpt lat="48.06431" lon="7.28257">
        <ele>355</ele>
        <time>2013-05-10T15:21:31Z</time>
      </trkpt>
      <trkpt lat="48.06417" lon="7.28263">
        <ele>356</ele>
        <time>2013-05-10T15:21:41Z</time>
      </trkpt>
      <trkpt lat="48.06407" lon="7.2827">
        <ele>362</ele>
        <time>2013-05-10T15:21:49Z</time>
      </trkpt>
      <trkpt lat="48.06402" lon="7.28284">
        <ele>364</ele>
        <time>2013-05-10T15:21:56Z</time>
      </trkpt>
      <trkpt lat="48.06402" lon="7.28288">
        <ele>364</ele>
        <time>2013-05-10T15:21:58Z</time>
      </trkpt>
      <trkpt lat="48.06401" lon="7.28294">
        <ele>365</ele>
        <time>2013-05-10T15:22:01Z</time>
      </trkpt>
      <trkpt lat="48.06397" lon="7.28315">
        <ele>364</ele>
        <time>2013-05-10T15:22:11Z</time>
      </trkpt>
      <trkpt lat="48.06395" lon="7.28331">
        <ele>364</ele>
        <time>2013-05-10T15:22:19Z</time>
      </trkpt>
      <trkpt lat="48.06393" lon="7.28351">
        <ele>365</ele>
        <time>2013-05-10T15:22:29Z</time>
      </trkpt>
      <trkpt lat="48.06388" lon="7.28374">
        <ele>366</ele>
        <time>2013-05-10T15:22:40Z</time>
      </trkpt>
      <trkpt lat="48.06381" lon="7.2839">
        <ele>366</ele>
        <time>2013-05-10T15:22:49Z</time>
      </trkpt>
      <trkpt lat="48.06372" lon="7.28404">
        <ele>367</ele>
        <time>2013-05-10T15:22:58Z</time>
      </trkpt>
      <trkpt lat="48.06362" lon="7.28421">
        <ele>367</ele>
        <time>2013-05-10T15:23:08Z</time>
      </trkpt>
      <trkpt lat="48.06355" lon="7.28431">
        <ele>367</ele>
        <time>2013-05-10T15:23:15Z</time>
      </trkpt>
      <trkpt lat="48.06345" lon="7.28444">
        <ele>367</ele>
        <time>2013-05-10T15:23:24Z</time>
      </trkpt>
      <trkpt lat="48.06333" lon="7.28454">
        <ele>369</ele>
        <time>2013-05-10T15:23:33Z</time>
      </trkpt>
      <trkpt lat="48.06324" lon="7.28456">
        <ele>369</ele>
        <time>2013-05-10T15:23:39Z</time>
      </trkpt>
      <trkpt lat="48.06307" lon="7.28462">
        <ele>369</ele>
        <time>2013-05-10T15:23:48Z</time>
      </trkpt>
      <trkpt lat="48.06291" lon="7.28472">
        <ele>369</ele>
        <time>2013-05-10T15:23:56Z</time>
      </trkpt>
      <trkpt lat="48.06272" lon="7.28482">
        <ele>369</ele>
        <time>2013-05-10T15:24:02Z</time>
      </trkpt>
      <trkpt lat="48.06239" lon="7.28491">
        <ele>367</ele>
        <time>2013-05-10T15:24:10Z</time>
      </trkpt>
      <trkpt lat="48.06222" lon="7.28488">
        <ele>367</ele>
        <time>2013-05-10T15:24:14Z</time>
      </trkpt>
      <trkpt lat="48.06203" lon="7.28469">
        <ele>366</ele>
        <time>2013-05-10T15:24:20Z</time>
      </trkpt>
      <trkpt lat="48.06195" lon="7.28448">
        <ele>366</ele>
        <time>2013-05-10T15:24:25Z</time>
      </trkpt>
      <trkpt lat="48.06191" lon="7.28428">
        <ele>367</ele>
        <time>2013-05-10T15:24:31Z</time>
      </trkpt>
      <trkpt lat="48.06179" lon="7.28416">
        <ele>368</ele>
        <time>2013-05-10T15:24:36Z</time>
      </trkpt>
      <trkpt lat="48.06169" lon="7.28382">
        <ele>371</ele>
        <time>2013-05-10T15:24:41Z</time>
      </trkpt>
      <trkpt lat="48.06165" lon="7.28358">
        <ele>362</ele>
        <time>2013-05-10T15:24:44Z</time>
      </trkpt>
      <trkpt lat="48.06162" lon="7.28334">
        <ele>369</ele>
        <time>2013-05-10T15:24:48Z</time>
      </trkpt>
      <trkpt lat="48.06159" lon="7.28316">
        <ele>366</ele>
        <time>2013-05-10T15:24:53Z</time>
      </trkpt>
      <trkpt lat="48.06157" lon="7.28304">
        <ele>365</ele>
        <time>2013-05-10T15:24:55Z</time>
      </trkpt>
      <trkpt lat="48.06159" lon="7.28258">
        <ele>370</ele>
        <time>2013-05-10T15:25:00Z</time>
      </trkpt>
      <trkpt lat="48.06158" lon="7.28236">
        <ele>374</ele>
        <time>2013-05-10T15:25:02Z</time>
      </trkpt>
      <trkpt lat="48.06149" lon="7.28214">
        <ele>374</ele>
        <time>2013-05-10T15:25:06Z</time>
      </trkpt>
      <trkpt lat="48.06145" lon="7.28215">
        <ele>374</ele>
        <time>2013-05-10T15:25:07Z</time>
      </trkpt>
      <trkpt lat="48.06125" lon="7.2822">
        <ele>371</ele>
        <time>2013-05-10T15:25:11Z</time>
      </trkpt>
      <trkpt lat="48.06115" lon="7.28226">
        <ele>369</ele>
        <time>2013-05-10T15:25:14Z</time>
      </trkpt>
      <trkpt lat="48.06088" lon="7.28246">
        <ele>356</ele>
        <time>2013-05-10T15:25:19Z</time>
      </trkpt>
      <trkpt lat="48.06068" lon="7.28258">
        <ele>345</ele>
        <time>2013-05-10T15:25:23Z</time>
      </trkpt>
      <trkpt lat="48.0604" lon="7.28263">
        <ele>339</ele>
        <time>2013-05-10T15:25:28Z</time>
      </trkpt>
      <trkpt lat="48.06017" lon="7.2827">
        <ele>335</ele>
        <time>2013-05-10T15:25:32Z</time>
      </trkpt>
      <trkpt lat="48.05993" lon="7.2829">
        <ele>321</ele>
        <time>2013-05-10T15:25:37Z</time>
      </trkpt>
      <trkpt lat="48.05988" lon="7.28303">
        <ele>320</ele>
        <time>2013-05-10T15:25:40Z</time>
      </trkpt>
      <trkpt lat="48.05981" lon="7.28322">
        <ele>319</ele>
        <time>2013-05-10T15:25:45Z</time>
      </trkpt>
      <trkpt lat="48.05973" lon="7.28345">
        <ele>314</ele>
        <time>2013-05-10T15:25:48Z</time>
      </trkpt>
      <trkpt lat="48.05965" lon="7.28365">
        <ele>312</ele>
        <time>2013-05-10T15:25:52Z</time>
      </trkpt>
      <trkpt lat="48.05943" lon="7.28393">
        <ele>308</ele>
        <time>2013-05-10T15:25:57Z</time>
      </trkpt>
      <trkpt lat="48.05928" lon="7.28421">
        <ele>301</ele>
        <time>2013-05-10T15:26:00Z</time>
      </trkpt>
      <trkpt lat="48.05898" lon="7.28461">
        <ele>299</ele>
        <time>2013-05-10T15:26:05Z</time>
      </trkpt>
      <trkpt lat="48.05883" lon="7.28491">
        <ele>300</ele>
        <time>2013-05-10T15:26:09Z</time>
      </trkpt>
      <trkpt lat="48.0588" lon="7.2851">
        <ele>297</ele>
        <time>2013-05-10T15:26:11Z</time>
      </trkpt>
      <trkpt lat="48.05874" lon="7.28563">
        <ele>296</ele>
        <time>2013-05-10T15:26:16Z</time>
      </trkpt>
      <trkpt lat="48.05875" lon="7.28598">
        <ele>293</ele>
        <time>2013-05-10T15:26:19Z</time>
      </trkpt>
      <trkpt lat="48.0589" lon="7.2865">
        <ele>290</ele>
        <time>2013-05-10T15:26:23Z</time>
      </trkpt>
      <trkpt lat="48.05906" lon="7.28711">
        <ele>284</ele>
        <time>2013-05-10T15:26:27Z</time>
      </trkpt>
      <trkpt lat="48.05924" lon="7.28769">
        <ele>276</ele>
        <time>2013-05-10T15:26:31Z</time>
      </trkpt>
      <trkpt lat="48.0593" lon="7.28782">
        <ele>276</ele>
        <time>2013-05-10T15:26:32Z</time>
      </trkpt>
      <trkpt lat="48.05944" lon="7.28807">
        <ele>276</ele>
        <time>2013-05-10T15:26:34Z</time>
      </trkpt>
      <trkpt lat="48.05962" lon="7.28863">
        <ele>271</ele>
        <time>2013-05-10T15:26:38Z</time>
      </trkpt>
      <trkpt lat="48.05964" lon="7.2891">
        <ele>269</ele>
        <time>2013-05-10T15:26:41Z</time>
      </trkpt>
      <trkpt lat="48.05966" lon="7.28943">
        <ele>264</ele>
        <time>2013-05-10T15:26:43Z</time>
      </trkpt>
      <trkpt lat="48.05977" lon="7.29009">
        <ele>261</ele>
        <time>2013-05-10T15:26:47Z</time>
      </trkpt>
      <trkpt lat="48.05987" lon="7.29082">
        <ele>258</ele>
        <time>2013-05-10T15:26:51Z</time>
      </trkpt>
      <trkpt lat="48.05996" lon="7.29162">
        <ele>251</ele>
        <time>2013-05-10T15:26:55Z</time>
      </trkpt>
      <trkpt lat="48.06001" lon="7.29263">
        <ele>245</ele>
        <time>2013-05-10T15:27:00Z</time>
      </trkpt>
      <trkpt lat="48.06005" lon="7.29302">
        <ele>245</ele>
        <time>2013-05-10T15:27:02Z</time>
      </trkpt>
      <trkpt lat="48.06019" lon="7.29397">
        <ele>239</ele>
        <time>2013-05-10T15:27:07Z</time>
      </trkpt>
      <trkpt lat="48.06022" lon="7.2945">
        <ele>235</ele>
        <time>2013-05-10T15:27:10Z</time>
      </trkpt>
      <trkpt lat="48.06042" lon="7.29537">
        <ele>230</ele>
        <time>2013-05-10T15:27:16Z</time>
      </trkpt>
      <trkpt lat="48.06052" lon="7.29631">
        <ele>228</ele>
        <time>2013-05-10T15:27:23Z</time>
      </trkpt>
      <trkpt lat="48.06053" lon="7.29694">
        <ele>228</ele>
        <time>2013-05-10T15:27:29Z</time>
      </trkpt>
      <trkpt lat="48.06051" lon="7.2972">
        <ele>228</ele>
        <time>2013-05-10T15:27:33Z</time>
      </trkpt>
      <trkpt lat="48.06049" lon="7.29739">
        <ele>228</ele>
        <time>2013-05-10T15:27:38Z</time>
      </trkpt>
      <trkpt lat="48.06047" lon="7.29762">
        <ele>227</ele>
        <time>2013-05-10T15:27:45Z</time>
      </trkpt>
      <trkpt lat="48.06051" lon="7.29774">
        <ele>227</ele>
        <time>2013-05-10T15:27:48Z</time>
      </trkpt>
      <trkpt lat="48.06065" lon="7.29777">
        <ele>228</ele>
        <time>2013-05-10T15:27:53Z</time>
      </trkpt>
      <trkpt lat="48.06076" lon="7.29775">
        <ele>228</ele>
        <time>2013-05-10T15:27:58Z</time>
      </trkpt>
      <trkpt lat="48.0609" lon="7.29774">
        <ele>232</ele>
        <time>2013-05-10T15:28:05Z</time>
      </trkpt>
      <trkpt lat="48.06112" lon="7.2977">
        <ele>233</ele>
        <time>2013-05-10T15:28:15Z</time>
      </trkpt>
      <trkpt lat="48.0613" lon="7.29766">
        <ele>234</ele>
        <time>2013-05-10T15:28:23Z</time>
      </trkpt>
      <trkpt lat="48.06153" lon="7.29764">
        <ele>235</ele>
        <time>2013-05-10T15:28:34Z</time>
      </trkpt>
      <trkpt lat="48.06169" lon="7.29762">
        <ele>237</ele>
        <time>2013-05-10T15:28:41Z</time>
      </trkpt>
      <trkpt lat="48.06188" lon="7.2976">
        <ele>237</ele>
        <time>2013-05-10T15:28:49Z</time>
      </trkpt>
      <trkpt lat="48.0621" lon="7.29755">
        <ele>238</ele>
        <time>2013-05-10T15:28:57Z</time>
      </trkpt>
      <trkpt lat="48.06229" lon="7.29749">
        <ele>238</ele>
        <time>2013-05-10T15:29:03Z</time>
      </trkpt>
      <trkpt lat="48.06249" lon="7.29747">
        <ele>239</ele>
        <time>2013-05-10T15:29:09Z</time>
      </trkpt>
      <trkpt lat="48.06276" lon="7.29745">
        <ele>237</ele>
        <time>2013-05-10T15:29:16Z</time>
      </trkpt>
      <trkpt lat="48.06289" lon="7.2975">
        <ele>236</ele>
        <time>2013-05-10T15:29:20Z</time>
      </trkpt>
      <trkpt lat="48.06325" lon="7.29756">
        <ele>234</ele>
        <time>2013-05-10T15:29:28Z</time>
      </trkpt>
      <trkpt lat="48.0636" lon="7.29762">
        <ele>232</ele>
        <time>2013-05-10T15:29:34Z</time>
      </trkpt>
      <trkpt lat="48.06398" lon="7.29767">
        <ele>230</ele>
        <time>2013-05-10T15:29:39Z</time>
      </trkpt>
      <trkpt lat="48.06407" lon="7.29768">
        <ele>230</ele>
        <time>2013-05-10T15:29:40Z</time>
      </trkpt>
      <trkpt lat="48.06434" lon="7.29762">
        <ele>226</ele>
        <time>2013-05-10T15:29:43Z</time>
      </trkpt>
      <trkpt lat="48.06462" lon="7.29754">
        <ele>225</ele>
        <time>2013-05-10T15:29:46Z</time>
      </trkpt>
      <trkpt lat="48.06512" lon="7.2975">
        <ele>222</ele>
        <time>2013-05-10T15:29:52Z</time>
      </trkpt>
      <trkpt lat="48.06525" lon="7.29746">
        <ele>224</ele>
        <time>2013-05-10T15:29:54Z</time>
      </trkpt>
      <trkpt lat="48.06557" lon="7.29725">
        <ele>225</ele>
        <time>2013-05-10T15:30:00Z</time>
      </trkpt>
      <trkpt lat="48.06573" lon="7.29711">
        <ele>225</ele>
        <time>2013-05-10T15:30:04Z</time>
      </trkpt>
      <trkpt lat="48.066" lon="7.29699">
        <ele>227</ele>
        <time>2013-05-10T15:30:11Z</time>
      </trkpt>
      <trkpt lat="48.06618" lon="7.29704">
        <ele>226</ele>
        <time>2013-05-10T15:30:17Z</time>
      </trkpt>
      <trkpt lat="48.06638" lon="7.2971">
        <ele>226</ele>
        <time>2013-05-10T15:30:23Z</time>
      </trkpt>
      <trkpt lat="48.06663" lon="7.29718">
        <ele>226</ele>
        <time>2013-05-10T15:30:28Z</time>
      </trkpt>
      <trkpt lat="48.06675" lon="7.29721">
        <ele>224</ele>
        <time>2013-05-10T15:30:30Z</time>
      </trkpt>
      <trkpt lat="48.06702" lon="7.29722">
        <ele>224</ele>
        <time>2013-05-10T15:30:35Z</time>
      </trkpt>
      <trkpt lat="48.06707" lon="7.29722">
        <ele>224</ele>
        <time>2013-05-10T15:30:36Z</time>
      </trkpt>
      <trkpt lat="48.06738" lon="7.29721">
        <ele>223</ele>
        <time>2013-05-10T15:30:42Z</time>
      </trkpt>
      <trkpt lat="48.06765" lon="7.29722">
        <ele>221</ele>
        <time>2013-05-10T15:30:48Z</time>
      </trkpt>
      <trkpt lat="48.06783" lon="7.29722">
        <ele>222</ele>
        <time>2013-05-10T15:30:52Z</time>
      </trkpt>
      <trkpt lat="48.06815" lon="7.29718">
        <ele>222</ele>
        <time>2013-05-10T15:31:00Z</time>
      </trkpt>
      <trkpt lat="48.06844" lon="7.29719">
        <ele>222</ele>
        <time>2013-05-10T15:31:08Z</time>
      </trkpt>
      <trkpt lat="48.06872" lon="7.29729">
        <ele>222</ele>
        <time>2013-05-10T15:31:15Z</time>
      </trkpt>
      <trkpt lat="48.06895" lon="7.29741">
        <ele>221</ele>
        <time>2013-05-10T15:31:21Z</time>
      </trkpt>
      <trkpt lat="48.06915" lon="7.29751">
        <ele>221</ele>
        <time>2013-05-10T15:31:26Z</time>
      </trkpt>
      <trkpt lat="48.06942" lon="7.2976">
        <ele>221</ele>
        <time>2013-05-10T15:31:33Z</time>
      </trkpt>
      <trkpt lat="48.06944" lon="7.29761">
        <ele>221</ele>
        <time>2013-05-10T15:31:38Z</time>
      </trkpt>
      <trkpt lat="48.06951" lon="7.29756">
        <ele>222</ele>
        <time>2013-05-10T15:31:42Z</time>
      </trkpt>
      <trkpt lat="48.06953" lon="7.29751">
        <ele>222</ele>
        <time>2013-05-10T15:31:43Z</time>
      </trkpt>
      <trkpt lat="48.06966" lon="7.29708">
        <ele>222</ele>
        <time>2013-05-10T15:31:52Z</time>
      </trkpt>
      <trkpt lat="48.06975" lon="7.29683">
        <ele>222</ele>
        <time>2013-05-10T15:31:57Z</time>
      </trkpt>
      <trkpt lat="48.06983" lon="7.29652">
        <ele>223</ele>
        <time>2013-05-10T15:32:03Z</time>
      </trkpt>
      <trkpt lat="48.06987" lon="7.29643">
        <ele>223</ele>
        <time>2013-05-10T15:32:05Z</time>
      </trkpt>
      <trkpt lat="48.07003" lon="7.29642">
        <ele>224</ele>
        <time>2013-05-10T15:32:10Z</time>
      </trkpt>
      <trkpt lat="48.07038" lon="7.2966">
        <ele>224</ele>
        <time>2013-05-10T15:32:19Z</time>
      </trkpt>
      <trkpt lat="48.0706" lon="7.29675">
        <ele>224</ele>
        <time>2013-05-10T15:32:25Z</time>
      </trkpt>
      <trkpt lat="48.0707" lon="7.29683">
        <ele>224</ele>
        <time>2013-05-10T15:32:28Z</time>
      </trkpt>
      <trkpt lat="48.07082" lon="7.29705">
        <ele>223</ele>
        <time>2013-05-10T15:32:33Z</time>
      </trkpt>
      <trkpt lat="48.07084" lon="7.29716">
        <ele>223</ele>
        <time>2013-05-10T15:32:35Z</time>
      </trkpt>
      <trkpt lat="48.07077" lon="7.2973">
        <ele>223</ele>
        <time>2013-05-10T15:32:38Z</time>
      </trkpt>
      <trkpt lat="48.07075" lon="7.29735">
        <ele>223</ele>
        <time>2013-05-10T15:32:39Z</time>
      </trkpt>
      <trkpt lat="48.07062" lon="7.29766">
        <ele>223</ele>
        <time>2013-05-10T15:32:45Z</time>
      </trkpt>
      <trkpt lat="48.07056" lon="7.29775">
        <ele>223</ele>
        <time>2013-05-10T15:32:47Z</time>
      </trkpt>
      <trkpt lat="48.0705" lon="7.29791">
        <ele>223</ele>
        <time>2013-05-10T15:32:50Z</time>
      </trkpt>
      <trkpt lat="48.0704" lon="7.29817">
        <ele>223</ele>
        <time>2013-05-10T15:32:55Z</time>
      </trkpt>
      <trkpt lat="48.07033" lon="7.29838">
        <ele>222</ele>
        <time>2013-05-10T15:32:59Z</time>
      </trkpt>
      <trkpt lat="48.07027" lon="7.29865">
        <ele>222</ele>
        <time>2013-05-10T15:33:04Z</time>
      </trkpt>
      <trkpt lat="48.07026" lon="7.29886">
        <ele>222</ele>
        <time>2013-05-10T15:33:08Z</time>
      </trkpt>
      <trkpt lat="48.07018" lon="7.2991">
        <ele>222</ele>
        <time>2013-05-10T15:33:13Z</time>
      </trkpt>
      <trkpt lat="48.0702" lon="7.2992">
        <ele>221</ele>
        <time>2013-05-10T15:33:17Z</time>
      </trkpt>
      <trkpt lat="48.07022" lon="7.29918">
        <ele>221</ele>
        <time>2013-05-10T15:33:23Z</time>
      </trkpt>
      <trkpt lat="48.07023" lon="7.29918">
        <ele>221</ele>
        <time>2013-05-10T15:33:28Z</time>
      </trkpt>
    </trkseg>
  </trk>
</gpx>